Provisional Data: Little Clearfield Creek near Dimeling, PA


Please select a monitoring station.
Please select start date.
Please select start date.
Historical Station - Data Range: 04/28/2010 - 03/13/2024

Toggle Unit: C/F Toggle Unit: C/F
Sample Time Temperature (C) Temperature (F) Specific Conductivity (mS/cm) pH   Turbidity (NTU+) DO (mg/L)
4/18/2023 12:00:00 AM 10.09 50.162 0.002 8 4.41 10.41
4/18/2023 12:15:00 AM 9.93 49.874 0.002 7.98 4.05 10.41
4/18/2023 12:30:00 AM 9.87 49.766 0.002 8 3.86 10.47
4/18/2023 12:45:00 AM 9.81 49.658 0.002 8 4.06 10.48
4/18/2023 1:00:00 AM 9.77 49.586 0.002 7.99 4.4 10.47
4/18/2023 1:15:00 AM 9.74 49.532 0.002 8 4.38 10.51
4/18/2023 1:30:00 AM 9.67 49.406 0.003 7.99 3.99 10.48
4/18/2023 1:45:00 AM 9.63 49.334 0.003 7.99 4.42 10.52
4/18/2023 2:00:00 AM 9.57 49.226 0.002 8 4.54 10.54
4/18/2023 2:15:00 AM 9.5 49.1 0.003 7.99 3.85 10.53
4/18/2023 2:30:00 AM 9.44 48.992 0.003 7.98 4 10.56
4/18/2023 2:45:00 AM 9.4 48.92 0.003 7.99 4.95 10.58
4/18/2023 3:00:00 AM 9.36 48.848 0.002 8 3.85 10.6
4/18/2023 3:15:00 AM 9.29 48.722 0.003 7.99 3.92 10.61
4/18/2023 3:30:00 AM 9.24 48.632 0.002 7.99 4.01 10.62
4/18/2023 3:45:00 AM 9.21 48.578 0.002 8 3.82 10.66
4/18/2023 4:00:00 AM 9.15 48.47 0.002 7.99 6.36 10.65
4/18/2023 4:15:00 AM 9.1 48.38 0.002 8 5.25 10.67
4/18/2023 4:30:00 AM 9.05 48.29 0.002 7.99 4.41 10.69
4/18/2023 4:45:00 AM 8.99 48.182 0.003 7.99 3.88 10.69
4/18/2023 5:00:00 AM 8.95 48.11 0.002 7.99 4.34 10.73
4/18/2023 5:15:00 AM 8.89 48.002 0.002 8 5.65 10.74
4/18/2023 5:30:00 AM 8.84 47.912 0.003 8 3.91 10.76
4/18/2023 5:45:00 AM 8.78 47.804 0.002 8 3.69 10.79
4/18/2023 6:00:00 AM 8.75 47.75 0.003 8 3.9 10.82
4/18/2023 6:15:00 AM 8.7 47.66 0.003 8 3.89 10.82
4/18/2023 6:30:00 AM 8.67 47.606 0.002 8 4.25 10.86
4/18/2023 6:45:00 AM 8.63 47.534 0.002 8.01 4.19 10.92
4/18/2023 7:00:00 AM 8.58 47.444 0.002 8 3.92 10.93
4/18/2023 7:15:00 AM 8.58 47.444 0.002 8.02 4.36 11
4/18/2023 7:30:00 AM 8.54 47.372 0.003 8.01 3.8 11.01
4/18/2023 7:45:00 AM 8.54 47.372 0.002 8.03 4.16 11.09
4/18/2023 8:00:00 AM 8.53 47.354 0.003 8.03 3.93 11.13
4/18/2023 8:15:00 AM 8.51 47.318 0.003 8.04 5.69 11.17
4/18/2023 8:30:00 AM 8.49 47.282 0.002 8.04 3.99 11.21
4/18/2023 8:45:00 AM 8.46 47.228 0.002 8.05 3.85 11.24
4/18/2023 9:00:00 AM 8.43 47.174 0.002 8.06 6.07 11.26
4/18/2023 9:15:00 AM 8.4 47.12 0.002 8.05 4.27 11.28
4/18/2023 9:30:00 AM 8.43 47.174 0.002 8.06 3.57 11.3
4/18/2023 9:45:00 AM 8.48 47.264 0.002 8.07 3.89 11.36
4/18/2023 10:00:00 AM 8.57 47.426 0.002 8.07 3.76 11.39
4/18/2023 10:15:00 AM 8.59 47.462 0.002 8.09 3.77 11.42
4/18/2023 10:30:00 AM 8.59 47.462 0.002 8.07 4.08 11.43
4/18/2023 10:45:00 AM 8.57 47.426 0.002 8.09 4.31 11.43
4/18/2023 11:00:00 AM 8.49 47.282 0.002 8.1 3.57 11.4
4/18/2023 11:15:00 AM 8.48 47.264 0.002 8.1 4.07 11.4
4/18/2023 11:30:00 AM 8.41 47.138 0.002 8.1 3.81 11.36
4/18/2023 11:45:00 AM 8.39 47.102 0.002 8.1 3.69 11.4
4/18/2023 12:00:00 PM 8.35 47.03 0.002 8.09 4.03 11.41
4/18/2023 12:15:00 PM 8.38 47.084 0.002 8.09 5.69 11.43
4/18/2023 12:30:00 PM 8.35 47.03 0.002 8.11 3.5 11.48
4/18/2023 12:45:00 PM 8.29 46.922 0.002 8.11 4.18 11.47
4/18/2023 1:00:00 PM 8.26 46.868 0.002 8.11 3.69 11.44
4/18/2023 1:15:00 PM 8.21 46.778 0.002 8.1 3.69 11.44
4/18/2023 1:30:00 PM 8.17 46.706 0.002 8.11 3.72 11.46
4/18/2023 1:45:00 PM 8.14 46.652 0.002 8.11 4.24 11.47
4/18/2023 2:00:00 PM 8.09 46.562 0.002 8.11 4.05 11.48
4/18/2023 2:15:00 PM 8.1 46.58 0.002 8.1 4.14 11.48
4/18/2023 2:30:00 PM 8.14 46.652 0.002 8.12 4.1 11.52
4/18/2023 2:45:00 PM 8.11 46.598 0.002 8.1 3.83 11.55
4/18/2023 3:00:00 PM 8.09 46.562 0.002 8.11 4.89 11.54
4/18/2023 3:15:00 PM 8.09 46.562 0.002 8.12 4.28 11.55
4/18/2023 3:30:00 PM 8.06 46.508 0.002 8.12 3.78 11.55
4/18/2023 3:45:00 PM 8.08 46.544 0.002 8.11 4.56 11.55
4/18/2023 4:00:00 PM 8.06 46.508 0.002 8.12 4.82 11.57
4/18/2023 4:15:00 PM 8.04 46.472 0.002 8.12 4.28 11.55
4/18/2023 4:30:00 PM 7.98 46.364 0.002 8.1 4.52 11.52
4/18/2023 4:45:00 PM 7.96 46.328 0.002 8.11 4.22 11.52
4/18/2023 5:00:00 PM 7.95 46.31 0.002 8.12 4.29 11.52
4/18/2023 5:15:00 PM 7.92 46.256 0.002 8.11 4.6 11.5
4/18/2023 5:30:00 PM 7.89 46.202 0.002 8.1 4.14 11.48
4/18/2023 5:45:00 PM 7.86 46.148 0.002 8.1 3.77 11.48
4/18/2023 6:00:00 PM 7.84 46.112 0.002 8.11 3.65 11.5
4/18/2023 6:15:00 PM 7.82 46.076 0.002 8.1 4.04 11.5
4/18/2023 6:30:00 PM 7.79 46.022 0.002 8.1 3.66 11.45
4/18/2023 6:45:00 PM 7.76 45.968 0.002 8.09 4.08 11.44
4/18/2023 7:00:00 PM 7.74 45.932 0.002 8.09 4.39 11.39
4/18/2023 7:15:00 PM 7.71 45.878 0.002 8.08 3.57 11.38
4/18/2023 7:30:00 PM 7.68 45.824 0.002 8.08 3.98 11.37
4/18/2023 7:45:00 PM 7.65 45.77 0.002 8.07 3.67 11.35
4/18/2023 8:00:00 PM 7.62 45.716 0.002 8.06 4.2 11.34
4/18/2023 8:15:00 PM 7.6 45.68 0.002 8.05 3.62 11.34
4/18/2023 8:30:00 PM 7.57 45.626 0.002 8.05 3.59 11.34
4/18/2023 8:45:00 PM 7.55 45.59 0.002 8.05 3.9 11.35
4/18/2023 9:00:00 PM 7.53 45.554 0.002 8.05 3.81 11.36
4/18/2023 9:15:00 PM 7.5 45.5 0.002 8.04 3.91 11.36
4/18/2023 9:30:00 PM 7.48 45.464 0.002 8.04 3.78 11.35
4/18/2023 9:45:00 PM 7.46 45.428 0.002 8.04 3.82 11.34
4/18/2023 10:00:00 PM 7.43 45.374 0.002 8.03 3.75 11.33
4/18/2023 10:15:00 PM 7.41 45.338 0.002 8.03 3.73 11.34
4/18/2023 10:30:00 PM 7.38 45.284 0.002 8.02 3.56 11.35
4/18/2023 10:45:00 PM 7.37 45.266 0.002 8.03 4.19 11.35
4/18/2023 11:00:00 PM 7.34 45.212 0.002 8.01 3.69 11.33
4/18/2023 11:15:00 PM 7.31 45.158 0.002 8.01 3.7 11.36
4/18/2023 11:30:00 PM 7.29 45.122 0.002 8.02 3.64 11.36
4/18/2023 11:45:00 PM 7.27 45.086 0.002 8.01 3.6 11.35
4/19/2023 12:00:00 AM 7.25 45.05 0.002 8.01 3.64 11.36
4/19/2023 12:15:00 AM 7.23 45.014 0.002 8.01 4.1 11.39
4/19/2023 12:30:00 AM 7.21 44.978 0.002 8.01 3.72 11.39
4/19/2023 12:45:00 AM 7.18 44.924 0.002 8.01 4.19 11.42
4/19/2023 1:00:00 AM 7.13 44.834 0.002 8 4.08 11.41
4/19/2023 1:15:00 AM 7.08 44.744 0.002 8 4.22 11.42
4/19/2023 1:30:00 AM 7.02 44.636 0.002 8 3.64 11.43
4/19/2023 1:45:00 AM 6.97 44.546 0.002 8 3.92 11.42
4/19/2023 2:00:00 AM 6.92 44.456 0.002 8 4.35 11.46
4/19/2023 2:15:00 AM 6.87 44.366 0.002 7.99 3.63 11.46
4/19/2023 2:30:00 AM 6.81 44.258 0.002 8 4.21 11.48
4/19/2023 2:45:00 AM 6.76 44.168 0.002 7.99 5.02 11.48
4/19/2023 3:00:00 AM 6.7 44.06 0.002 8 4.16 11.53
4/19/2023 3:15:00 AM 6.65 43.97 0.002 7.99 3.72 11.52
4/19/2023 3:30:00 AM 6.58 43.844 0.002 7.99 4.19 11.55
4/19/2023 3:45:00 AM 6.53 43.754 0.002 7.99 3.78 11.56
4/19/2023 4:00:00 AM 6.46 43.628 0.002 7.99 3.96 11.58
4/19/2023 4:15:00 AM 6.41 43.538 0.002 7.98 4.79 11.58
4/19/2023 4:30:00 AM 6.34 43.412 0.002 7.99 3.69 11.6
4/19/2023 4:45:00 AM 6.28 43.304 0.002 7.99 3.77 11.64
4/19/2023 5:00:00 AM 6.22 43.196 0.002 7.99 3.78 11.66
4/19/2023 5:15:00 AM 6.16 43.088 0.002 7.98 3.72 11.66
4/19/2023 5:30:00 AM 6.1 42.98 0.002 7.98 4.22 11.7
4/19/2023 5:45:00 AM 6.03 42.854 0.002 7.98 3.74 11.71
4/19/2023 6:00:00 AM 5.99 42.782 0.002 7.98 4.05 11.76
4/19/2023 6:15:00 AM 5.95 42.71 0.002 7.98 4.4 11.79
4/19/2023 6:30:00 AM 5.91 42.638 0.002 7.99 4.08 11.83
4/19/2023 6:45:00 AM 5.88 42.584 0.002 8 4.17 11.89
4/19/2023 7:00:00 AM 5.88 42.584 0.002 8 3.67 11.94
4/19/2023 7:15:00 AM 5.95 42.71 0.002 8.01 3.66 11.97
4/19/2023 7:30:00 AM 6.02 42.836 0.002 8.02 3.79 12.02
4/19/2023 7:45:00 AM 6.12 43.016 0.002 8.02 3.72 12.06
4/19/2023 8:00:00 AM 6.21 43.178 0.003 8.04 4.98 12.1
4/19/2023 8:15:00 AM 6.19 43.142 0.002 8.05 5.38 12.11
4/19/2023 8:30:00 AM 6.28 43.304 0.002 8.04 3.88 12.12
4/19/2023 8:45:00 AM 6.35 43.43 0.002 8.04 4.04 12.1
4/19/2023 9:00:00 AM 6.42 43.556 0.002 8.05 6.31 12.12
4/19/2023 9:15:00 AM 6.52 43.736 0.002 8.05 4.11 12.06
4/19/2023 9:30:00 AM 6.64 43.952 0.002 8.06 3.87 12.1
4/19/2023 9:45:00 AM 6.81 44.258 0.002 8.07 4.06 12.1
4/19/2023 10:00:00 AM 6.99 44.582 0.002 8.07 4.97 12.09
4/19/2023 10:15:00 AM 7.19 44.942 0.002 8.08 6.66 12.07
4/19/2023 10:30:00 AM 7.43 45.374 0.002 8.08 3.76 12.05
4/19/2023 10:45:00 AM 7.71 45.878 0.002 8.08 5.66 12.05
4/19/2023 11:00:00 AM 7.97 46.346 0.002 8.09 4.13 12.03
4/19/2023 11:15:00 AM 8.22 46.796 0.002 8.1 4.58 11.98
4/19/2023 11:30:00 AM 8.47 47.246 0.002 8.11 4.55 11.94
4/19/2023 11:45:00 AM 8.78 47.804 0.002 8.12 4.1 11.94
4/19/2023 12:00:00 PM 9.07 48.326 0.002 8.13 3.83 11.91
4/19/2023 12:15:00 PM 9.38 48.884 0.003 8.13 4.17 11.84
4/19/2023 12:30:00 PM 9.77 49.586 0.003 8.13 3.78 11.81
4/19/2023 12:45:00 PM 9.87 49.766 0.003 8.14 3.97 11.73
4/19/2023 1:00:00 PM 10.27 50.486 0.003 8.15 4.14 11.66
4/19/2023 1:15:00 PM 10.62 51.116 0.003 8.15 4.22 11.64
4/19/2023 1:30:00 PM 10.82 51.476 0.004 8.15 4.3 11.54
4/19/2023 1:45:00 PM 10.98 51.764 0.003 8.16 4.91 11.47
4/19/2023 2:00:00 PM 11.27 52.286 0.004 8.16 5.59 11.41
4/19/2023 2:15:00 PM 11.56 52.808 0.005 8.17 5.64 11.33
4/19/2023 2:30:00 PM 11.75 53.15 0.004 8.17 5.24 11.15
4/19/2023 2:45:00 PM 11.96 53.528 0.004 8.17 4.2 11.13
4/19/2023 3:00:00 PM 12.15 53.87 0.005 8.16 5.22 11.11
4/19/2023 3:15:00 PM 12.24 54.032 0.004 8.17 4.51 11.01
4/19/2023 3:30:00 PM 12.34 54.212 0.003 8.17 3.85 10.98
4/19/2023 3:45:00 PM 12.39 54.302 0.004 8.16 5.79 10.89
4/19/2023 4:00:00 PM 12.47 54.446 0.003 8.17 3.91 10.86
4/19/2023 4:15:00 PM 12.48 54.464 0.003 8.18 4.06 10.87
4/19/2023 4:30:00 PM 12.44 54.392 0.005 8.17 3.56 10.68
4/19/2023 4:45:00 PM 12.32 54.176 0.003 8.17 5.37 10.75
4/19/2023 5:00:00 PM 12.19 53.942 0.003 8.17 3.68 10.71
4/19/2023 5:15:00 PM 12.1 53.78 0.004 8.16 3.82 10.69
4/19/2023 5:30:00 PM 12.01 53.618 0.005 8.14 3.89 10.62
4/19/2023 5:45:00 PM 11.9 53.42 0.004 8.14 4.76 10.61
4/19/2023 6:00:00 PM 11.8 53.24 0.003 8.13 4.22 10.57
4/19/2023 6:15:00 PM 11.68 53.024 0.005 8.13 4.03 10.56
4/19/2023 6:30:00 PM 11.58 52.844 0.003 8.12 3.69 10.5
4/19/2023 6:45:00 PM 11.47 52.646 0.004 8.11 4.05 10.49
4/19/2023 7:00:00 PM 11.38 52.484 0.004 8.09 3.67 10.44
4/19/2023 7:15:00 PM 11.29 52.322 0.004 8.08 3.68 10.42
4/19/2023 7:30:00 PM 11.21 52.178 0.003 8.07 3.93 10.42
4/19/2023 7:45:00 PM 11.14 52.052 0.004 8.07 3.79 10.4
4/19/2023 8:00:00 PM 11.06 51.908 0.003 8.07 3.71 10.41
4/19/2023 8:15:00 PM 10.98 51.764 0.003 8.06 3.72 10.42
4/19/2023 8:30:00 PM 10.89 51.602 0.003 8.05 3.41 10.39
4/19/2023 8:45:00 PM 10.81 51.458 0.003 8.04 3.8 10.41
4/19/2023 9:00:00 PM 10.72 51.296 0.003 8.03 4.25 10.42
4/19/2023 9:15:00 PM 10.63 51.134 0.004 8.04 4.3 10.44
4/19/2023 9:30:00 PM 10.55 50.99 0.004 8.03 5.93 10.46
4/19/2023 9:45:00 PM 10.44 50.792 0.003 8.03 3.95 10.46
4/19/2023 10:00:00 PM 10.33 50.594 0.003 8.02 3.84 10.49
4/19/2023 10:15:00 PM 10.24 50.432 0.003 8.01 4.14 10.51
4/19/2023 10:30:00 PM 10.14 50.252 0.003 8 3.96 10.53
4/19/2023 10:45:00 PM 10.06 50.108 0.003 8.01 4.39 10.58
4/19/2023 11:00:00 PM 9.97 49.946 0.003 8 4.33 10.58
4/19/2023 11:15:00 PM 9.9 49.82 0.003 8 4.96 10.6
4/19/2023 11:30:00 PM 9.81 49.658 0.002 7.99 4.73 10.6
4/19/2023 11:45:00 PM 9.76 49.568 0.003 8 4.46 10.64
4/20/2023 12:00:00 AM 9.68 49.424 0.003 7.99 4.19 10.64
4/20/2023 12:15:00 AM 9.61 49.298 0.002 7.99 3.92 10.66
4/20/2023 12:30:00 AM 9.55 49.19 0.002 7.99 3.88 10.66
4/20/2023 12:45:00 AM 9.51 49.118 0.003 7.98 4.03 10.68
4/20/2023 1:00:00 AM 9.47 49.046 0.003 7.99 4.37 10.7
4/20/2023 1:15:00 AM 9.45 49.01 0.003 7.98 4 10.71
4/20/2023 1:30:00 AM 9.42 48.956 0.003 7.99 3.91 10.73
4/20/2023 1:45:00 AM 9.4 48.92 0.003 7.98 3.95 10.73
4/20/2023 2:00:00 AM 9.38 48.884 0.003 7.98 4.11 10.75
4/20/2023 2:15:00 AM 9.31 48.758 0.002 7.97 4.3 10.74
4/20/2023 2:30:00 AM 9.25 48.65 0.002 7.98 3.75 10.77
4/20/2023 2:45:00 AM 9.19 48.542 0.002 7.98 3.99 10.77
4/20/2023 3:00:00 AM 9.13 48.434 0.003 7.97 4.1 10.78
4/20/2023 3:15:00 AM 9.07 48.326 0.003 7.95 8.86 10.73
4/20/2023 3:30:00 AM 9.01 48.218 0.003 7.96 4.31 10.79
4/20/2023 3:45:00 AM 8.97 48.146 0.002 7.97 4.04 10.82
4/20/2023 4:00:00 AM 8.9 48.02 0.002 7.97 4.42 10.84
4/20/2023 4:15:00 AM 8.84 47.912 0.003 7.96 3.99 10.84
4/20/2023 4:30:00 AM 8.78 47.804 0.003 7.96 4.02 10.88
4/20/2023 4:45:00 AM 8.74 47.732 0.003 7.97 4.54 10.9
4/20/2023 5:00:00 AM 8.66 47.588 0.002 7.97 4.31 10.92
4/20/2023 5:15:00 AM 8.57 47.426 0.002 7.96 4.28 10.87
4/20/2023 5:30:00 AM 8.49 47.282 0.002 7.96 4.01 10.91
4/20/2023 5:45:00 AM 8.44 47.192 0.003 7.96 4.3 10.98
4/20/2023 6:00:00 AM 8.38 47.084 0.003 7.96 4.04 10.96
4/20/2023 6:15:00 AM 8.33 46.994 0.003 7.97 4.54 11.03
4/20/2023 6:30:00 AM 8.28 46.904 0.003 7.98 4.85 11.15
4/20/2023 6:45:00 AM 8.24 46.832 0.003 7.98 3.99 11.15
4/20/2023 7:00:00 AM 8.23 46.814 0.003 7.99 4.34 11.18
4/20/2023 7:15:00 AM 8.3 46.94 0.003 7.99 4.06 11.28
4/20/2023 7:30:00 AM 8.37 47.066 0.003 8 3.98 11.29
4/20/2023 7:45:00 AM 8.42 47.156 0.003 8.01 4.42 11.4
4/20/2023 8:00:00 AM 8.51 47.318 0.003 8.01 4.13 11.41
4/20/2023 8:15:00 AM 8.57 47.426 0.003 8.02 4.89 11.4
4/20/2023 8:30:00 AM 8.67 47.606 0.003 8.03 4.26 11.44
4/20/2023 8:45:00 AM 8.75 47.75 0.003 8.04 5.31 11.46
4/20/2023 9:00:00 AM 8.89 48.002 0.003 8.04 4.22 11.45
4/20/2023 9:15:00 AM 9.05 48.29 0.004 8.05 3.97 11.45
4/20/2023 9:30:00 AM 9.21 48.578 0.003 8.06 3.8 11.43
4/20/2023 9:45:00 AM 9.38 48.884 0.003 8.06 4.81 11.36
4/20/2023 10:00:00 AM 9.61 49.298 0.003 8.06 4.32 11.4
4/20/2023 10:15:00 AM 9.88 49.784 0.004 8.07 4.28 11.36
4/20/2023 10:30:00 AM 10.14 50.252 0.003 8.06 4.3 11.36
4/20/2023 10:45:00 AM 10.46 50.828 0.003 8.08 3.93 11.35
4/20/2023 11:00:00 AM 10.77 51.386 0.003 8.1 4.12 11.33
4/20/2023 11:15:00 AM 11.07 51.926 0.004 8.1 4.35 11.28
4/20/2023 11:30:00 AM 11.35 52.43 0.004 8.11 3.95 11.26
4/20/2023 11:45:00 AM 11.73 53.114 0.004 8.12 4.4 11.11
4/20/2023 12:00:00 PM 12.11 53.798 0.004 8.13 4.21 11.13
4/20/2023 12:15:00 PM 12.39 54.302 0.005 8.14 3.75 11.06
4/20/2023 12:30:00 PM 12.85 55.13 0.004 8.14 4.13 11.06
4/20/2023 12:45:00 PM 13.12 55.616 0.004 8.15 3.87 10.95
4/20/2023 1:00:00 PM 13.4 56.12 0.004 8.16 4.23 10.89
4/20/2023 1:15:00 PM 13.76 56.768 0.005 8.16 4.08 10.78
4/20/2023 1:30:00 PM 13.86 56.948 0.004 8.17 5.4 10.77
4/20/2023 1:45:00 PM 14.21 57.578 0.004 8.17 4.92 10.73
4/20/2023 2:00:00 PM 14.49 58.082 0.004 8.19 4.42 10.64
4/20/2023 2:15:00 PM 14.69 58.442 0.005 8.19 4.14 10.46
4/20/2023 2:30:00 PM 14.83 58.694 0.004 8.2 4.26 10.58
4/20/2023 2:45:00 PM 15.02 59.036 0.003 8.19 4.12 10.55
4/20/2023 3:00:00 PM 15.25 59.45 0.004 8.21 4.71 10.48
4/20/2023 3:15:00 PM 15.45 59.81 0.006 8.21 3.91 10.42
4/20/2023 3:30:00 PM 15.6 60.08 0.004 8.21 5.36 10.37
4/20/2023 3:45:00 PM 15.59 60.062 0.005 8.21 3.77 10.3
4/20/2023 4:00:00 PM 15.53 59.954 0.005 8.21 3.97 10.23
4/20/2023 4:15:00 PM 15.6 60.08 0.005 8.22 3.79 10.21
4/20/2023 4:30:00 PM 15.64 60.152 0.005 8.21 3.79 10.15
4/20/2023 4:45:00 PM 15.58 60.044 0.005 8.2 3.76 10.1
4/20/2023 5:00:00 PM 15.5 59.9 0.006 8.19 3.78 10.02
4/20/2023 5:15:00 PM 15.4 59.72 0.005 8.19 4.39 9.96
4/20/2023 5:30:00 PM 15.32 59.576 0.004 8.18 3.81 9.92
4/20/2023 5:45:00 PM 15.23 59.414 0.004 8.17 4.62 9.87
4/20/2023 6:00:00 PM 15.14 59.252 0.004 8.16 4.17 9.82
4/20/2023 6:15:00 PM 15.05 59.09 0.005 8.15 3.61 9.77
4/20/2023 6:30:00 PM 14.95 58.91 0.004 8.14 4.15 9.73
4/20/2023 6:45:00 PM 14.86 58.748 0.005 8.13 3.99 9.7
4/20/2023 7:00:00 PM 14.75 58.55 0.005 8.12 4.77 9.65
4/20/2023 7:15:00 PM 14.64 58.352 0.005 8.1 4.3 9.59
4/20/2023 7:30:00 PM 14.57 58.226 0.005 8.09 3.89 9.55
4/20/2023 7:45:00 PM 14.48 58.064 0.003 8.07 4.21 9.53
4/20/2023 8:00:00 PM 14.41 57.938 0.004 8.06 3.9 9.53
4/20/2023 8:15:00 PM 14.35 57.83 0.003 8.06 4.22 9.54
4/20/2023 8:30:00 PM 14.26 57.668 0.004 8.04 4.77 9.5
4/20/2023 8:45:00 PM 14.18 57.524 0.005 8.04 3.79 9.51
4/20/2023 9:00:00 PM 14.09 57.362 0.004 8.03 3.98 9.5
4/20/2023 9:15:00 PM 14.01 57.218 0.005 8.02 4.38 9.52
4/20/2023 9:30:00 PM 13.89 57.002 0.004 8.02 3.9 9.54
4/20/2023 9:45:00 PM 13.78 56.804 0.004 8.02 4.07 9.56
4/20/2023 10:00:00 PM 13.67 56.606 0.003 8.01 4.86 9.57
4/20/2023 10:15:00 PM 13.57 56.426 0.004 8.01 4.8 9.59
4/20/2023 10:30:00 PM 13.45 56.21 0.004 8.01 3.53 9.59
4/20/2023 10:45:00 PM 13.33 55.994 0.004 8 3.79 9.63
4/20/2023 11:00:00 PM 13.24 55.832 0.004 8 5.24 9.65
4/20/2023 11:15:00 PM 13.14 55.652 0.004 8 4.4 9.68
4/20/2023 11:30:00 PM 13.02 55.436 0.004 7.99 7.2 9.68
4/20/2023 11:45:00 PM 12.92 55.256 0.004 7.99 4.11 9.71
4/21/2023 12:00:00 AM 12.83 55.094 0.005 7.99 4.53 9.72
4/21/2023 12:15:00 AM 12.73 54.914 0.003 7.99 4.54 9.75
4/21/2023 12:30:00 AM 12.65 54.77 0.004 7.99 4.33 9.78
4/21/2023 12:45:00 AM 12.55 54.59 0.004 7.98 4.07 9.8
4/21/2023 1:00:00 AM 12.47 54.446 0.004 7.98 4 9.81
4/21/2023 1:15:00 AM 12.41 54.338 0.004 7.98 4.18 9.84
4/21/2023 1:30:00 AM 12.34 54.212 0.004 7.98 4.23 9.87
4/21/2023 1:45:00 AM 12.27 54.086 0.004 7.98 5 9.87
4/21/2023 2:00:00 AM 12.18 53.924 0.003 7.97 4.3 9.89
4/21/2023 2:15:00 AM 12.11 53.798 0.003 7.97 3.86 9.9
4/21/2023 2:30:00 AM 12.04 53.672 0.003 7.97 5.93 9.92
4/21/2023 2:45:00 AM 11.96 53.528 0.003 7.96 3.89 9.95
4/21/2023 3:00:00 AM 11.88 53.384 0.003 7.96 4.05 9.96
4/21/2023 3:15:00 AM 11.81 53.258 0.003 7.96 4.11 9.97
4/21/2023 3:30:00 AM 11.75 53.15 0.004 7.96 4.05 9.98
4/21/2023 3:45:00 AM 11.69 53.042 0.004 7.96 4.35 10.02
4/21/2023 4:00:00 AM 11.59 52.862 0.003 7.96 4.44 10.02
4/21/2023 4:15:00 AM 11.53 52.754 0.004 7.96 4.5 10.04
4/21/2023 4:30:00 AM 11.45 52.61 0.004 7.96 4.19 10.07
4/21/2023 4:45:00 AM 11.37 52.466 0.003 7.95 4.08 10.09
4/21/2023 5:00:00 AM 11.29 52.322 0.003 7.96 4.26 10.12
4/21/2023 5:15:00 AM 11.21 52.178 0.003 7.96 4.6 10.15
4/21/2023 5:30:00 AM 11.13 52.034 0.004 7.96 5.63 10.13
4/21/2023 5:45:00 AM 11.04 51.872 0.004 7.95 4.19 10.16
4/21/2023 6:00:00 AM 10.96 51.728 0.004 7.95 4.31 10.23
4/21/2023 6:15:00 AM 10.9 51.62 0.003 7.96 5.27 10.25
4/21/2023 6:30:00 AM 10.85 51.53 0.003 7.96 4.17 10.32
4/21/2023 6:45:00 AM 10.82 51.476 0.003 7.97 4.16 10.37
4/21/2023 7:00:00 AM 10.8 51.44 0.004 7.97 4.08 10.4
4/21/2023 7:15:00 AM 10.89 51.602 0.004 7.99 4.6 10.52
4/21/2023 7:30:00 AM 10.94 51.692 0.004 8 5.78 10.61
4/21/2023 7:45:00 AM 11 51.8 0.004 8.01 4.14 10.67
4/21/2023 8:00:00 AM 11.05 51.89 0.003 8.02 5.19 10.7
4/21/2023 8:15:00 AM 11.14 52.052 0.004 8.03 4.36 10.74
4/21/2023 8:30:00 AM 11.23 52.214 0.004 8.04 4.59 10.75
4/21/2023 8:45:00 AM 11.32 52.376 0.003 8.05 3.95 10.76
4/21/2023 9:00:00 AM 11.45 52.61 0.003 8.04 4.56 10.75
4/21/2023 9:15:00 AM 11.6 52.88 0.004 8.05 4.49 10.75
4/21/2023 9:30:00 AM 11.76 53.168 0.004 8.06 4.13 10.71
4/21/2023 9:45:00 AM 11.94 53.492 0.004 8.06 4.29 10.71
4/21/2023 10:00:00 AM 12.14 53.852 0.004 8.06 4.76 10.62
4/21/2023 10:15:00 AM 12.46 54.428 0.004 8.08 4.42 10.69
4/21/2023 10:30:00 AM 12.75 54.95 0.003 8.08 4.24 10.67
4/21/2023 10:45:00 AM 13.02 55.436 0.004 8.1 4.3 10.62
4/21/2023 11:00:00 AM 13.31 55.958 0.004 8.1 3.95 10.58
4/21/2023 11:15:00 AM 13.62 56.516 0.006 8.11 4.93 10.56
4/21/2023 11:30:00 AM 13.88 56.984 0.004 8.13 3.9 10.55
4/21/2023 11:45:00 AM 14.2 57.56 0.004 8.15 4.13 10.48
4/21/2023 12:00:00 PM 14.62 58.316 0.004 8.16 3.96 10.54
4/21/2023 12:15:00 PM 14.87 58.766 0.004 8.16 4.08 10.43
4/21/2023 12:30:00 PM 15.26 59.468 0.005 8.17 4.49 10.42
4/21/2023 12:45:00 PM 15.56 60.008 0.005 8.19 4.63 10.35
4/21/2023 1:00:00 PM 15.95 60.71 0.005 8.2 4.18 10.34
4/21/2023 1:15:00 PM 16.23 61.214 0.005 8.21 3.77 10.28
4/21/2023 1:30:00 PM 16.49 61.682 0.005 8.21 3.91 10.23
4/21/2023 1:45:00 PM 16.64 61.952 0.003 8.21 4.11 10.16
4/21/2023 2:00:00 PM 16.76 62.168 0.004 8.21 5.26 10.05
4/21/2023 2:15:00 PM 16.98 62.564 0.005 8.21 3.7 10.01
4/21/2023 2:30:00 PM 17.14 62.852 0.006 8.22 3.72 9.97
4/21/2023 2:45:00 PM 17.43 63.374 0.004 8.22 3.66 9.91
4/21/2023 3:00:00 PM 17.64 63.752 0.004 8.23 3.99 9.87
4/21/2023 3:15:00 PM 17.77 63.986 0.005 8.24 3.81 9.8
4/21/2023 3:30:00 PM 17.95 64.31 0.005 8.24 3.71 9.79
4/21/2023 3:45:00 PM 17.84 64.112 0.004 8.24 3.69 9.68
4/21/2023 4:00:00 PM 17.71 63.878 0.004 8.23 5.17 9.63
4/21/2023 4:15:00 PM 17.6 63.68 0.005 8.22 3.69 9.54
4/21/2023 4:30:00 PM 17.62 63.716 0.004 8.22 3.69 9.49
4/21/2023 4:45:00 PM 17.59 63.662 0.004 8.21 4.18 9.48
4/21/2023 5:00:00 PM 17.53 63.554 0.004 8.2 3.79 9.44
4/21/2023 5:15:00 PM 17.48 63.464 0.006 8.2 4.1 9.42
4/21/2023 5:30:00 PM 17.39 63.302 0.004 8.2 3.8 9.4
4/21/2023 5:45:00 PM 17.3 63.14 0.005 8.19 3.86 9.32
4/21/2023 6:00:00 PM 17.18 62.924 0.005 8.18 3.86 9.26
4/21/2023 6:15:00 PM 17.07 62.726 0.004 8.17 4.94 9.2
4/21/2023 6:30:00 PM 17 62.6 0.005 8.16 4.04 9.16
4/21/2023 6:45:00 PM 16.94 62.492 0.005 8.16 3.56 9.13
4/21/2023 7:00:00 PM 16.9 62.42 0.004 8.14 4.24 9.06
4/21/2023 7:15:00 PM 16.83 62.294 0.005 8.12 4.31 9
4/21/2023 7:30:00 PM 16.76 62.168 0.004 8.1 4.83 8.96
4/21/2023 7:45:00 PM 16.71 62.078 0.005 8.07 4.86 8.9
4/21/2023 8:00:00 PM 16.63 61.934 0.005 8.08 6.56 8.93
4/21/2023 8:15:00 PM 16.56 61.808 0.004 8.06 4.51 8.87
4/21/2023 8:30:00 PM 16.49 61.682 0.004 8.06 5.06 8.92
4/21/2023 8:45:00 PM 16.41 61.538 0.005 8.06 4.19 8.94
4/21/2023 9:00:00 PM 16.33 61.394 0.004 8.05 4.02 8.91
4/21/2023 9:15:00 PM 16.24 61.232 0.004 8.04 4.33 8.96
4/21/2023 9:30:00 PM 16.13 61.034 0.005 8.03 5.81 8.92
4/21/2023 9:45:00 PM 16.06 60.908 0.004 8.04 3.95 8.97
4/21/2023 10:00:00 PM 15.96 60.728 0.004 8.02 4.35 8.94
4/21/2023 10:15:00 PM 15.85 60.53 0.004 8.02 4.05 8.99
4/21/2023 10:30:00 PM 15.75 60.35 0.005 8.02 4.04 9.01
4/21/2023 10:45:00 PM 15.65 60.17 0.004 8.02 4.28 9.01
4/21/2023 11:00:00 PM 15.54 59.972 0.004 8.01 4.15 9.01
4/21/2023 11:15:00 PM 15.46 59.828 0.004 8.01 4.24 9.03
4/21/2023 11:30:00 PM 15.38 59.684 0.004 8 4.51 9.04
4/21/2023 11:45:00 PM 15.31 59.558 0.004 8 4.76 9.07
4/22/2023 12:00:00 AM 15.24 59.432 0.004 7.99 4.45 9.06
4/22/2023 12:15:00 AM 15.19 59.342 0.004 7.99 4.21 9.08
4/22/2023 12:30:00 AM 15.12 59.216 0.003 7.99 5.19 9.1
4/22/2023 12:45:00 AM 15.06 59.108 0.003 7.99 4.32 9.13
4/22/2023 1:00:00 AM 14.98 58.964 0.003 7.99 4.59 9.15
4/22/2023 1:15:00 AM 14.91 58.838 0.003 7.99 3.9 9.17
4/22/2023 1:30:00 AM 14.85 58.73 0.003 7.99 4.1 9.18
4/22/2023 1:45:00 AM 14.77 58.586 0.004 7.98 4.05 9.16
4/22/2023 2:00:00 AM 14.7 58.46 0.003 7.97 4.33 9.17
4/22/2023 2:15:00 AM 14.66 58.388 0.003 7.98 4.15 9.22
4/22/2023 2:30:00 AM 14.58 58.244 0.004 7.97 4.1 9.21
4/22/2023 2:45:00 AM 14.51 58.118 0.003 7.97 4.2 9.23
4/22/2023 3:00:00 AM 14.45 58.01 0.003 7.97 4.69 9.25
4/22/2023 3:15:00 AM 14.38 57.884 0.004 7.95 4.09 9.24
4/22/2023 3:30:00 AM 14.37 57.866 0.003 7.96 3.88 9.26
4/22/2023 3:45:00 AM 14.36 57.848 0.003 7.96 4.14 9.25
4/22/2023 4:00:00 AM 14.34 57.812 0.003 7.97 4.17 9.27
4/22/2023 4:15:00 AM 14.32 57.776 0.003 7.95 4.09 9.3
4/22/2023 4:30:00 AM 14.27 57.686 0.003 7.96 4.1 9.27
4/22/2023 4:45:00 AM 14.22 57.596 0.003 7.95 5.26 9.29
4/22/2023 5:00:00 AM 14.17 57.506 0.003 7.96 4.2 9.33
4/22/2023 5:15:00 AM 14.1 57.38 0.003 7.96 4.09 9.34
4/22/2023 5:30:00 AM 14.04 57.272 0.003 7.96 4.35 9.34
4/22/2023 5:45:00 AM 13.99 57.182 0.003 7.96 4.21 9.39
4/22/2023 6:00:00 AM 13.94 57.092 0.003 7.96 4.16 9.41
4/22/2023 6:15:00 AM 13.9 57.02 0.002 7.97 4.12 9.44
4/22/2023 6:30:00 AM 13.87 56.966 0.003 7.97 4.59 9.5
4/22/2023 6:45:00 AM 13.85 56.93 0.003 7.98 5.53 9.55
4/22/2023 7:00:00 AM 13.84 56.912 0.003 7.98 4.07 9.58
4/22/2023 7:15:00 AM 13.84 56.912 0.003 8 4.43 9.66
4/22/2023 7:30:00 AM 13.85 56.93 0.003 7.99 4.34 9.65
4/22/2023 7:45:00 AM 13.89 57.002 0.003 8.01 4.48 9.77
4/22/2023 8:00:00 AM 13.96 57.128 0.003 8 4.28 9.85
4/22/2023 8:15:00 AM 13.99 57.182 0.003 8.05 4.21 9.91
4/22/2023 8:30:00 AM 14.05 57.29 0.004 8.04 4.48 9.91
4/22/2023 8:45:00 AM 14.08 57.344 0.003 8.05 4.94 9.94
4/22/2023 9:00:00 AM 14.1 57.38 0.003 8.05 4.06 9.93
4/22/2023 9:15:00 AM 14.03 57.254 0.004 8.06 5.75 9.83
4/22/2023 9:30:00 AM 14.02 57.236 0.004 8.06 4.73 9.8
4/22/2023 9:45:00 AM 14.02 57.236 0.003 8.05 4.29 9.82
4/22/2023 10:00:00 AM 13.99 57.182 0.003 8.08 5.13 9.85
4/22/2023 10:15:00 AM 14.02 57.236 0.003 8.07 4.2 9.88
4/22/2023 10:30:00 AM 14.08 57.344 0.003 8.08 4.42 9.94
4/22/2023 10:45:00 AM 14.03 57.254 0.004 8.09 4.05 9.93
4/22/2023 11:00:00 AM 13.97 57.146 0.003 8.09 4.86 9.88
4/22/2023 11:15:00 AM 14.01 57.218 0.003 8.08 5.25 9.91
4/22/2023 11:30:00 AM 14.05 57.29 0.004 8.07 4.5 9.95
4/22/2023 11:45:00 AM 14.04 57.272 0.003 8.07 4.54 9.96
4/22/2023 12:00:00 PM 14.06 57.308 0.004 8.08 4.09 9.97
4/22/2023 12:15:00 PM 14.09 57.362 0.004 8.09 4.11 10
4/22/2023 12:30:00 PM 14.07 57.326 0.003 8.1 4.38 9.98
4/22/2023 12:45:00 PM 14.05 57.29 0.004 8.1 3.97 9.96
4/22/2023 1:00:00 PM 14.01 57.218 0.004 8.09 4.26 9.94
4/22/2023 1:15:00 PM 13.98 57.164 0.003 8.1 5.31 9.92
4/22/2023 1:30:00 PM 13.95 57.11 0.003 8.08 4.39 9.92
4/22/2023 1:45:00 PM 13.9 57.02 0.003 8.08 5.01 9.91
4/22/2023 2:00:00 PM 13.87 56.966 0.003 8.07 4.74 9.89
4/22/2023 2:15:00 PM 13.83 56.894 0.003 8.07 4.9 9.88
4/22/2023 2:30:00 PM 13.79 56.822 0.003 8.07 5.11 9.85
4/22/2023 2:45:00 PM 13.75 56.75 0.003 8.06 4.17 9.85
4/22/2023 3:00:00 PM 13.72 56.696 0.003 8.07 4.37 9.82
4/22/2023 3:15:00 PM 13.68 56.624 0.003 8.07 4.63 9.8
4/22/2023 3:30:00 PM 13.65 56.57 0.003 8.06 4.82 9.81
4/22/2023 3:45:00 PM 13.7 56.66 0.003 8.07 4.56 9.91
4/22/2023 4:00:00 PM 13.66 56.588 0.003 8.06 4.41 9.88
4/22/2023 4:15:00 PM 13.62 56.516 0.003 8.08 4.32 9.89
4/22/2023 4:30:00 PM 13.69 56.642 0.003 8.08 4.55 9.97
4/22/2023 4:45:00 PM 13.76 56.768 0.003 8.11 4.26 10.03
4/22/2023 5:00:00 PM 13.75 56.75 0.003 8.11 4.3 10.05
4/22/2023 5:15:00 PM 13.68 56.624 0.003 8.11 4.19 10.02
4/22/2023 5:30:00 PM 13.69 56.642 0.003 8.11 4.09 10.01
4/22/2023 5:45:00 PM 13.62 56.516 0.003 8.12 4.27 10.05
4/22/2023 6:00:00 PM 13.55 56.39 0.003 8.11 4.39 10
4/22/2023 6:15:00 PM 13.48 56.264 0.003 8.11 4.17 9.97
4/22/2023 6:30:00 PM 13.41 56.138 0.003 8.11 4.11 9.95
4/22/2023 6:45:00 PM 13.31 55.958 0.003 8.09 4.43 9.91
4/22/2023 7:00:00 PM 13.2 55.76 0.003 8.08 4.43 9.91
4/22/2023 7:15:00 PM 13.11 55.598 0.003 8.08 4.11 9.87
4/22/2023 7:30:00 PM 13.01 55.418 0.002 8.07 4.26 9.83
4/22/2023 7:45:00 PM 12.94 55.292 0.003 8.06 4.6 9.82
4/22/2023 8:00:00 PM 12.85 55.13 0.003 8.06 4.68 9.83
4/22/2023 8:15:00 PM 12.76 54.968 0.003 8.05 4.78 9.82
4/22/2023 8:30:00 PM 12.71 54.878 0.003 8.04 4.65 9.85
4/22/2023 8:45:00 PM 12.65 54.77 0.002 8.04 5.19 9.84
4/22/2023 9:00:00 PM 12.62 54.716 0.003 8.04 4.54 9.85
4/22/2023 9:15:00 PM 12.58 54.644 0.003 8.03 4.12 9.85
4/22/2023 9:30:00 PM 12.54 54.572 0.003 8.04 4.61 9.9
4/22/2023 9:45:00 PM 12.49 54.482 0.003 8.04 4.81 9.89
4/22/2023 10:00:00 PM 12.42 54.356 0.002 8.03 4.42 9.89
4/22/2023 10:15:00 PM 12.37 54.266 0.003 8.04 4.78 9.91
4/22/2023 10:30:00 PM 12.3 54.14 0.002 8.03 4.52 9.92
4/22/2023 10:45:00 PM 12.2 53.96 0.002 8.03 4.69 9.92
4/22/2023 11:00:00 PM 12.13 53.834 0.003 8.02 4.12 9.94
4/22/2023 11:15:00 PM 12.07 53.726 0.002 8.02 4.5 9.94
4/22/2023 11:30:00 PM 12.01 53.618 0.002 8.02 4.5 9.97
4/22/2023 11:45:00 PM 11.93 53.474 0.002 8.02 4.41 9.96
4/23/2023 12:00:00 AM 11.88 53.384 0.002 8.02 4.63 10
4/23/2023 12:15:00 AM 11.82 53.276 0.002 8.03 5.49 10.02
4/23/2023 12:30:00 AM 11.74 53.132 0.002 8.03 4.79 10.04
4/23/2023 12:45:00 AM 11.65 52.97 0.002 8.02 4.56 10.05
4/23/2023 1:00:00 AM 11.57 52.826 0.002 8.02 4.86 10.06
4/23/2023 1:15:00 AM 11.5 52.7 0.002 8.02 4.56 10.07
4/23/2023 1:30:00 AM 11.44 52.592 0.002 8.02 4.55 10.11
4/23/2023 1:45:00 AM 11.37 52.466 0.002 8.01 4.5 10.08
4/23/2023 2:00:00 AM 11.32 52.376 0.002 8.02 4.82 10.11
4/23/2023 2:15:00 AM 11.27 52.286 0.002 8.02 4.62 10.15
4/23/2023 2:30:00 AM 11.21 52.178 0.002 8.02 4.1 10.15
4/23/2023 2:45:00 AM 11.16 52.088 0.002 8.01 4.43 10.16
4/23/2023 3:00:00 AM 11.11 51.998 0.002 8.01 4.83 10.18
4/23/2023 3:15:00 AM 11.04 51.872 0.002 8.01 4.77 10.19
4/23/2023 3:30:00 AM 10.95 51.71 0.002 8.01 4.84 10.2
4/23/2023 3:45:00 AM 10.89 51.602 0.002 8.01 6.47 10.22
4/23/2023 4:00:00 AM 10.83 51.494 0.002 8.01 4.63 10.25
4/23/2023 4:15:00 AM 10.78 51.404 0.002 8.01 4.66 10.26
4/23/2023 4:30:00 AM 10.74 51.332 0.002 8.01 4.67 10.27
4/23/2023 4:45:00 AM 10.69 51.242 0.002 8.01 5.37 10.31
4/23/2023 5:00:00 AM 10.64 51.152 0.002 8.01 5.09 10.3
4/23/2023 5:15:00 AM 10.59 51.062 0.002 8.01 4.58 10.34
4/23/2023 5:30:00 AM 10.55 50.99 0.002 8.01 4.88 10.32
4/23/2023 5:45:00 AM 10.51 50.918 0.002 8.02 4.4 10.37
4/23/2023 6:00:00 AM 10.47 50.846 0.002 8.01 4.54 10.38
4/23/2023 6:15:00 AM 10.43 50.774 0.002 8.01 4.33 10.42
4/23/2023 6:30:00 AM 10.4 50.72 0.002 8.02 4.09 10.43
4/23/2023 6:45:00 AM 10.39 50.702 0.002 8.02 4.71 10.51
4/23/2023 7:00:00 AM 10.34 50.612 0.002 8.02 4.07 10.52
4/23/2023 7:15:00 AM 10.3 50.54 0.002 8.02 4.21 10.54
4/23/2023 7:30:00 AM 10.28 50.504 0.002 8.02 4.21 10.56
4/23/2023 7:45:00 AM 10.29 50.522 0.003 8.03 4.55 10.63
4/23/2023 8:00:00 AM 10.3 50.54 0.003 8.04 4.1 10.68
4/23/2023 8:15:00 AM 10.35 50.63 0.002 8.05 4.5 10.74
4/23/2023 8:30:00 AM 10.43 50.774 0.002 8.06 4.27 10.75
4/23/2023 8:45:00 AM 10.48 50.864 0.002 8.07 4.49 10.84
4/23/2023 9:00:00 AM 10.52 50.936 0.002 8.09 4.17 10.89
4/23/2023 9:15:00 AM 10.51 50.918 0.002 8.09 4.2 10.88
4/23/2023 9:30:00 AM 10.55 50.99 0.002 8.1 4.23 10.92
4/23/2023 9:45:00 AM 10.55 50.99 0.002 8.11 3.93 10.91
4/23/2023 10:00:00 AM 10.55 50.99 0.002 8.11 4.04 10.92
4/23/2023 10:15:00 AM 10.6 51.08 0.002 8.12 4.3 10.97
4/23/2023 10:30:00 AM 10.68 51.224 0.002 8.12 4.11 10.98
4/23/2023 10:45:00 AM 10.76 51.368 0.002 8.13 4.01 11
4/23/2023 11:00:00 AM 10.74 51.332 0.002 8.14 4.19 11.01
4/23/2023 11:15:00 AM 10.79 51.422 0.002 8.13 4.31 11
4/23/2023 11:30:00 AM 10.92 51.656 0.002 8.14 4.46 11.04
4/23/2023 11:45:00 AM 11.12 52.016 0.002 8.15 4.42 11.06
4/23/2023 12:00:00 PM 11.13 52.034 0.002 8.16 4.52 11.05
4/23/2023 12:15:00 PM 10.99 51.782 0.002 8.16 4.25 11
4/23/2023 12:30:00 PM 10.87 51.566 0.002 8.16 4.27 10.96
4/23/2023 12:45:00 PM 10.84 51.512 0.002 8.17 3.93 10.97
4/23/2023 1:00:00 PM 10.89 51.602 0.002 8.16 4.43 10.98
4/23/2023 1:15:00 PM 10.81 51.458 0.002 8.18 4.58 10.96
4/23/2023 1:30:00 PM 10.71 51.278 0.002 8.17 4.4 10.94
4/23/2023 1:45:00 PM 10.69 51.242 0.002 8.16 4.17 10.97
4/23/2023 2:00:00 PM 10.63 51.134 0.002 8.17 4.31 10.92
4/23/2023 2:15:00 PM 10.71 51.278 0.002 8.17 4.17 10.96
4/23/2023 2:30:00 PM 10.73 51.314 0.002 8.17 3.59 10.89
4/23/2023 2:45:00 PM 10.66 51.188 0.002 8.17 3.93 10.97
4/23/2023 3:00:00 PM 10.8 51.44 0.002 8.18 4.27 10.99
4/23/2023 3:15:00 PM 10.77 51.386 0.002 8.18 4.27 10.97
4/23/2023 3:30:00 PM 10.66 51.188 0.002 8.18 4.28 10.94
4/23/2023 3:45:00 PM 10.62 51.116 0.002 8.18 4.7 10.92
4/23/2023 4:00:00 PM 10.6 51.08 0.002 8.17 3.92 10.75
4/23/2023 4:15:00 PM 10.63 51.134 0.002 8.17 3.83 10.86
4/23/2023 4:30:00 PM 10.67 51.206 0.002 8.17 3.91 10.96
4/23/2023 4:45:00 PM 10.64 51.152 0.002 8.17 4 10.97
4/23/2023 5:00:00 PM 10.57 51.026 0.002 8.17 3.9 10.94
4/23/2023 5:15:00 PM 10.52 50.936 0.002 8.16 4.09 10.91
4/23/2023 5:30:00 PM 10.49 50.882 0.002 8.18 3.88 10.92
4/23/2023 5:45:00 PM 10.42 50.756 0.002 8.16 3.92 10.88
4/23/2023 6:00:00 PM 10.34 50.612 0.002 8.15 3.98 10.83
4/23/2023 6:15:00 PM 10.28 50.504 0.002 8.15 3.88 10.82
4/23/2023 6:30:00 PM 10.21 50.378 0.002 8.15 3.93 10.78
4/23/2023 6:45:00 PM 10.15 50.27 0.002 8.13 4.1 10.74
4/23/2023 7:00:00 PM 10.08 50.144 0.002 8.13 4 10.72
4/23/2023 7:15:00 PM 10.01 50.018 0.002 8.12 4.07 10.69
4/23/2023 7:30:00 PM 9.96 49.928 0.002 8.12 4.06 10.71
4/23/2023 7:45:00 PM 9.91 49.838 0.002 8.1 4.09 10.69
4/23/2023 8:00:00 PM 9.87 49.766 0.002 8.1 3.83 10.68
4/23/2023 8:15:00 PM 9.8 49.64 0.002 8.1 4.14 10.71
4/23/2023 8:30:00 PM 9.75 49.55 0.002 8.09 4.03 10.67
4/23/2023 8:45:00 PM 9.7 49.46 0.002 8.08 3.78 10.69
4/23/2023 9:00:00 PM 9.65 49.37 0.002 8.08 5.67 10.7
4/23/2023 9:15:00 PM 9.59 49.262 0.002 8.08 3.82 10.68
4/23/2023 9:30:00 PM 9.54 49.172 0.002 8.06 5.83 10.7
4/23/2023 9:45:00 PM 9.49 49.082 0.002 8.07 3.58 10.72
4/23/2023 10:00:00 PM 9.43 48.974 0.002 8.06 4.22 10.74
4/23/2023 10:15:00 PM 9.35 48.83 0.002 8.06 3.85 10.74
4/23/2023 10:30:00 PM 9.28 48.704 0.002 8.06 3.8 10.76
4/23/2023 10:45:00 PM 9.21 48.578 0.002 8.05 3.82 10.77
4/23/2023 11:00:00 PM 9.15 48.47 0.002 8.05 3.89 10.77
4/23/2023 11:15:00 PM 9.1 48.38 0.002 8.05 4.08 10.79
4/23/2023 11:30:00 PM 9.04 48.272 0.002 8.04 3.91 10.8
4/23/2023 11:45:00 PM 9 48.2 0.002 8.05 3.88 10.81
4/24/2023 12:00:00 AM 8.94 48.092 0.002 8.04 3.48 10.8
4/24/2023 12:15:00 AM 8.89 48.002 0.002 8.04 4.02 10.83
4/24/2023 12:30:00 AM 8.84 47.912 0.002 8.04 3.95 10.85
4/24/2023 12:45:00 AM 8.79 47.822 0.002 8.03 3.85 10.85
4/24/2023 1:00:00 AM 8.77 47.786 0.002 8.04 3.84 10.88
4/24/2023 1:15:00 AM 8.72 47.696 0.002 8.03 3.87 10.88
4/24/2023 1:30:00 AM 8.64 47.552 0.002 8.03 4.52 10.9
4/24/2023 1:45:00 AM 8.56 47.408 0.002 8.03 4.21 10.91
4/24/2023 2:00:00 AM 8.49 47.282 0.002 8.03 3.86 10.93
4/24/2023 2:15:00 AM 8.44 47.192 0.002 8.02 3.83 10.93
4/24/2023 2:30:00 AM 8.39 47.102 0.002 8.02 4.93 10.96
4/24/2023 2:45:00 AM 8.34 47.012 0.002 8.02 4.12 10.96
4/24/2023 3:00:00 AM 8.28 46.904 0.002 8.02 3.87 10.97
4/24/2023 3:15:00 AM 8.24 46.832 0.002 8.02 3.95 11
4/24/2023 3:30:00 AM 8.19 46.742 0.002 8.02 3.79 11.03
4/24/2023 3:45:00 AM 8.14 46.652 0.002 8.01 3.83 11.01
4/24/2023 4:00:00 AM 8.09 46.562 0.002 8.01 3.87 11.03
4/24/2023 4:15:00 AM 8.07 46.526 0.002 8.02 4.24 11.06
4/24/2023 4:30:00 AM 8.02 46.436 0.002 8.01 4.32 11.05
4/24/2023 4:45:00 AM 7.99 46.382 0.002 8.01 4.11 11.08
4/24/2023 5:00:00 AM 7.92 46.256 0.002 8.01 4.07 11.07
4/24/2023 5:15:00 AM 7.89 46.202 0.002 8.01 4.7 11.08
4/24/2023 5:30:00 AM 7.85 46.13 0.002 8.01 4.16 11.1
4/24/2023 5:45:00 AM 7.83 46.094 0.002 8.01 3.84 11.11
4/24/2023 6:00:00 AM 7.79 46.022 0.002 8.01 4.15 11.15
4/24/2023 6:15:00 AM 7.77 45.986 0.002 8.02 4.17 11.15
4/24/2023 6:30:00 AM 7.74 45.932 0.002 8.02 3.97 11.26
4/24/2023 6:45:00 AM 7.75 45.95 0.002 8.03 7.44 11.31
4/24/2023 7:00:00 AM 7.77 45.986 0.002 8.03 4.66 11.36
4/24/2023 7:15:00 AM 7.82 46.076 0.002 8.03 3.9 11.44
4/24/2023 7:30:00 AM 7.92 46.256 0.002 8.04 4.02 11.51
4/24/2023 7:45:00 AM 7.96 46.328 0.002 8.06 4.38 11.54
4/24/2023 8:00:00 AM 7.98 46.364 0.002 8.08 3.89 11.6
4/24/2023 8:15:00 AM 8.06 46.508 0.002 8.08 3.9 11.62
4/24/2023 8:30:00 AM 8.13 46.634 0.002 8.09 3.8 11.55
4/24/2023 8:45:00 AM 8.22 46.796 0.002 8.1 4.2 11.64
4/24/2023 9:00:00 AM 8.32 46.976 0.002 8.1 4.13 11.59
4/24/2023 9:15:00 AM 8.41 47.138 0.002 8.11 4.05 11.69
4/24/2023 9:30:00 AM 8.57 47.426 0.002 8.11 3.94 11.62
4/24/2023 9:45:00 AM 8.66 47.588 0.002 8.11 4.03 11.62
4/24/2023 10:00:00 AM 8.66 47.588 0.002 8.12 4.1 11.66
4/24/2023 10:15:00 AM 8.65 47.57 0.002 8.14 3.84 11.66
4/24/2023 10:30:00 AM 8.64 47.552 0.002 8.14 3.87 11.56
4/24/2023 10:45:00 AM 8.69 47.642 0.002 8.13 3.91 11.44
4/24/2023 11:00:00 AM 8.78 47.804 0.002 8.14 3.81 11.67
4/24/2023 11:15:00 AM 8.91 48.038 0.002 8.14 3.78 11.63
4/24/2023 11:30:00 AM 9.23 48.614 0.002 8.15 4.04 11.7
4/24/2023 11:45:00 AM 9.15 48.47 0.002 8.16 3.83 11.63
4/24/2023 12:00:00 PM 9.33 48.794 0.002 8.16 4.23 11.67
4/24/2023 12:15:00 PM 9.6 49.28 0.002 8.16 3.78 11.66
4/24/2023 12:30:00 PM 9.61 49.298 0.002 8.17 3.97 11.6
4/24/2023 12:45:00 PM 9.85 49.73 0.002 8.18 4.11 11.62
4/24/2023 1:00:00 PM 9.98 49.964 0.002 8.18 3.83 11.55
4/24/2023 1:15:00 PM 10.27 50.486 0.002 8.19 3.81 11.53
4/24/2023 1:30:00 PM 10.62 51.116 0.002 8.19 5.33 11.53
4/24/2023 1:45:00 PM 10.52 50.936 0.002 8.19 5.01 11.45
4/24/2023 2:00:00 PM 10.47 50.846 0.002 8.2 3.76 11.41
4/24/2023 2:15:00 PM 10.65 51.17 0.002 8.2 3.89 11.44
4/24/2023 2:30:00 PM 10.83 51.494 0.002 8.2 3.92 11.37
4/24/2023 2:45:00 PM 10.88 51.584 0.002 8.21 3.76 11.32
4/24/2023 3:00:00 PM 11.22 52.196 0.002 8.2 4.01 11.32
4/24/2023 3:15:00 PM 11.22 52.196 0.002 8.21 3.93 11.27
4/24/2023 3:30:00 PM 10.95 51.71 0.002 8.21 3.81 11.18
4/24/2023 3:45:00 PM 11.1 51.98 0.002 8.21 3.97 11.18
4/24/2023 4:00:00 PM 10.93 51.674 0.002 8.21 3.72 11.15
4/24/2023 4:15:00 PM 10.78 51.404 0.002 8.2 3.81 10.95
4/24/2023 4:30:00 PM 10.71 51.278 0.002 8.18 4 11
4/24/2023 4:45:00 PM 10.7 51.26 0.002 8.18 4.2 10.98
4/24/2023 5:00:00 PM 10.71 51.278 0.002 8.18 3.49 11.02
4/24/2023 5:15:00 PM 10.68 51.224 0.002 8.19 3.56 11.03
4/24/2023 5:30:00 PM 10.58 51.044 0.002 8.18 4.14 11.04
4/24/2023 5:45:00 PM 10.45 50.81 0.002 8.18 3.81 11
4/24/2023 6:00:00 PM 10.35 50.63 0.002 8.18 3.91 10.99
4/24/2023 6:15:00 PM 10.26 50.468 0.002 8.17 3.71 10.92
4/24/2023 6:30:00 PM 10.15 50.27 0.002 8.16 3.93 10.91
4/24/2023 6:45:00 PM 10.06 50.108 0.002 8.14 3.88 10.84
4/24/2023 7:00:00 PM 9.96 49.928 0.002 8.13 3.77 10.8
4/24/2023 7:15:00 PM 9.93 49.874 0.002 8.14 3.78 10.79
4/24/2023 7:30:00 PM 9.87 49.766 0.002 8.12 3.87 10.75
4/24/2023 7:45:00 PM 9.79 49.622 0.002 8.11 4.34 10.71
4/24/2023 8:00:00 PM 9.74 49.532 0.002 8.11 3.84 10.73
4/24/2023 8:15:00 PM 9.67 49.406 0.002 8.11 3.85 10.75
4/24/2023 8:30:00 PM 9.58 49.244 0.002 8.1 4.45 10.69
4/24/2023 8:45:00 PM 9.45 49.01 0.002 8.08 3.87 10.73
4/24/2023 9:00:00 PM 9.36 48.848 0.002 8.07 4.07 10.74
4/24/2023 9:15:00 PM 9.25 48.65 0.002 8.06 4.13 10.75
4/24/2023 9:30:00 PM 9.15 48.47 0.002 8.06 3.97 10.76
4/24/2023 9:45:00 PM 9.07 48.326 0.002 8.05 3.87 10.8
4/24/2023 10:00:00 PM 8.98 48.164 0.002 8.05 4.07 10.78
4/24/2023 10:15:00 PM 8.86 47.948 0.002 8.04 3.6 10.82
4/24/2023 10:30:00 PM 8.73 47.714 0.002 8.03 4.24 10.84
4/24/2023 10:45:00 PM 8.63 47.534 0.002 8.03 3.88 10.84
4/24/2023 11:00:00 PM 8.53 47.354 0.002 8.03 3.82 10.89
4/24/2023 11:15:00 PM 8.46 47.228 0.002 8.04 4.01 10.92
4/24/2023 11:30:00 PM 8.36 47.048 0.002 8.04 3.72 10.95
4/24/2023 11:45:00 PM 8.26 46.868 0.002 8.03 4.41 10.96
4/25/2023 12:00:00 AM 8.16 46.688 0.002 8.02 3.82 10.99
4/25/2023 12:15:00 AM 8.08 46.544 0.002 8.02 4 11.04
4/25/2023 12:30:00 AM 7.98 46.364 0.002 8.02 3.91 11.06
4/25/2023 12:45:00 AM 7.89 46.202 0.002 8.02 4.75 11.08
4/25/2023 1:00:00 AM 7.83 46.094 0.002 8.02 3.99 11.08
4/25/2023 1:15:00 AM 7.75 45.95 0.002 8.01 3.97 11.12
4/25/2023 1:30:00 AM 7.68 45.824 0.002 8.02 3.9 11.15
4/25/2023 1:45:00 AM 7.59 45.662 0.002 8.02 4.31 11.17
4/25/2023 2:00:00 AM 7.5 45.5 0.002 8.01 4.53 11.19
4/25/2023 2:15:00 AM 7.39 45.302 0.002 8 4.03 11.21
4/25/2023 2:30:00 AM 7.3 45.14 0.002 8 4.23 11.24
4/25/2023 2:45:00 AM 7.22 44.996 0.002 8 4.69 11.27
4/25/2023 3:00:00 AM 7.14 44.852 0.002 7.99 4.08 11.27
4/25/2023 3:15:00 AM 7.02 44.636 0.002 7.96 3.98 11.28
4/25/2023 3:30:00 AM 6.96 44.528 0.002 7.99 4.1 11.32
4/25/2023 3:45:00 AM 6.91 44.438 0.002 8 5.34 11.37
4/25/2023 4:00:00 AM 6.86 44.348 0.002 8 3.64 11.37
4/25/2023 4:15:00 AM 6.82 44.276 0.002 7.99 4.77 11.39
4/25/2023 4:30:00 AM 6.74 44.132 0.002 7.99 4.34 11.4
4/25/2023 4:45:00 AM 6.73 44.114 0.002 7.99 4.22 11.45
4/25/2023 5:00:00 AM 6.68 44.024 0.002 8 4.37 11.47
4/25/2023 5:15:00 AM 6.67 44.006 0.002 7.99 4.44 11.43
4/25/2023 5:30:00 AM 6.63 43.934 0.002 7.99 4.08 11.52
4/25/2023 5:45:00 AM 6.6 43.88 0.002 8 3.93 11.55
4/25/2023 6:00:00 AM 6.56 43.808 0.002 7.99 6.06 11.54
4/25/2023 6:15:00 AM 6.56 43.808 0.002 8 4.1 11.57
4/25/2023 6:30:00 AM 6.56 43.808 0.002 8.01 4.36 11.65
4/25/2023 6:45:00 AM 6.59 43.862 0.002 8.02 4.38 11.76
4/25/2023 7:00:00 AM 6.6 43.88 0.002 8.03 4.38 11.79
4/25/2023 7:15:00 AM 6.6 43.88 0.002 8.03 4.09 11.83
4/25/2023 7:30:00 AM 6.62 43.916 0.002 8.04 4.37 11.89
4/25/2023 7:45:00 AM 6.63 43.934 0.002 8.05 4.17 11.9
4/25/2023 8:00:00 AM 6.65 43.97 0.002 8.05 4.33 11.98
4/25/2023 8:15:00 AM 6.69 44.042 0.002 8.05 4.35 12
4/25/2023 8:30:00 AM 6.8 44.24 0.002 8.07 4.75 12.07
4/25/2023 8:45:00 AM 6.97 44.546 0.002 8.07 4.11 12.09
4/25/2023 9:00:00 AM 6.97 44.546 0.002 8.08 4.08 12.09
4/25/2023 9:15:00 AM 6.97 44.546 0.002 8.09 4.29 12.07
4/25/2023 9:30:00 AM 7.03 44.654 0.002 8.07 4.23 12.04
4/25/2023 9:45:00 AM 7.25 45.05 0.002 8.08 4.03 12.01
4/25/2023 10:00:00 AM 7.59 45.662 0.002 8.08 4.36 11.97
4/25/2023 10:15:00 AM 7.78 46.004 0.002 8.09 4.22 11.95
4/25/2023 10:30:00 AM 8.11 46.598 0.002 8.1 4.02 11.93
4/25/2023 10:45:00 AM 8.15 46.67 0.002 8.11 4.32 11.93
4/25/2023 11:00:00 AM 8.13 46.634 0.002 8.12 3.91 11.9
4/25/2023 11:15:00 AM 8.39 47.102 0.002 8.13 4.12 11.92
4/25/2023 11:30:00 AM 8.64 47.552 0.002 8.12 4.04 11.91
4/25/2023 11:45:00 AM 8.64 47.552 0.002 8.14 4.04 11.91
4/25/2023 12:00:00 PM 8.92 48.056 0.002 8.15 4.04 11.87
4/25/2023 12:15:00 PM 9.09 48.362 0.002 8.15 5.05 11.77
4/25/2023 12:30:00 PM 9.38 48.884 0.002 8.16 4.15 11.8
4/25/2023 12:45:00 PM 9.48 49.064 0.002 8.16 4.24 11.73
4/25/2023 1:00:00 PM 9.42 48.956 0.002 8.17 4.3 11.71
4/25/2023 1:15:00 PM 9.68 49.424 0.002 8.17 3.95 11.68
4/25/2023 1:30:00 PM 9.97 49.946 0.002 8.17 4.35 11.65
4/25/2023 1:45:00 PM 10.07 50.126 0.002 8.17 3.96 11.57
4/25/2023 2:00:00 PM 10.64 51.152 0.002 8.17 4.15 11.58
4/25/2023 2:15:00 PM 11.01 51.818 0.002 8.18 4.21 11.52
4/25/2023 2:30:00 PM 11.3 52.34 0.002 8.18 3.9 11.44
4/25/2023 2:45:00 PM 11.5 52.7 0.002 8.19 4.13 11.31
4/25/2023 3:00:00 PM 11.74 53.132 0.002 8.2 4.29 11.29
4/25/2023 3:15:00 PM 11.9 53.42 0.002 8.21 3.84 11.21
4/25/2023 3:30:00 PM 11.74 53.132 0.003 8.21 4.73 11.11
4/25/2023 3:45:00 PM 11.76 53.168 0.003 8.2 4.68 11.02
4/25/2023 4:00:00 PM 11.74 53.132 0.002 8.2 3.94 11.01
4/25/2023 4:15:00 PM 11.95 53.51 0.003 8.21 3.69 10.98
4/25/2023 4:30:00 PM 12 53.6 0.002 8.19 4.4 10.92
4/25/2023 4:45:00 PM 11.95 53.51 0.002 8.21 4.11 10.93
4/25/2023 5:00:00 PM 11.86 53.348 0.003 8.2 3.89 10.9
4/25/2023 5:15:00 PM 11.64 52.952 0.003 8.2 3.96 10.86
4/25/2023 5:30:00 PM 11.51 52.718 0.003 8.18 4.01 10.78
4/25/2023 5:45:00 PM 11.4 52.52 0.003 8.17 4.1 10.75
4/25/2023 6:00:00 PM 11.23 52.214 0.003 8.18 4.17 10.73
4/25/2023 6:15:00 PM 11.12 52.016 0.003 8.14 3.96 10.67
4/25/2023 6:30:00 PM 10.98 51.764 0.003 8.14 4.25 10.67
4/25/2023 6:45:00 PM 10.86 51.548 0.003 8.14 4.64 10.62
4/25/2023 7:00:00 PM 10.74 51.332 0.002 8.12 4.11 10.57
4/25/2023 7:15:00 PM 10.63 51.134 0.002 8.11 4.18 10.6
4/25/2023 7:30:00 PM 10.53 50.954 0.003 8.12 3.97 10.55
4/25/2023 7:45:00 PM 10.48 50.864 0.003 8.11 3.82 10.54
4/25/2023 8:00:00 PM 10.39 50.702 0.003 8.1 4.21 10.53
4/25/2023 8:15:00 PM 10.35 50.63 0.003 8.09 3.67 10.52
4/25/2023 8:30:00 PM 10.3 50.54 0.003 8.08 3.92 10.53
4/25/2023 8:45:00 PM 10.26 50.468 0.003 8.1 3.69 10.58
4/25/2023 9:00:00 PM 10.19 50.342 0.003 8.08 4 10.55
4/25/2023 9:15:00 PM 10.12 50.216 0.002 8.07 4.3 10.51
4/25/2023 9:30:00 PM 10.09 50.162 0.003 8.07 4 10.57
4/25/2023 9:45:00 PM 10.04 50.072 0.003 8.07 4.14 10.54
4/25/2023 10:00:00 PM 9.99 49.982 0.002 8.07 3.88 10.62
4/25/2023 10:15:00 PM 9.92 49.856 0.002 8.06 4.29 10.59
4/25/2023 10:30:00 PM 9.83 49.694 0.002 8.06 4.28 10.6
4/25/2023 10:45:00 PM 9.69 49.442 0.002 8.04 4.1 10.57
4/25/2023 11:00:00 PM 9.61 49.298 0.002 8.03 4.27 10.6
4/25/2023 11:15:00 PM 9.51 49.118 0.002 8.03 4.89 10.64
4/25/2023 11:30:00 PM 9.4 48.92 0.002 8.03 4.24 10.68
4/25/2023 11:45:00 PM 9.29 48.722 0.002 8.02 5.63 10.67
4/26/2023 12:00:00 AM 9.2 48.56 0.002 8.02 4.29 10.71
4/26/2023 12:15:00 AM 9.13 48.434 0.002 8.03 4.09 10.74
4/26/2023 12:30:00 AM 9.07 48.326 0.002 8.01 4 10.74
4/26/2023 12:45:00 AM 9.02 48.236 0.002 8.02 4.25 10.79
4/26/2023 1:00:00 AM 8.97 48.146 0.002 8.02 4.22 10.75
4/26/2023 1:15:00 AM 8.9 48.02 0.002 8.01 4.03 10.77
4/26/2023 1:30:00 AM 8.82 47.876 0.002 8.01 4.93 10.81
4/26/2023 1:45:00 AM 8.79 47.822 0.002 8.01 4 10.84
4/26/2023 2:00:00 AM 8.73 47.714 0.002 8 4.04 10.84
4/26/2023 2:15:00 AM 8.71 47.678 0.002 8 4.07 10.83
4/26/2023 2:30:00 AM 8.65 47.57 0.002 8 4.08 10.87
4/26/2023 2:45:00 AM 8.64 47.552 0.002 8 4.23 10.84
4/26/2023 3:00:00 AM 8.59 47.462 0.002 8 4.28 10.9
4/26/2023 3:15:00 AM 8.5 47.3 0.002 8 4.07 10.87
4/26/2023 3:30:00 AM 8.42 47.156 0.002 8.01 4.02 10.92
4/26/2023 3:45:00 AM 8.35 47.03 0.002 8.01 3.84 10.95
4/26/2023 4:00:00 AM 8.25 46.85 0.002 8 4.12 10.93
4/26/2023 4:15:00 AM 8.18 46.724 0.002 7.99 4 10.96
4/26/2023 4:30:00 AM 8.1 46.58 0.002 7.99 4.18 11
4/26/2023 4:45:00 AM 8.04 46.472 0.002 7.99 4.16 11.01
4/26/2023 5:00:00 AM 7.93 46.274 0.002 7.99 4.12 11.04
4/26/2023 5:15:00 AM 7.87 46.166 0.002 7.99 4.22 11.04
4/26/2023 5:30:00 AM 7.85 46.13 0.002 8 3.96 11.09
4/26/2023 5:45:00 AM 7.77 45.986 0.002 7.99 4.14 11.06
4/26/2023 6:00:00 AM 7.72 45.896 0.002 8 4.17 11.15
4/26/2023 6:15:00 AM 7.66 45.788 0.002 8.01 4.15 11.19
4/26/2023 6:30:00 AM 7.65 45.77 0.002 8.01 4.22 11.19
4/26/2023 6:45:00 AM 7.68 45.824 0.002 8 4.23 11.2
4/26/2023 7:00:00 AM 7.71 45.878 0.002 8.02 4.31 11.35
4/26/2023 7:15:00 AM 7.79 46.022 0.002 8.04 5.51 11.42
4/26/2023 7:30:00 AM 7.85 46.13 0.002 8.04 4.25 11.53
4/26/2023 7:45:00 AM 7.91 46.238 0.002 8.05 4.21 11.56
4/26/2023 8:00:00 AM 8.01 46.418 0.002 8.06 4.3 11.64
4/26/2023 8:15:00 AM 8.14 46.652 0.002 8.08 4.06 11.68
4/26/2023 8:30:00 AM 8.17 46.706 0.002 8.09 4.48 11.67
4/26/2023 8:45:00 AM 8.33 46.994 0.002 8.09 4.19 11.72
4/26/2023 9:00:00 AM 8.48 47.264 0.002 8.1 4.21 11.7
4/26/2023 9:15:00 AM 8.61 47.498 0.002 8.1 4.71 11.69
4/26/2023 9:30:00 AM 8.7 47.66 0.002 8.11 4.19 11.69
4/26/2023 9:45:00 AM 8.69 47.642 0.002 8.12 4.19 11.69
4/26/2023 10:00:00 AM 8.65 47.57 0.002 8.12 8.8 11.65
4/26/2023 10:15:00 AM 8.6 47.48 0.002 8.13 4.5 11.64
4/26/2023 10:30:00 AM 8.64 47.552 0.002 8.13 4.33 11.65
4/26/2023 10:45:00 AM 8.65 47.57 0.002 8.14 4.12 11.67
4/26/2023 11:00:00 AM 8.83 47.894 0.002 8.14 4.66 11.72
4/26/2023 11:15:00 AM 9.05 48.29 0.002 8.14 5.79 11.7
4/26/2023 11:30:00 AM 9.23 48.614 0.002 8.15 4.1 11.68
4/26/2023 11:45:00 AM 9.68 49.424 0.002 8.15 4.11 11.68
4/26/2023 12:00:00 PM 9.82 49.676 0.002 8.16 4.15 11.65
4/26/2023 12:15:00 PM 9.85 49.73 0.002 8.17 4.07 11.6
4/26/2023 12:30:00 PM 9.95 49.91 0.002 8.17 4.06 11.55
4/26/2023 12:45:00 PM 10.07 50.126 0.003 8.18 4.12 11.54
4/26/2023 1:00:00 PM 10.06 50.108 0.002 8.19 4.43 11.49
4/26/2023 1:15:00 PM 10.03 50.054 0.002 8.18 4.46 11.44
4/26/2023 1:30:00 PM 10.25 50.45 0.003 8.18 4.18 11.38
4/26/2023 1:45:00 PM 10.82 51.476 0.002 8.18 4.39 11.42
4/26/2023 2:00:00 PM 10.98 51.764 0.003 8.19 4.18 11.35
4/26/2023 2:15:00 PM 10.86 51.548 0.002 8.19 4.22 11.27
4/26/2023 2:30:00 PM 11.1 51.98 0.003 8.2 4.28 11.32
4/26/2023 2:45:00 PM 11.15 52.07 0.003 8.2 4.44 11.29
4/26/2023 3:00:00 PM 11.44 52.592 0.003 8.2 4.01 11.23
4/26/2023 3:15:00 PM 11.68 53.024 0.003 8.21 4.06 11.23
4/26/2023 3:30:00 PM 11.66 52.988 0.003 8.21 4 11.13
4/26/2023 3:45:00 PM 11.89 53.402 0.003 8.21 3.99 11.12
4/26/2023 4:00:00 PM 11.91 53.438 0.003 8.2 4.29 11.03
4/26/2023 4:15:00 PM 11.77 53.186 0.003 8.2 4.07 10.98
4/26/2023 4:30:00 PM 11.84 53.312 0.003 8.21 4.08 10.95
4/26/2023 4:45:00 PM 11.72 53.096 0.002 8.21 3.95 10.89
4/26/2023 5:00:00 PM 11.62 52.916 0.003 8.21 4.13 10.85
4/26/2023 5:15:00 PM 11.6 52.88 0.003 8.2 5.82 10.81
4/26/2023 5:30:00 PM 11.46 52.628 0.003 8.19 4.1 10.76
4/26/2023 5:45:00 PM 11.37 52.466 0.003 8.19 4.05 10.75
4/26/2023 6:00:00 PM 11.26 52.268 0.003 8.17 5.21 10.7
4/26/2023 6:15:00 PM 11.15 52.07 0.003 8.17 4.34 10.71
4/26/2023 6:30:00 PM 11 51.8 0.002 8.16 4.06 10.68
4/26/2023 6:45:00 PM 10.87 51.566 0.002 8.12 4.1 10.6
4/26/2023 7:00:00 PM 10.75 51.35 0.003 8.12 4.03 10.6
4/26/2023 7:15:00 PM 10.62 51.116 0.002 8.11 4.18 10.57
4/26/2023 7:30:00 PM 10.53 50.954 0.002 8.12 4.53 10.55
4/26/2023 7:45:00 PM 10.41 50.738 0.003 8.1 4.18 10.52
4/26/2023 8:00:00 PM 10.33 50.594 0.002 8.1 4.52 10.53
4/26/2023 8:15:00 PM 10.27 50.486 0.002 8.1 3.89 10.51
4/26/2023 8:30:00 PM 10.17 50.306 0.002 8.09 4.13 10.52
4/26/2023 8:45:00 PM 10.08 50.144 0.002 8.08 5.48 10.51
4/26/2023 9:00:00 PM 10 50 0.002 8.07 4.11 10.51
4/26/2023 9:15:00 PM 9.92 49.856 0.002 8.06 4.22 10.56
4/26/2023 9:30:00 PM 9.84 49.712 0.002 8.07 4.63 10.58
4/26/2023 9:45:00 PM 9.75 49.55 0.002 8.06 4.42 10.6
4/26/2023 10:00:00 PM 9.68 49.424 0.002 8.06 4.14 10.59
4/26/2023 10:15:00 PM 9.64 49.352 0.002 8.06 4.36 10.61
4/26/2023 10:30:00 PM 9.59 49.262 0.002 8.06 4.21 10.61
4/26/2023 10:45:00 PM 9.52 49.136 0.002 8.03 4.18 10.66
4/26/2023 11:00:00 PM 9.44 48.992 0.002 8.05 4.09 10.67
4/26/2023 11:15:00 PM 9.38 48.884 0.002 8.04 4.08 10.66
4/26/2023 11:30:00 PM 9.36 48.848 0.002 8.05 4.47 10.7
4/26/2023 11:45:00 PM 9.29 48.722 0.002 8.04 4.14 10.7
4/27/2023 12:00:00 AM 9.21 48.578 0.002 8.03 4.05 10.7
4/27/2023 12:15:00 AM 9.14 48.452 0.002 8.04 4.16 10.76
4/27/2023 12:30:00 AM 9.03 48.254 0.002 8.02 4.42 10.76
4/27/2023 12:45:00 AM 8.96 48.128 0.002 7.96 19.15 10.59
4/27/2023 1:00:00 AM 8.83 47.894 0.002 7.99 5.99 10.72
4/27/2023 1:15:00 AM 8.76 47.768 0.002 8 4.87 10.77
4/27/2023 1:30:00 AM 8.65 47.57 0.002 8 4.96 10.81
4/27/2023 1:45:00 AM 8.6 47.48 0.002 8 4.18 10.8
4/27/2023 2:00:00 AM 8.52 47.336 0.002 8.01 4.31 10.89
4/27/2023 2:15:00 AM 8.41 47.138 0.002 8 4.3 10.88
4/27/2023 2:30:00 AM 8.29 46.922 0.002 8.01 4.34 10.91
4/27/2023 2:45:00 AM 8.2 46.76 0.002 7.99 4.48 10.92
4/27/2023 3:00:00 AM 8.14 46.652 0.002 7.99 4.49 10.95
4/27/2023 3:15:00 AM 8.05 46.49 0.002 8 4.31 10.98
4/27/2023 3:30:00 AM 8 46.4 0.002 8 4.5 11.01
4/27/2023 3:45:00 AM 7.9 46.22 0.002 8 4.28 11.01
4/27/2023 4:00:00 AM 7.84 46.112 0.002 8.01 4.6 11.08
4/27/2023 4:15:00 AM 7.74 45.932 0.002 8.01 4.53 11.1
4/27/2023 4:30:00 AM 7.66 45.788 0.002 8.01 4.25 11.1
4/27/2023 4:45:00 AM 7.64 45.752 0.002 8 4.24 11.1
4/27/2023 5:00:00 AM 7.53 45.554 0.002 8 4.36 11.13
4/27/2023 5:15:00 AM 7.45 45.41 0.002 7.99 4.3 11.18
4/27/2023 5:30:00 AM 7.4 45.32 0.002 8 4.57 11.16
4/27/2023 5:45:00 AM 7.33 45.194 0.002 8 4.26 11.18
4/27/2023 6:00:00 AM 7.3 45.14 0.002 8 4.37 11.2
4/27/2023 6:15:00 AM 7.22 44.996 0.002 7.99 4.44 11.13
4/27/2023 6:30:00 AM 7.23 45.014 0.002 8 4.3 11.36
4/27/2023 6:45:00 AM 7.25 45.05 0.002 8.01 4.34 11.42
4/27/2023 7:00:00 AM 7.31 45.158 0.002 8.03 4.41 11.51
4/27/2023 7:15:00 AM 7.37 45.266 0.002 8.02 4.78 11.47
4/27/2023 7:30:00 AM 7.51 45.518 0.002 8.04 4.78 11.62
4/27/2023 7:45:00 AM 7.62 45.716 0.002 8.06 4.33 11.66
4/27/2023 8:00:00 AM 7.73 45.914 0.002 8.07 4.6 11.67
4/27/2023 8:15:00 AM 7.85 46.13 0.002 8.08 4.52 11.73
4/27/2023 8:30:00 AM 7.91 46.238 0.002 8.08 4.53 11.73
4/27/2023 8:45:00 AM 7.98 46.364 0.002 8.09 4.63 11.71
4/27/2023 9:00:00 AM 8.09 46.562 0.002 8.09 4.59 11.56
4/27/2023 9:15:00 AM 8.3 46.94 0.002 8.08 4.33 11.63
4/27/2023 9:30:00 AM 8.41 47.138 0.002 8.08 4.96 11.56
4/27/2023 9:45:00 AM 8.59 47.462 0.002 8.07 4.87 11.63
4/27/2023 10:00:00 AM 8.76 47.768 0.002 8.09 4.37 11.61
4/27/2023 10:15:00 AM 9.01 48.218 0.002 8.1 4.61 11.58
4/27/2023 10:30:00 AM 9.21 48.578 0.002 8.1 4.26 11.54
4/27/2023 10:45:00 AM 9.52 49.136 0.002 8.11 4.41 11.49
4/27/2023 11:00:00 AM 9.96 49.928 0.002 8.11 4.29 11.49
4/27/2023 11:15:00 AM 10.16 50.288 0.002 8.12 4.27 11.47
4/27/2023 11:30:00 AM 10.64 51.152 0.002 8.13 4.62 11.47
4/27/2023 11:45:00 AM 10.96 51.728 0.002 8.13 4.77 11.38
4/27/2023 12:00:00 PM 11.42 52.556 0.002 8.15 4.25 11.4
4/27/2023 12:15:00 PM 11.46 52.628 0.003 8.15 4.27 11.3
4/27/2023 12:30:00 PM 11.9 53.42 0.002 8.17 4.43 11.27
4/27/2023 12:45:00 PM 12.41 54.338 0.003 8.18 4.87 11.23
4/27/2023 1:00:00 PM 12.6 54.68 0.003 8.18 4.79 11.15
4/27/2023 1:15:00 PM 12.87 55.166 0.003 8.18 4.35 11.04
4/27/2023 1:30:00 PM 13.18 55.724 0.003 8.19 4.05 11.01
4/27/2023 1:45:00 PM 13.44 56.192 0.003 8.19 4.25 10.95
4/27/2023 2:00:00 PM 13.52 56.336 0.003 8.19 4.08 10.87
4/27/2023 2:15:00 PM 13.77 56.786 0.003 8.2 4.01 10.85
4/27/2023 2:30:00 PM 13.97 57.146 0.003 8.2 4.23 10.8
4/27/2023 2:45:00 PM 13.93 57.074 0.003 8.2 4.27 10.71
4/27/2023 3:00:00 PM 14.05 57.29 0.003 8.21 4.24 10.68
4/27/2023 3:15:00 PM 13.99 57.182 0.003 8.22 3.96 10.61
4/27/2023 3:30:00 PM 14.04 57.272 0.003 8.22 4.14 10.55
4/27/2023 3:45:00 PM 14.14 57.452 0.003 8.23 3.96 10.52
4/27/2023 4:00:00 PM 14.23 57.614 0.003 8.23 4.31 10.5
4/27/2023 4:15:00 PM 14.22 57.596 0.003 8.23 4.26 10.45
4/27/2023 4:30:00 PM 14.15 57.47 0.003 8.23 4.18 10.4
4/27/2023 4:45:00 PM 14.07 57.326 0.003 8.23 4.32 10.37
4/27/2023 5:00:00 PM 13.98 57.164 0.003 8.23 4.12 10.32
4/27/2023 5:15:00 PM 13.92 57.056 0.003 8.22 5.46 10.28
4/27/2023 5:30:00 PM 13.84 56.912 0.003 8.22 4.11 10.26
4/27/2023 5:45:00 PM 13.75 56.75 0.003 8.21 4.42 10.2
4/27/2023 6:00:00 PM 13.64 56.552 0.003 8.21 4.18 10.15
4/27/2023 6:15:00 PM 13.53 56.354 0.003 8.2 4.73 10.07
4/27/2023 6:30:00 PM 13.42 56.156 0.003 8.18 4.12 10.03
4/27/2023 6:45:00 PM 13.32 55.976 0.003 8.18 4.34 9.99
4/27/2023 7:00:00 PM 13.2 55.76 0.003 8.17 4.15 9.96
4/27/2023 7:15:00 PM 13.08 55.544 0.003 8.16 5.56 9.92
4/27/2023 7:30:00 PM 12.98 55.364 0.003 8.13 4.43 9.86
4/27/2023 7:45:00 PM 12.89 55.202 0.003 8.13 4.74 9.85
4/27/2023 8:00:00 PM 12.8 55.04 0.003 8.12 4.2 9.84
4/27/2023 8:15:00 PM 12.71 54.878 0.003 8.11 4.3 9.85
4/27/2023 8:30:00 PM 12.64 54.752 0.003 8.1 4.53 9.83
4/27/2023 8:45:00 PM 12.57 54.626 0.003 8.09 4.85 9.85
4/27/2023 9:00:00 PM 12.48 54.464 0.003 8.09 4.16 9.84
4/27/2023 9:15:00 PM 12.38 54.284 0.003 8.08 4.25 9.85
4/27/2023 9:30:00 PM 12.3 54.14 0.003 8.08 4.4 9.86
4/27/2023 9:45:00 PM 12.24 54.032 0.003 8.07 4.26 9.87
4/27/2023 10:00:00 PM 12.17 53.906 0.003 8.06 4.28 9.87
4/27/2023 10:15:00 PM 12.11 53.798 0.003 8.06 4.34 9.9
4/27/2023 10:30:00 PM 12.06 53.708 0.003 8.06 4.44 9.9
4/27/2023 10:45:00 PM 11.99 53.582 0.003 8.06 4.15 9.93
4/27/2023 11:00:00 PM 11.91 53.438 0.003 8.05 4.55 9.95
4/27/2023 11:15:00 PM 11.83 53.294 0.003 8.05 4.37 9.96
4/27/2023 11:30:00 PM 11.73 53.114 0.002 8.03 4.48 9.98
4/27/2023 11:45:00 PM 11.66 52.988 0.002 8.03 4.53 10
4/28/2023 12:00:00 AM 11.57 52.826 0.003 8.04 4.39 10.04
4/28/2023 12:15:00 AM 11.51 52.718 0.003 8.03 4.12 10.02
4/28/2023 12:30:00 AM 11.48 52.664 0.003 8.02 4.42 10.03
4/28/2023 12:45:00 AM 11.45 52.61 0.002 8.03 4.55 10.1
4/28/2023 1:00:00 AM 11.41 52.538 0.002 8 4.27 10.03
4/28/2023 1:15:00 AM 11.39 52.502 0.002 8.03 4.47 10.15
4/28/2023 1:30:00 AM 11.36 52.448 0.003 8.03 4.46 10.12
4/28/2023 1:45:00 AM 11.34 52.412 0.002 8.02 4.12 10.11
4/28/2023 2:00:00 AM 11.31 52.358 0.002 8.01 4.19 10.09
4/28/2023 2:15:00 AM 11.3 52.34 0.003 8.02 4.26 10.12
4/28/2023 2:30:00 AM 11.27 52.286 0.002 8.01 4.26 10.12
4/28/2023 2:45:00 AM 11.26 52.268 0.002 8.01 4.4 10.12
4/28/2023 3:00:00 AM 11.25 52.25 0.002 8.01 4.5 10.11
4/28/2023 3:15:00 AM 11.23 52.214 0.002 8.01 4.21 10.15
4/28/2023 3:30:00 AM 11.21 52.178 0.002 8.02 4.52 10.14
4/28/2023 3:45:00 AM 11.19 52.142 0.002 8.01 4.54 10.13
4/28/2023 4:00:00 AM 11.18 52.124 0.002 8.02 4.5 10.16
4/28/2023 4:15:00 AM 11.17 52.106 0.002 8.02 4.41 10.16
4/28/2023 4:30:00 AM 11.16 52.088 0.002 8.03 4.58 10.17
4/28/2023 4:45:00 AM 11.15 52.07 0.002 8.03 4.29 10.15
4/28/2023 5:00:00 AM 11.14 52.052 0.002 8.02 5.65 10.14
4/28/2023 5:15:00 AM 11.12 52.016 0.002 8.01 4.27 10.18
4/28/2023 5:30:00 AM 11.09 51.962 0.002 8 4.02 10.11
4/28/2023 5:45:00 AM 11.09 51.962 0.002 8.01 5.71 10.17
4/28/2023 6:00:00 AM 11.08 51.944 0.002 8.01 4.29 10.14
4/28/2023 6:15:00 AM 11.08 51.944 0.002 8.03 4.41 10.22
4/28/2023 6:30:00 AM 11.06 51.908 0.003 8.01 4.74 10.2
4/28/2023 6:45:00 AM 11.04 51.872 0.002 8.02 4.27 10.19
4/28/2023 7:00:00 AM 11.04 51.872 0.002 8.02 4.26 10.21
4/28/2023 7:15:00 AM 11 51.8 0.002 8.02 4.65 10.25
4/28/2023 7:30:00 AM 10.99 51.782 0.002 8.01 4.58 10.21
4/28/2023 7:45:00 AM 10.99 51.782 0.002 8.02 4.29 10.23
4/28/2023 8:00:00 AM 10.98 51.764 0.002 8.04 4.68 10.35
4/28/2023 8:15:00 AM 10.99 51.782 0.002 8.02 4.6 10.39
4/28/2023 8:30:00 AM 10.98 51.764 0.002 8.03 4.84 10.43
4/28/2023 8:45:00 AM 10.98 51.764 0.002 8.04 4.42 10.45
4/28/2023 9:00:00 AM 10.96 51.728 0.002 8.04 4.7 10.49
4/28/2023 9:15:00 AM 10.95 51.71 0.002 8.04 5.13 10.48
4/28/2023 9:30:00 AM 10.94 51.692 0.002 8.03 4.7 10.46
4/28/2023 9:45:00 AM 10.95 51.71 0.002 8.05 4.76 10.54
4/28/2023 10:00:00 AM 10.93 51.674 0.002 8.04 5.32 10.54
4/28/2023 10:15:00 AM 10.93 51.674 0.002 8.02 4.89 10.54
4/28/2023 10:30:00 AM 10.94 51.692 0.002 8.02 4.9 10.61
4/28/2023 10:45:00 AM 10.94 51.692 0.002 8.03 5.41 10.63
4/28/2023 11:00:00 AM 10.95 51.71 0.002 8.03 5.13 10.63
4/28/2023 11:15:00 AM 10.95 51.71 0.002 8.05 4.84 10.71
4/28/2023 11:30:00 AM 10.96 51.728 0.002 8.06 4.97 10.73
4/28/2023 11:45:00 AM 10.96 51.728 0.002 8.08 4.66 10.77
4/28/2023 12:00:00 PM 10.97 51.746 0.002 8.08 4.69 10.76
4/28/2023 12:15:00 PM 11.01 51.818 0.002 8.08 4.99 10.79
4/28/2023 12:30:00 PM 11.03 51.854 0.002 8.1 4.7 10.8
4/28/2023 12:45:00 PM 11.03 51.854 0.002 8.09 5.03 10.82
4/28/2023 1:00:00 PM 11.09 51.962 0.002 8.09 4.83 10.81
4/28/2023 1:15:00 PM 11.16 52.088 0.002 8.09 4.65 10.84
4/28/2023 1:30:00 PM 11.21 52.178 0.002 8.12 4.81 10.85
4/28/2023 1:45:00 PM 11.21 52.178 0.002 8.13 4.52 10.87
4/28/2023 2:00:00 PM 11.19 52.142 0.002 8.11 4.68 10.81
4/28/2023 2:15:00 PM 11.16 52.088 0.002 8.09 4.73 10.76
4/28/2023 2:30:00 PM 11.14 52.052 0.002 8.1 4.47 10.76
4/28/2023 2:45:00 PM 11.09 51.962 0.002 8.12 4.81 10.73
4/28/2023 3:00:00 PM 11.05 51.89 0.002 8.11 4.82 10.69
4/28/2023 3:15:00 PM 10.99 51.782 0.002 8.1 4.76 10.62
4/28/2023 3:30:00 PM 10.96 51.728 0.002 8.09 4.75 10.59
4/28/2023 3:45:00 PM 10.91 51.638 0.002 8.09 5.95 10.55
4/28/2023 4:00:00 PM 10.89 51.602 0.002 8.09 4.75 10.56
4/28/2023 4:15:00 PM 10.87 51.566 0.002 8.08 4.59 10.54
4/28/2023 4:30:00 PM 10.85 51.53 0.002 8.07 4.63 10.5
4/28/2023 4:45:00 PM 10.83 51.494 0.002 8.08 4.72 10.51
4/28/2023 5:00:00 PM 10.81 51.458 0.002 8.06 4.47 10.47
4/28/2023 5:15:00 PM 10.8 51.44 0.002 8.08 4.89 10.49
4/28/2023 5:30:00 PM 10.77 51.386 0.002 8.07 4.28 10.45
4/28/2023 5:45:00 PM 10.76 51.368 0.002 8.06 4.37 10.49
4/28/2023 6:00:00 PM 10.72 51.296 0.002 8.05 4.59 10.45
4/28/2023 6:15:00 PM 10.71 51.278 0.002 8.06 4.41 10.46
4/28/2023 6:30:00 PM 10.67 51.206 0.002 8.05 4.58 10.5
4/28/2023 6:45:00 PM 10.63 51.134 0.002 8.08 4.65 10.5
4/28/2023 7:00:00 PM 10.59 51.062 0.002 8.07 4.69 10.48
4/28/2023 7:15:00 PM 10.55 50.99 0.002 8.07 5.02 10.46
4/28/2023 7:30:00 PM 10.51 50.918 0.002 8.07 4.54 10.46
4/28/2023 7:45:00 PM 10.46 50.828 0.002 8.06 4.7 10.45
4/28/2023 8:00:00 PM 10.42 50.756 0.002 8.06 4.58 10.46
4/28/2023 8:15:00 PM 10.38 50.684 0.002 8.06 4.4 10.47
4/28/2023 8:30:00 PM 10.34 50.612 0.002 8.06 4.96 10.49
4/28/2023 8:45:00 PM 10.3 50.54 0.002 8.05 4.64 10.49
4/28/2023 9:00:00 PM 10.26 50.468 0.002 8.06 4.74 10.47
4/28/2023 9:15:00 PM 10.22 50.396 0.002 8.05 4.94 10.49
4/28/2023 9:30:00 PM 10.19 50.342 0.002 8.06 4.63 10.51
4/28/2023 9:45:00 PM 10.14 50.252 0.002 8.05 4.6 10.52
4/28/2023 10:00:00 PM 10.11 50.198 0.002 8.06 4.69 10.53
4/28/2023 10:15:00 PM 10.07 50.126 0.002 8.06 4.62 10.54
4/28/2023 10:30:00 PM 10.04 50.072 0.002 8.05 4.78 10.55
4/28/2023 10:45:00 PM 10 50 0.002 8.04 4.88 10.52
4/28/2023 11:00:00 PM 9.97 49.946 0.002 8.05 4.67 10.56
4/28/2023 11:15:00 PM 9.93 49.874 0.002 8.06 4.83 10.58
4/28/2023 11:30:00 PM 9.9 49.82 0.002 8.06 4.52 10.56
4/28/2023 11:45:00 PM 9.87 49.766 0.002 8.04 5.02 10.56
4/29/2023 12:00:00 AM 9.85 49.73 0.002 8.05 4.73 10.57
4/29/2023 12:15:00 AM 9.82 49.676 0.002 8.05 4.92 10.6
4/29/2023 12:30:00 AM 9.79 49.622 0.002 8.05 5.06 10.59
4/29/2023 12:45:00 AM 9.77 49.586 0.002 8.05 5.08 10.59
4/29/2023 1:00:00 AM 9.75 49.55 0.002 8.06 4.79 10.61
4/29/2023 1:15:00 AM 9.72 49.496 0.002 8.06 4.99 10.62
4/29/2023 1:30:00 AM 9.69 49.442 0.002 8.05 4.88 10.6
4/29/2023 1:45:00 AM 9.67 49.406 0.002 8.06 4.66 10.64
4/29/2023 2:00:00 AM 9.65 49.37 0.002 8.06 4.84 10.64
4/29/2023 2:15:00 AM 9.63 49.334 0.002 8.06 4.95 10.65
4/29/2023 2:30:00 AM 9.6 49.28 0.002 8.06 5.08 10.65
4/29/2023 2:45:00 AM 9.58 49.244 0.002 8.06 4.66 10.65
4/29/2023 3:00:00 AM 9.56 49.208 0.002 8.06 4.97 10.66
4/29/2023 3:15:00 AM 9.54 49.172 0.002 8.06 4.85 10.67
4/29/2023 3:30:00 AM 9.52 49.136 0.002 8.05 4.85 10.67
4/29/2023 3:45:00 AM 9.5 49.1 0.002 8.05 4.76 10.68
4/29/2023 4:00:00 AM 9.48 49.064 0.002 8.06 4.71 10.69
4/29/2023 4:15:00 AM 9.46 49.028 0.002 8.05 4.92 10.67
4/29/2023 4:30:00 AM 9.44 48.992 0.002 8.06 4.9 10.71
4/29/2023 4:45:00 AM 9.42 48.956 0.002 8.05 4.82 10.7
4/29/2023 5:00:00 AM 9.41 48.938 0.002 8.06 5.91 10.71
4/29/2023 5:15:00 AM 9.4 48.92 0.002 8.06 4.6 10.72
4/29/2023 5:30:00 AM 9.38 48.884 0.002 8.06 4.83 10.72
4/29/2023 5:45:00 AM 9.37 48.866 0.002 8.05 4.96 10.69
4/29/2023 6:00:00 AM 9.35 48.83 0.002 8.05 4.77 10.72
4/29/2023 6:15:00 AM 9.35 48.83 0.002 8.06 4.71 10.72
4/29/2023 6:30:00 AM 9.34 48.812 0.002 8.05 4.51 10.71
4/29/2023 6:45:00 AM 9.34 48.812 0.002 8.05 4.87 10.72
4/29/2023 7:00:00 AM 9.34 48.812 0.002 8.06 4.47 10.76
4/29/2023 7:15:00 AM 9.35 48.83 0.002 8.06 4.46 10.83
4/29/2023 7:30:00 AM 9.37 48.866 0.002 8.07 4.67 10.85
4/29/2023 7:45:00 AM 9.39 48.902 0.002 8.07 4.66 10.88
4/29/2023 8:00:00 AM 9.41 48.938 0.002 8.08 4.63 10.91
4/29/2023 8:15:00 AM 9.43 48.974 0.002 8.08 4.31 10.94
4/29/2023 8:30:00 AM 9.45 49.01 0.002 8.09 4.49 10.92
4/29/2023 8:45:00 AM 9.46 49.028 0.002 8.1 5.88 10.93
4/29/2023 9:00:00 AM 9.49 49.082 0.002 8.1 4.36 10.96
4/29/2023 9:15:00 AM 9.57 49.226 0.002 8.11 4.71 10.99
4/29/2023 9:30:00 AM 9.66 49.388 0.002 8.1 4.48 11.05
4/29/2023 9:45:00 AM 9.72 49.496 0.002 8.12 4.3 11.09
4/29/2023 10:00:00 AM 9.73 49.514 0.002 8.13 4.31 11.09
4/29/2023 10:15:00 AM 9.78 49.604 0.002 8.13 4.67 11.09
4/29/2023 10:30:00 AM 9.83 49.694 0.002 8.14 4.56 11.1
4/29/2023 10:45:00 AM 9.91 49.838 0.002 8.14 4.05 11.11
4/29/2023 11:00:00 AM 9.94 49.892 0.002 8.14 4.28 11.1
4/29/2023 11:15:00 AM 9.97 49.946 0.002 8.15 4.63 11.09
4/29/2023 11:30:00 AM 9.96 49.928 0.002 8.15 4.5 11.09
4/29/2023 11:45:00 AM 9.96 49.928 0.002 8.16 4.17 11.06
4/29/2023 12:00:00 PM 10.03 50.054 0.002 8.16 4.11 11.07
4/29/2023 12:15:00 PM 10.14 50.252 0.002 8.16 4.52 11.1
4/29/2023 12:30:00 PM 10.21 50.378 0.002 8.17 4.46 11.1
4/29/2023 12:45:00 PM 10.37 50.666 0.002 8.17 4.02 11.13
4/29/2023 1:00:00 PM 10.42 50.756 0.002 8.18 4.56 11.12
4/29/2023 1:15:00 PM 10.55 50.99 0.002 8.19 4.09 11.13
4/29/2023 1:30:00 PM 10.7 51.26 0.002 8.2 4.4 11.14
4/29/2023 1:45:00 PM 10.71 51.278 0.002 8.2 4.01 11.1
4/29/2023 2:00:00 PM 10.69 51.242 0.002 8.21 4.31 11.05
4/29/2023 2:15:00 PM 10.79 51.422 0.002 8.21 4.24 11.05
4/29/2023 2:30:00 PM 10.85 51.53 0.002 8.21 4.07 11.02
4/29/2023 2:45:00 PM 10.84 51.512 0.002 8.21 4.19 11.01
4/29/2023 3:00:00 PM 10.8 51.44 0.002 8.21 4.56 10.95
4/29/2023 3:15:00 PM 10.78 51.404 0.002 8.21 4.21 10.9
4/29/2023 3:30:00 PM 10.76 51.368 0.002 8.19 4.27 10.84
4/29/2023 3:45:00 PM 10.8 51.44 0.002 8.19 5.39 10.85
4/29/2023 4:00:00 PM 10.8 51.44 0.002 8.2 4.09 10.83
4/29/2023 4:15:00 PM 10.79 51.422 0.002 8.19 3.9 10.81
4/29/2023 4:30:00 PM 10.77 51.386 0.002 8.19 3.77 10.73
4/29/2023 4:45:00 PM 10.76 51.368 0.002 8.18 3.82 10.7
4/29/2023 5:00:00 PM 10.79 51.422 0.002 8.17 3.69 10.68
4/29/2023 5:15:00 PM 10.83 51.494 0.002 8.18 3.39 10.7
4/29/2023 5:30:00 PM 10.88 51.584 0.002 8.18 4.26 10.72
4/29/2023 5:45:00 PM 10.88 51.584 0.002 8.17 5.45 10.7
4/29/2023 6:00:00 PM 10.87 51.566 0.002 8.17 5.76 10.66
4/29/2023 6:15:00 PM 10.86 51.548 0.002 8.17 3.66 10.61
4/29/2023 6:30:00 PM 10.84 51.512 0.002 8.15 3.99 10.57
4/29/2023 6:45:00 PM 10.82 51.476 0.002 8.15 3.61 10.52
4/29/2023 7:00:00 PM 10.81 51.458 0.002 8.13 3.74 10.48
4/29/2023 7:15:00 PM 10.78 51.404 0.002 8.14 3.71 10.48
4/29/2023 7:30:00 PM 10.76 51.368 0.002 8.13 3.69 10.44
4/29/2023 7:45:00 PM 10.74 51.332 0.002 8.12 4.09 10.42
4/29/2023 8:00:00 PM 10.72 51.296 0.002 8.11 3.69 10.4
4/29/2023 8:15:00 PM 10.7 51.26 0.002 8.1 3.83 10.4
4/29/2023 8:30:00 PM 10.68 51.224 0.002 8.1 3.74 10.41
4/29/2023 8:45:00 PM 10.66 51.188 0.002 8.09 4.05 10.38
4/29/2023 9:00:00 PM 10.65 51.17 0.002 8.09 3.95 10.36
4/29/2023 9:15:00 PM 10.63 51.134 0.002 8.09 3.68 10.38
4/29/2023 9:30:00 PM 10.62 51.116 0.002 8.08 3.76 10.37
4/29/2023 9:45:00 PM 10.6 51.08 0.002 8.08 3.76 10.36
4/29/2023 10:00:00 PM 10.58 51.044 0.002 8.07 4.17 10.36
4/29/2023 10:15:00 PM 10.56 51.008 0.002 8.06 5.51 10.37
4/29/2023 10:30:00 PM 10.54 50.972 0.002 8.07 3.82 10.37
4/29/2023 10:45:00 PM 10.53 50.954 0.002 8.06 4.08 10.35
4/29/2023 11:00:00 PM 10.51 50.918 0.002 8.05 4.16 10.35
4/29/2023 11:15:00 PM 10.49 50.882 0.002 8.05 3.93 10.36
4/29/2023 11:30:00 PM 10.47 50.846 0.002 8.04 4.58 10.35
4/29/2023 11:45:00 PM 10.46 50.828 0.002 8.04 4.23 10.35
4/30/2023 12:00:00 AM 10.44 50.792 0.002 8.04 3.8 10.35
4/30/2023 12:15:00 AM 10.42 50.756 0.002 8.03 5.54 10.33
4/30/2023 12:30:00 AM 10.41 50.738 0.002 8.03 4.2 10.35
4/30/2023 12:45:00 AM 10.4 50.72 0.002 8.03 4.09 10.36
4/30/2023 1:00:00 AM 10.37 50.666 0.002 8.03 3.85 10.35
4/30/2023 1:15:00 AM 10.36 50.648 0.002 8.03 4.11 10.37
4/30/2023 1:30:00 AM 10.35 50.63 0.002 8.03 3.78 10.35
4/30/2023 1:45:00 AM 10.34 50.612 0.002 8.01 4.31 10.34
4/30/2023 2:00:00 AM 10.33 50.594 0.002 8.01 4.11 10.35
4/30/2023 2:15:00 AM 10.32 50.576 0.002 8.01 4.1 10.36
4/30/2023 2:30:00 AM 10.31 50.558 0.002 8.01 3.95 10.36
4/30/2023 2:45:00 AM 10.3 50.54 0.002 8.01 3.86 10.36
4/30/2023 3:00:00 AM 10.29 50.522 0.002 8.01 4.09 10.35
4/30/2023 3:15:00 AM 10.28 50.504 0.002 8.02 3.9 10.36
4/30/2023 3:30:00 AM 10.26 50.468 0.002 8.01 4.1 10.36
4/30/2023 3:45:00 AM 10.25 50.45 0.002 8.01 4.25 10.36
4/30/2023 4:00:00 AM 10.24 50.432 0.002 8.01 3.62 10.36
4/30/2023 4:15:00 AM 10.23 50.414 0.002 8.01 4.04 10.38
4/30/2023 4:30:00 AM 10.22 50.396 0.002 8 4.16 10.38
4/30/2023 4:45:00 AM 10.21 50.378 0.002 7.99 4.13 10.38
4/30/2023 5:00:00 AM 10.21 50.378 0.002 8 3.97 10.35
4/30/2023 5:15:00 AM 10.2 50.36 0.002 7.99 4.05 10.35
4/30/2023 5:30:00 AM 10.19 50.342 0.002 7.99 4.06 10.32
4/30/2023 5:45:00 AM 10.18 50.324 0.002 7.98 5.07 10.35
4/30/2023 6:00:00 AM 10.18 50.324 0.002 7.98 4.63 10.35
4/30/2023 6:15:00 AM 10.18 50.324 0.002 7.98 4.2 10.37
4/30/2023 6:30:00 AM 10.18 50.324 0.002 7.98 3.93 10.37
4/30/2023 6:45:00 AM 10.19 50.342 0.002 7.99 4.69 10.42
4/30/2023 7:00:00 AM 10.2 50.36 0.002 8 4.24 10.45
4/30/2023 7:15:00 AM 10.21 50.378 0.002 8 4.15 10.49
4/30/2023 7:30:00 AM 10.25 50.45 0.002 8.01 4.08 10.53
4/30/2023 7:45:00 AM 10.27 50.486 0.002 8 6.09 10.55
4/30/2023 8:00:00 AM 10.31 50.558 0.002 8.02 4.4 10.6
4/30/2023 8:15:00 AM 10.33 50.594 0.002 8.01 3.91 10.57
4/30/2023 8:30:00 AM 10.33 50.594 0.002 8.03 4.25 10.59
4/30/2023 8:45:00 AM 10.35 50.63 0.002 8.03 3.95 10.58
4/30/2023 9:00:00 AM 10.39 50.702 0.002 8.03 4.32 10.61
4/30/2023 9:15:00 AM 10.42 50.756 0.002 8.03 4.06 10.62
4/30/2023 9:30:00 AM 10.47 50.846 0.002 8.03 4.03 10.64
4/30/2023 9:45:00 AM 10.5 50.9 0.002 8.04 4.31 10.68
4/30/2023 10:00:00 AM 10.52 50.936 0.002 8.05 4.17 10.69
4/30/2023 10:15:00 AM 10.52 50.936 0.002 8.07 4.32 10.69
4/30/2023 10:30:00 AM 10.54 50.972 0.002 8.07 5.1 10.68
4/30/2023 10:45:00 AM 10.59 51.062 0.002 8.08 4.46 10.69
4/30/2023 11:00:00 AM 10.65 51.17 0.002 8.08 4.35 10.71
4/30/2023 11:15:00 AM 10.71 51.278 0.002 8.09 4.14 10.73
4/30/2023 11:30:00 AM 10.82 51.476 0.002 8.09 4.23 10.74
4/30/2023 11:45:00 AM 10.92 51.656 0.002 8.09 4.08 10.78
4/30/2023 12:00:00 PM 10.97 51.746 0.002 8.11 4.25 10.77
4/30/2023 12:15:00 PM 11.09 51.962 0.002 8.11 3.98 10.76
4/30/2023 12:30:00 PM 11.12 52.016 0.002 8.12 3.96 10.76
4/30/2023 12:45:00 PM 11.11 51.998 0.002 8.13 4.41 10.73
4/30/2023 1:00:00 PM 11.15 52.07 0.002 8.13 4.13 10.7
4/30/2023 1:15:00 PM 11.17 52.106 0.002 8.14 4.36 10.68
4/30/2023 1:30:00 PM 11.2 52.16 0.002 8.13 4.19 10.68
4/30/2023 1:45:00 PM 11.23 52.214 0.002 8.14 4.41 10.67
4/30/2023 2:00:00 PM 11.34 52.412 0.002 8.14 4.29 10.7
4/30/2023 2:15:00 PM 11.39 52.502 0.002 8.14 4.12 10.67
4/30/2023 2:30:00 PM 11.38 52.484 0.002 8.14 3.93 10.64
4/30/2023 2:45:00 PM 11.35 52.43 0.002 8.13 4.08 10.56
4/30/2023 3:00:00 PM 11.32 52.376 0.002 8.13 4.12 10.48
4/30/2023 3:15:00 PM 11.33 52.394 0.002 8.13 4.48 10.46
4/30/2023 3:30:00 PM 11.34 52.412 0.002 8.13 4.34 10.45
4/30/2023 3:45:00 PM 11.35 52.43 0.002 8.12 4.23 10.45
4/30/2023 4:00:00 PM 11.33 52.394 0.002 8.12 4.18 10.4
4/30/2023 4:15:00 PM 11.32 52.376 0.002 8.09 4.09 10.33
4/30/2023 4:30:00 PM 11.31 52.358 0.002 8.1 4.46 10.33
4/30/2023 4:45:00 PM 11.31 52.358 0.002 8.1 4.04 10.32
4/30/2023 5:00:00 PM 11.31 52.358 0.002 8.1 4.16 10.32
4/30/2023 5:15:00 PM 11.3 52.34 0.002 8.09 4.53 10.28
4/30/2023 5:30:00 PM 11.27 52.286 0.002 8.08 5.27 10.27
4/30/2023 5:45:00 PM 11.25 52.25 0.002 8.09 4.66 10.26
4/30/2023 6:00:00 PM 11.21 52.178 0.002 8.08 4.3 10.23
4/30/2023 6:15:00 PM 11.17 52.106 0.002 8.08 4.76 10.23
4/30/2023 6:30:00 PM 11.13 52.034 0.002 8.08 5.6 10.22
4/30/2023 6:45:00 PM 11.07 51.926 0.002 8.07 4.38 10.21
4/30/2023 7:00:00 PM 11.03 51.854 0.002 8.07 4.58 10.23
4/30/2023 7:15:00 PM 10.98 51.764 0.002 8.07 4.66 10.22
4/30/2023 7:30:00 PM 10.94 51.692 0.002 8.07 4.57 10.22
4/30/2023 7:45:00 PM 10.9 51.62 0.002 8.06 4.85 10.2
4/30/2023 8:00:00 PM 10.85 51.53 0.002 8.06 4.61 10.21
4/30/2023 8:15:00 PM 10.81 51.458 0.002 8.06 4.77 10.21
4/30/2023 8:30:00 PM 10.77 51.386 0.002 8.05 4.81 10.22
4/30/2023 8:45:00 PM 10.73 51.314 0.002 8.05 4.47 10.22
4/30/2023 9:00:00 PM 10.69 51.242 0.002 8.05 4.57 10.23
4/30/2023 9:15:00 PM 10.64 51.152 0.002 8.04 4.82 10.23
4/30/2023 9:30:00 PM 10.6 51.08 0.002 8.04 4.5 10.23
4/30/2023 9:45:00 PM 10.55 50.99 0.002 8.04 4.67 10.24
4/30/2023 10:00:00 PM 10.51 50.918 0.002 8.03 4.52 10.23
4/30/2023 10:15:00 PM 10.47 50.846 0.002 8.03 5.18 10.25
4/30/2023 10:30:00 PM 10.43 50.774 0.002 8.03 5 10.26
4/30/2023 10:45:00 PM 10.39 50.702 0.002 8.03 5.12 10.27
4/30/2023 11:00:00 PM 10.34 50.612 0.002 8.02 5.19 10.28
4/30/2023 11:15:00 PM 10.3 50.54 0.002 8.03 4.64 10.29
4/30/2023 11:30:00 PM 10.25 50.45 0.002 8.02 5.09 10.28
4/30/2023 11:45:00 PM 10.2 50.36 0.002 8.01 4.98 10.27
5/1/2023 12:00:00 AM 10.16 50.288 0.002 8.01 5.74 10.29
5/1/2023 12:15:00 AM 10.12 50.216 0.002 8.01 5.38 10.32
5/1/2023 12:30:00 AM 10.07 50.126 0.002 8.01 5.58 10.33
5/1/2023 12:45:00 AM 10.03 50.054 0.002 8.01 5.33 10.35
5/1/2023 1:00:00 AM 9.98 49.964 0.002 8.01 5.05 10.35
5/1/2023 1:15:00 AM 9.94 49.892 0.002 8.01 5.16 10.35
5/1/2023 1:30:00 AM 9.91 49.838 0.002 8.01 5.13 10.37
5/1/2023 1:45:00 AM 9.87 49.766 0.002 8 5.04 10.37
5/1/2023 2:00:00 AM 9.84 49.712 0.002 8 5.39 10.38
5/1/2023 2:15:00 AM 9.81 49.658 0.002 8.01 5.07 10.39
5/1/2023 2:30:00 AM 9.77 49.586 0.002 8.01 6.43 10.39
5/1/2023 2:45:00 AM 9.73 49.514 0.002 8.01 5.2 10.4
5/1/2023 3:00:00 AM 9.69 49.442 0.002 8.01 5.27 10.43
5/1/2023 3:15:00 AM 9.64 49.352 0.002 8.01 5.12 10.43
5/1/2023 3:30:00 AM 9.56 49.208 0.002 8.01 4.84 10.45
5/1/2023 3:45:00 AM 9.52 49.136 0.002 8.01 5.35 10.46
5/1/2023 4:00:00 AM 9.49 49.082 0.002 8 5.3 10.46
5/1/2023 4:15:00 AM 9.44 48.992 0.002 8.01 5.23 10.49
5/1/2023 4:30:00 AM 9.4 48.92 0.002 8.01 5.72 10.49
5/1/2023 4:45:00 AM 9.34 48.812 0.002 8.01 5.04 10.5
5/1/2023 5:00:00 AM 9.3 48.74 0.002 8.01 5.1 10.51
5/1/2023 5:15:00 AM 9.26 48.668 0.002 8.01 5.02 10.52
5/1/2023 5:30:00 AM 9.23 48.614 0.002 8.01 6.14 10.52
5/1/2023 5:45:00 AM 9.2 48.56 0.002 8.01 6.85 10.55
5/1/2023 6:00:00 AM 9.17 48.506 0.002 8.02 5.18 10.56
5/1/2023 6:15:00 AM 9.14 48.452 0.002 8.02 4.57 10.6
5/1/2023 6:30:00 AM 9.14 48.452 0.002 8.02 6.64 10.65
5/1/2023 6:45:00 AM 9.13 48.434 0.002 8.03 4.54 10.7
5/1/2023 7:00:00 AM 9.11 48.398 0.002 8.03 4.43 10.72
5/1/2023 7:15:00 AM 9.1 48.38 0.002 8.04 4.27 10.76
5/1/2023 7:30:00 AM 9.11 48.398 0.002 8.05 4.57 10.82
5/1/2023 7:45:00 AM 9.12 48.416 0.002 8.05 4.94 10.84
5/1/2023 8:00:00 AM 9.15 48.47 0.002 8.06 4.79 10.89
5/1/2023 8:15:00 AM 9.14 48.452 0.002 8.06 4.5 10.9
5/1/2023 8:30:00 AM 9.14 48.452 0.002 8.07 5.35 10.9
5/1/2023 8:45:00 AM 9.22 48.596 0.002 8.08 6.35 10.97
5/1/2023 9:00:00 AM 9.22 48.596 0.002 8.09 4.71 10.97
5/1/2023 9:15:00 AM 9.27 48.686 0.002 8.09 4.34 10.99
5/1/2023 9:30:00 AM 9.26 48.668 0.002 8.09 4.34 11
5/1/2023 9:45:00 AM 9.33 48.794 0.002 8.1 4.33 11.02
5/1/2023 10:00:00 AM 9.36 48.848 0.002 8.11 4.61 11.04
5/1/2023 10:15:00 AM 9.51 49.118 0.002 8.11 4.46 11.06
5/1/2023 10:30:00 AM 9.56 49.208 0.002 8.13 4.44 11.05
5/1/2023 10:45:00 AM 9.56 49.208 0.002 8.12 4.27 11.04
5/1/2023 11:00:00 AM 9.47 49.046 0.002 8.12 4.45 11.03
5/1/2023 11:15:00 AM 9.5 49.1 0.002 8.13 4.62 11.05
5/1/2023 11:30:00 AM 9.82 49.676 0.002 8.14 4.11 11.06
5/1/2023 11:45:00 AM 10.08 50.144 0.002 8.14 4.04 11.05
5/1/2023 12:00:00 PM 10.12 50.216 0.002 8.15 4.16 11.02
5/1/2023 12:15:00 PM 10.29 50.522 0.002 8.15 3.94 11.03
5/1/2023 12:30:00 PM 10.48 50.864 0.002 8.15 4.13 11.02
5/1/2023 12:45:00 PM 10.66 51.188 0.002 8.16 4.1 11.01
5/1/2023 1:00:00 PM 10.63 51.134 0.002 8.17 4.34 10.98
5/1/2023 1:15:00 PM 10.51 50.918 0.002 8.17 3.96 10.95
5/1/2023 1:30:00 PM 10.5 50.9 0.002 8.17 4.2 10.92
5/1/2023 1:45:00 PM 10.65 51.17 0.002 8.17 4.16 10.89
5/1/2023 2:00:00 PM 10.93 51.674 0.002 8.18 4.51 10.92
5/1/2023 2:15:00 PM 11.12 52.016 0.002 8.18 3.97 10.91
5/1/2023 2:30:00 PM 11.19 52.142 0.002 8.19 3.83 10.89
5/1/2023 2:45:00 PM 10.95 51.71 0.002 8.19 3.97 10.79
5/1/2023 3:00:00 PM 10.84 51.512 0.002 8.19 3.94 10.73
5/1/2023 3:15:00 PM 10.97 51.746 0.002 8.17 4.19 10.71
5/1/2023 3:30:00 PM 11.1 51.98 0.002 8.18 4.24 10.73
5/1/2023 3:45:00 PM 11.12 52.016 0.002 8.18 4.31 10.7
5/1/2023 4:00:00 PM 10.99 51.782 0.002 8.18 3.98 10.64
5/1/2023 4:15:00 PM 10.97 51.746 0.002 8.18 4.19 10.65
5/1/2023 4:30:00 PM 10.95 51.71 0.002 8.17 3.71 10.64
5/1/2023 4:45:00 PM 10.95 51.71 0.002 8.17 3.7 10.61
5/1/2023 5:00:00 PM 10.91 51.638 0.002 8.17 3.79 10.59
5/1/2023 5:15:00 PM 10.88 51.584 0.002 8.16 6.53 10.55
5/1/2023 5:30:00 PM 10.84 51.512 0.002 8.16 3.83 10.54
5/1/2023 5:45:00 PM 10.8 51.44 0.002 8.15 4.06 10.5
5/1/2023 6:00:00 PM 10.75 51.35 0.002 8.14 4.21 10.48
5/1/2023 6:15:00 PM 10.68 51.224 0.002 8.13 5 10.46
5/1/2023 6:30:00 PM 10.62 51.116 0.002 8.12 4.17 10.42
5/1/2023 6:45:00 PM 10.56 51.008 0.002 8.11 4.02 10.4
5/1/2023 7:00:00 PM 10.48 50.864 0.002 8.1 3.8 10.42
5/1/2023 7:15:00 PM 10.4 50.72 0.002 8.1 3.9 10.41
5/1/2023 7:30:00 PM 10.32 50.576 0.002 8.09 3.97 10.41
5/1/2023 7:45:00 PM 10.24 50.432 0.002 8.09 3.95 10.41
5/1/2023 8:00:00 PM 10.16 50.288 0.002 8.08 3.89 10.42
5/1/2023 8:15:00 PM 10.09 50.162 0.002 8.08 4.12 10.43
5/1/2023 8:30:00 PM 10.01 50.018 0.002 8.06 4.05 10.42
5/1/2023 8:45:00 PM 9.95 49.91 0.002 8.06 4.15 10.42
5/1/2023 9:00:00 PM 9.89 49.802 0.002 8.06 4.27 10.44
5/1/2023 9:15:00 PM 9.82 49.676 0.002 8.06 4.16 10.46
5/1/2023 9:30:00 PM 9.77 49.586 0.002 8.05 3.79 10.46
5/1/2023 9:45:00 PM 9.72 49.496 0.002 8.05 4.71 10.47
5/1/2023 10:00:00 PM 9.67 49.406 0.002 8.04 4.26 10.47
5/1/2023 10:15:00 PM 9.62 49.316 0.002 8.04 4.05 10.48
5/1/2023 10:30:00 PM 9.57 49.226 0.002 8.04 4.43 10.5
5/1/2023 10:45:00 PM 9.51 49.118 0.002 8.03 5.36 10.49
5/1/2023 11:00:00 PM 9.47 49.046 0.002 8.03 4.11 10.5
5/1/2023 11:15:00 PM 9.42 48.956 0.002 8.03 4.36 10.52
5/1/2023 11:30:00 PM 9.38 48.884 0.002 8.02 4.04 10.53
5/1/2023 11:45:00 PM 9.34 48.812 0.002 8.02 4.32 10.53
5/2/2023 12:00:00 AM 9.29 48.722 0.002 8.02 4.56 10.55
5/2/2023 12:15:00 AM 9.25 48.65 0.002 8.02 4.29 10.56
5/2/2023 12:30:00 AM 9.2 48.56 0.002 8.02 3.72 10.56
5/2/2023 12:45:00 AM 9.15 48.47 0.002 8.01 4.18 10.56
5/2/2023 1:00:00 AM 9.11 48.398 0.002 8.01 4.23 10.6
5/2/2023 1:15:00 AM 9.07 48.326 0.002 8.01 4.38 10.6
5/2/2023 1:30:00 AM 9.02 48.236 0.002 8.01 4.56 10.61
5/2/2023 1:45:00 AM 8.97 48.146 0.002 8.01 4.47 10.62
5/2/2023 2:00:00 AM 8.92 48.056 0.002 8 4.55 10.62
5/2/2023 2:15:00 AM 8.87 47.966 0.002 8 4.45 10.64
5/2/2023 2:30:00 AM 8.81 47.858 0.002 8 4.3 10.67
5/2/2023 2:45:00 AM 8.76 47.768 0.002 8 4.23 10.68
5/2/2023 3:00:00 AM 8.71 47.678 0.002 8 4.51 10.69
5/2/2023 3:15:00 AM 8.66 47.588 0.002 8 4.69 10.72
5/2/2023 3:30:00 AM 8.6 47.48 0.002 8 4.37 10.73
5/2/2023 3:45:00 AM 8.53 47.354 0.002 8 4.49 10.74
5/2/2023 4:00:00 AM 8.49 47.282 0.002 7.99 4.3 10.75
5/2/2023 4:15:00 AM 8.44 47.192 0.002 8 4.8 10.77
5/2/2023 4:30:00 AM 8.39 47.102 0.002 8 4.54 10.78
5/2/2023 4:45:00 AM 8.34 47.012 0.002 7.99 4.8 10.79
5/2/2023 5:00:00 AM 8.3 46.94 0.002 7.99 4.48 10.78
5/2/2023 5:15:00 AM 8.25 46.85 0.002 7.99 4.25 10.81
5/2/2023 5:30:00 AM 8.22 46.796 0.002 7.99 4.29 10.79
5/2/2023 5:45:00 AM 8.19 46.742 0.002 7.99 4.5 10.83
5/2/2023 6:00:00 AM 8.16 46.688 0.002 8 4.37 10.88
5/2/2023 6:15:00 AM 8.13 46.634 0.002 8 4.43 10.9
5/2/2023 6:30:00 AM 8.12 46.616 0.002 8 4.53 10.93
5/2/2023 6:45:00 AM 8.12 46.616 0.002 8.01 4.63 11
5/2/2023 7:00:00 AM 8.1 46.58 0.002 8.01 4.77 11.03
5/2/2023 7:15:00 AM 8.09 46.562 0.002 8.01 4.62 11.04
5/2/2023 7:30:00 AM 8.1 46.58 0.002 8.02 4.64 11.08
5/2/2023 7:45:00 AM 8.1 46.58 0.002 8.02 4.27 11.12
5/2/2023 8:00:00 AM 8.12 46.616 0.002 8.03 4.11 11.15
5/2/2023 8:15:00 AM 8.13 46.634 0.002 8.04 5.31 11.21
5/2/2023 8:30:00 AM 8.13 46.634 0.002 8.04 4.54 11.23
5/2/2023 8:45:00 AM 8.16 46.688 0.002 8.05 4.19 11.26
5/2/2023 9:00:00 AM 8.22 46.796 0.002 8.06 4.48 11.28
5/2/2023 9:15:00 AM 8.23 46.814 0.002 8.06 4.49 11.29
5/2/2023 9:30:00 AM 8.23 46.814 0.002 8.06 5.24 11.3
5/2/2023 9:45:00 AM 8.3 46.94 0.002 8.07 4.67 11.33
5/2/2023 10:00:00 AM 8.27 46.886 0.002 8.07 4.23 11.32
5/2/2023 10:15:00 AM 8.41 47.138 0.002 8.08 4.01 11.36
5/2/2023 10:30:00 AM 8.46 47.228 0.002 8.08 4.34 11.34
5/2/2023 10:45:00 AM 8.53 47.354 0.002 8.09 4.19 11.36
5/2/2023 11:00:00 AM 8.57 47.426 0.002 8.09 4.21 11.36
5/2/2023 11:15:00 AM 8.65 47.57 0.002 8.1 4.03 11.35
5/2/2023 11:30:00 AM 8.76 47.768 0.002 8.1 4.41 11.38
5/2/2023 11:45:00 AM 8.84 47.912 0.002 8.11 4.59 11.37
5/2/2023 12:00:00 PM 8.89 48.002 0.002 8.12 4.42 11.33
5/2/2023 12:15:00 PM 8.98 48.164 0.002 8.12 4.14 11.33
5/2/2023 12:30:00 PM 9.02 48.236 0.002 8.12 4.85 11.32
5/2/2023 12:45:00 PM 9.07 48.326 0.002 8.13 4.62 11.32
5/2/2023 1:00:00 PM 9.11 48.398 0.002 8.13 4.43 11.3
5/2/2023 1:15:00 PM 9.14 48.452 0.002 8.13 4.73 11.3
5/2/2023 1:30:00 PM 9.18 48.524 0.002 8.13 4.52 11.3
5/2/2023 1:45:00 PM 9.19 48.542 0.002 8.13 4.33 11.28
5/2/2023 2:00:00 PM 9.26 48.668 0.002 8.13 4.43 11.25
5/2/2023 2:15:00 PM 9.32 48.776 0.002 8.13 4.25 11.25
5/2/2023 2:30:00 PM 9.33 48.794 0.001 8.13 4.32 11.24
5/2/2023 2:45:00 PM 9.35 48.83 0.001 8.14 4.21 11.23
5/2/2023 3:00:00 PM 9.35 48.83 0.001 8.14 4.58 11.19
5/2/2023 3:15:00 PM 9.36 48.848 0.001 8.14 4.46 11.19
5/2/2023 3:30:00 PM 9.35 48.83 0.001 8.14 4.35 11.16
5/2/2023 3:45:00 PM 9.35 48.83 0.001 8.13 4.13 11.15
5/2/2023 4:00:00 PM 9.32 48.776 0.001 8.13 4.46 11.13
5/2/2023 4:15:00 PM 9.3 48.74 0.001 8.13 4.47 11.14
5/2/2023 4:30:00 PM 9.29 48.722 0.001 8.12 4.38 11.08
5/2/2023 4:45:00 PM 9.27 48.686 0.001 8.12 4.47 11.11
5/2/2023 5:00:00 PM 9.24 48.632 0.001 8.12 4.47 11.07
5/2/2023 5:15:00 PM 9.19 48.542 0.001 8.11 4.48 11.04
5/2/2023 5:30:00 PM 9.15 48.47 0.001 8.11 4.49 11.03
5/2/2023 5:45:00 PM 9.12 48.416 0.001 8.11 4.36 11.04
5/2/2023 6:00:00 PM 9.08 48.344 0.001 8.1 4.86 11.02
5/2/2023 6:15:00 PM 9.05 48.29 0.001 8.1 4.16 10.99
5/2/2023 6:30:00 PM 9 48.2 0.001 8.09 4.76 10.94
5/2/2023 6:45:00 PM 8.95 48.11 0.001 8.08 5.42 10.94
5/2/2023 7:00:00 PM 8.9 48.02 0.001 8.07 4.23 10.93
5/2/2023 7:15:00 PM 8.86 47.948 0.001 8.07 4.65 10.92
5/2/2023 7:30:00 PM 8.81 47.858 0.001 8.06 4.33 10.93
5/2/2023 7:45:00 PM 8.77 47.786 0.001 8.05 4.27 10.92
5/2/2023 8:00:00 PM 8.72 47.696 0.001 8.04 5.21 10.91
5/2/2023 8:15:00 PM 8.68 47.624 0.001 8.04 4.29 10.91
5/2/2023 8:30:00 PM 8.63 47.534 0.001 8.04 4.83 10.91
5/2/2023 8:45:00 PM 8.59 47.462 0.001 8.03 5.34 10.91
5/2/2023 9:00:00 PM 8.56 47.408 0.001 8.03 4.7 10.91
5/2/2023 9:15:00 PM 8.52 47.336 0.001 8.03 4.91 10.92
5/2/2023 9:30:00 PM 8.47 47.246 0.001 8.02 4.26 10.92
5/2/2023 9:45:00 PM 8.43 47.174 0.001 8.02 4.97 10.92
5/2/2023 10:00:00 PM 8.4 47.12 0.001 8.02 4.4 10.92
5/2/2023 10:15:00 PM 8.37 47.066 0.001 8.01 5.41 10.92
5/2/2023 10:30:00 PM 8.33 46.994 0.001 8.01 4.98 10.92
5/2/2023 10:45:00 PM 8.3 46.94 0.001 8.01 4.5 10.93
5/2/2023 11:00:00 PM 8.25 46.85 0.001 8 4.53 10.93
5/2/2023 11:15:00 PM 8.22 46.796 0.001 8 4.47 10.94
5/2/2023 11:30:00 PM 8.19 46.742 0.002 8 4.82 10.96
5/2/2023 11:45:00 PM 8.15 46.67 0.002 8 4.78 10.96
5/3/2023 12:00:00 AM 8.11 46.598 0.002 8 5.75 10.98
5/3/2023 12:15:00 AM 8.08 46.544 0.002 8 4.54 11
5/3/2023 12:30:00 AM 8.04 46.472 0.002 7.99 5.05 10.99
5/3/2023 12:45:00 AM 8.01 46.418 0.002 7.99 5.11 10.99
5/3/2023 1:00:00 AM 7.98 46.364 0.002 7.99 4.54 11.01
5/3/2023 1:15:00 AM 7.94 46.292 0.002 7.98 4.53 11.01
5/3/2023 1:30:00 AM 7.91 46.238 0.002 7.99 4.38 11.01
5/3/2023 1:45:00 AM 7.87 46.166 0.002 7.99 4.71 11.03
5/3/2023 2:00:00 AM 7.85 46.13 0.002 7.98 4.81 11.04
5/3/2023 2:15:00 AM 7.82 46.076 0.002 7.98 4.52 11.03
5/3/2023 2:30:00 AM 7.79 46.022 0.002 7.98 5.44 11.06
5/3/2023 2:45:00 AM 7.76 45.968 0.002 7.98 5.1 11.06
5/3/2023 3:00:00 AM 7.73 45.914 0.002 7.98 4.6 11.08
5/3/2023 3:15:00 AM 7.7 45.86 0.002 7.98 4.72 11.08
5/3/2023 3:30:00 AM 7.66 45.788 0.002 7.98 4.45 11.08
5/3/2023 3:45:00 AM 7.63 45.734 0.001 7.98 4.58 11.1
5/3/2023 4:00:00 AM 7.6 45.68 0.001 7.98 4.97 11.11
5/3/2023 4:15:00 AM 7.56 45.608 0.001 7.97 5.32 11.12
5/3/2023 4:30:00 AM 7.53 45.554 0.001 7.98 4.38 11.11
5/3/2023 4:45:00 AM 7.5 45.5 0.001 7.98 4.46 11.14
5/3/2023 5:00:00 AM 7.47 45.446 0.001 7.97 4.84 11.15
5/3/2023 5:15:00 AM 7.44 45.392 0.001 7.97 4.85 11.15
5/3/2023 5:30:00 AM 7.42 45.356 0.001 7.97 4.84 11.16
5/3/2023 5:45:00 AM 7.4 45.32 0.001 7.97 4.64 11.17
5/3/2023 6:00:00 AM 7.38 45.284 0.001 7.98 4.76 11.2
5/3/2023 6:15:00 AM 7.36 45.248 0.001 7.98 4.46 11.25
5/3/2023 6:30:00 AM 7.35 45.23 0.001 7.98 4.42 11.28
5/3/2023 6:45:00 AM 7.35 45.23 0.001 7.98 4.5 11.32
5/3/2023 7:00:00 AM 7.35 45.23 0.001 7.99 4.56 11.35
5/3/2023 7:15:00 AM 7.36 45.248 0.001 7.99 4.69 11.36
5/3/2023 7:30:00 AM 7.39 45.302 0.001 7.99 4.25 11.39
5/3/2023 7:45:00 AM 7.42 45.356 0.001 8 4.34 11.43
5/3/2023 8:00:00 AM 7.43 45.374 0.001 8 6.06 11.44
5/3/2023 8:15:00 AM 7.44 45.392 0.001 8.01 5.43 11.48
5/3/2023 8:30:00 AM 7.49 45.482 0.002 8.02 4.02 11.5
5/3/2023 8:45:00 AM 7.52 45.536 0.002 8.02 4.73 11.52
5/3/2023 9:00:00 AM 7.59 45.662 0.001 8.03 4.16 11.54
5/3/2023 9:15:00 AM 7.73 45.914 0.002 8.04 4.22 11.55
5/3/2023 9:30:00 AM 7.75 45.95 0.002 8.04 4.38 11.56
5/3/2023 9:45:00 AM 7.81 46.058 0.002 8.04 3.87 11.48
5/3/2023 10:00:00 AM 7.85 46.13 0.002 8.05 4.27 11.56
5/3/2023 10:15:00 AM 8.05 46.49 0.002 8.05 4.37 11.58
5/3/2023 10:30:00 AM 8.16 46.688 0.002 8.06 3.81 11.54
5/3/2023 10:45:00 AM 8.08 46.544 0.002 8.06 4.3 11.54
5/3/2023 11:00:00 AM 8.15 46.67 0.002 8.06 5.61 11.54
5/3/2023 11:15:00 AM 8.25 46.85 0.002 8.07 4.27 11.54
5/3/2023 11:30:00 AM 8.22 46.796 0.002 8.07 3.99 11.4
5/3/2023 11:45:00 AM 8.2 46.76 0.002 8.08 4.83 11.51
5/3/2023 12:00:00 PM 8.27 46.886 0.002 8.07 4.04 11.5
5/3/2023 12:15:00 PM 8.42 47.156 0.002 8.08 4.59 11.5
5/3/2023 12:30:00 PM 8.56 47.408 0.002 8.08 4.13 11.47
5/3/2023 12:45:00 PM 8.73 47.714 0.002 8.08 4.03 11.47
5/3/2023 1:00:00 PM 8.86 47.948 0.002 8.09 3.97 11.45
5/3/2023 1:15:00 PM 9.07 48.326 0.002 8.09 4.29 11.44
5/3/2023 1:30:00 PM 9.29 48.722 0.002 8.1 4.12 11.4
5/3/2023 1:45:00 PM 9.45 49.01 0.002 8.1 4.22 11.38
5/3/2023 2:00:00 PM 9.6 49.28 0.002 8.1 4.29 11.34
5/3/2023 2:15:00 PM 9.61 49.298 0.002 8.1 4.33 11.33
5/3/2023 2:30:00 PM 9.55 49.19 0.002 8.1 4.08 11.3
5/3/2023 2:45:00 PM 9.5 49.1 0.002 8.11 4.99 11.27
5/3/2023 3:00:00 PM 9.41 48.938 0.002 8.11 4.12 11.24
5/3/2023 3:15:00 PM 9.23 48.614 0.002 8.1 4.64 11.19
5/3/2023 3:30:00 PM 9.19 48.542 0.002 8.09 4.5 11.16
5/3/2023 3:45:00 PM 9.16 48.488 0.002 8.08 5.82 11.15
5/3/2023 4:00:00 PM 9.1 48.38 0.002 8.07 4.66 11.12
5/3/2023 4:15:00 PM 9.05 48.29 0.002 8.07 4.31 11.17
5/3/2023 4:30:00 PM 9.09 48.362 0.002 8.07 4.47 11.2
5/3/2023 4:45:00 PM 9.14 48.452 0.002 8.06 6.17 11.15
5/3/2023 5:00:00 PM 9.15 48.47 0.002 8.07 4.57 11.16
5/3/2023 5:15:00 PM 9.11 48.398 0.002 8.07 4.77 11.13
5/3/2023 5:30:00 PM 9.13 48.434 0.002 8.06 4.44 11.13
5/3/2023 5:45:00 PM 9.11 48.398 0.002 8.06 4.59 11.12
5/3/2023 6:00:00 PM 9.09 48.362 0.002 8.05 4.52 11.12
5/3/2023 6:15:00 PM 9.04 48.272 0.002 8.05 4.52 11.09
5/3/2023 6:30:00 PM 9.01 48.218 0.002 8.05 4.59 11.09
5/3/2023 6:45:00 PM 8.97 48.146 0.002 8.04 5.26 11.05
5/3/2023 7:00:00 PM 8.91 48.038 0.002 8.03 5.08 11.02
5/3/2023 7:15:00 PM 8.86 47.948 0.002 8.02 4.67 11.02
5/3/2023 7:30:00 PM 8.8 47.84 0.002 8.02 4.49 11.02
5/3/2023 7:45:00 PM 8.76 47.768 0.003 8.01 4.77 11.01
5/3/2023 8:00:00 PM 8.71 47.678 0.003 8.01 4.57 11
5/3/2023 8:15:00 PM 8.68 47.624 0.003 8 5.12 11.01
5/3/2023 8:30:00 PM 8.64 47.552 0.003 8 5.03 11.01
5/3/2023 8:45:00 PM 8.6 47.48 0.003 7.99 6.59 11
5/3/2023 9:00:00 PM 8.56 47.408 0.003 7.98 4.67 11
5/3/2023 9:15:00 PM 8.53 47.354 0.003 7.98 4.94 11.01
5/3/2023 9:30:00 PM 8.49 47.282 0.002 7.97 5.28 11.01
5/3/2023 9:45:00 PM 8.45 47.21 0.003 7.97 5.52 11.01
5/3/2023 10:00:00 PM 8.41 47.138 0.003 7.96 5.47 11.02
5/3/2023 10:15:00 PM 8.37 47.066 0.002 7.96 5.72 11.03
5/3/2023 10:30:00 PM 8.33 46.994 0.002 7.95 4.76 11.03
5/3/2023 10:45:00 PM 8.29 46.922 0.003 7.95 5.42 11.04
5/3/2023 11:00:00 PM 8.24 46.832 0.002 7.95 5.42 11.05
5/3/2023 11:15:00 PM 8.2 46.76 0.003 7.95 4.96 11.06
5/3/2023 11:30:00 PM 8.16 46.688 0.002 7.94 5.2 11.07
5/3/2023 11:45:00 PM 8.12 46.616 0.002 7.94 5.69 11.09
5/4/2023 12:00:00 AM 8.08 46.544 0.002 7.94 5.5 11.09
5/4/2023 12:15:00 AM 8.05 46.49 0.002 7.94 5.46 11.1
5/4/2023 12:30:00 AM 8.01 46.418 0.002 7.94 5.35 11.11
5/4/2023 12:45:00 AM 7.98 46.364 0.002 7.93 5.37 11.12
5/4/2023 1:00:00 AM 7.95 46.31 0.002 7.94 6.31 11.13
5/4/2023 1:15:00 AM 7.92 46.256 0.002 7.93 5.46 11.14
5/4/2023 1:30:00 AM 7.89 46.202 0.002 7.93 5.66 11.14
5/4/2023 1:45:00 AM 7.86 46.148 0.002 7.93 5.99 11.16
5/4/2023 2:00:00 AM 7.83 46.094 0.002 7.93 5.71 11.17
5/4/2023 2:15:00 AM 7.8 46.04 0.002 7.93 5.73 11.17
5/4/2023 2:30:00 AM 7.78 46.004 0.002 7.93 6.43 11.18
5/4/2023 2:45:00 AM 7.74 45.932 0.002 7.93 5.72 11.2
5/4/2023 3:00:00 AM 7.71 45.878 0.002 7.93 6.47 11.21
5/4/2023 3:15:00 AM 7.68 45.824 0.002 7.93 6.86 11.22
5/4/2023 3:30:00 AM 7.65 45.77 0.002 7.92 6.77 11.22
5/4/2023 3:45:00 AM 7.63 45.734 0.002 7.93 6.94 11.24
5/4/2023 4:00:00 AM 7.6 45.68 0.002 7.92 6.1 11.24
5/4/2023 4:15:00 AM 7.58 45.644 0.002 7.92 7.69 11.26
5/4/2023 4:30:00 AM 7.57 45.626 0.002 7.92 7.24 11.25
5/4/2023 4:45:00 AM 7.54 45.572 0.002 7.92 7.56 11.27
5/4/2023 5:00:00 AM 7.53 45.554 0.002 7.92 8.12 11.28
5/4/2023 5:15:00 AM 7.51 45.518 0.002 7.92 7.73 11.29
5/4/2023 5:30:00 AM 7.49 45.482 0.002 7.92 7.45 11.29
5/4/2023 5:45:00 AM 7.48 45.464 0.002 7.92 7.54 11.31
5/4/2023 6:00:00 AM 7.48 45.464 0.002 7.92 7.46 11.32
5/4/2023 6:15:00 AM 7.48 45.464 0.002 7.93 10.43 11.35
5/4/2023 6:30:00 AM 7.5 45.5 0.002 7.93 8 11.37
5/4/2023 6:45:00 AM 7.52 45.536 0.002 7.94 8.26 11.41
5/4/2023 7:00:00 AM 7.56 45.608 0.002 7.94 7.95 11.43
5/4/2023 7:15:00 AM 7.59 45.662 0.002 7.95 7 11.47
5/4/2023 7:30:00 AM 7.64 45.752 0.002 7.95 7.67 11.47
5/4/2023 7:45:00 AM 7.64 45.752 0.002 7.95 7.78 11.47
5/4/2023 8:00:00 AM 7.69 45.842 0.002 7.96 7.85 11.49
5/4/2023 8:15:00 AM 7.75 45.95 0.002 7.96 8.48 11.51
5/4/2023 8:30:00 AM 7.78 46.004 0.002 7.97 7.28 11.52
5/4/2023 8:45:00 AM 7.79 46.022 0.002 7.97 6.68 11.51
5/4/2023 9:00:00 AM 7.82 46.076 0.002 7.97 6.92 11.51
5/4/2023 9:15:00 AM 7.8 46.04 0.002 7.97 7.02 11.51
5/4/2023 9:30:00 AM 7.81 46.058 0.002 7.97 8.44 11.51
5/4/2023 9:45:00 AM 7.87 46.166 0.002 7.98 6.96 11.53
5/4/2023 10:00:00 AM 7.92 46.256 0.002 7.98 6.55 11.55
5/4/2023 10:15:00 AM 8.03 46.454 0.002 7.98 7.09 11.56
5/4/2023 10:30:00 AM 8.04 46.472 0.002 7.99 7 11.54
5/4/2023 10:45:00 AM 8.12 46.616 0.002 7.99 6.66 11.55
5/4/2023 11:00:00 AM 8.42 47.156 0.002 7.99 6.23 11.55
5/4/2023 11:15:00 AM 8.49 47.282 0.002 8 6.52 11.54
5/4/2023 11:30:00 AM 8.74 47.732 0.002 8 6.56 11.52
5/4/2023 11:45:00 AM 8.89 48.002 0.002 8.01 6.31 11.48
5/4/2023 12:00:00 PM 8.88 47.984 0.002 8.01 6.36 11.44
5/4/2023 12:15:00 PM 9.04 48.272 0.002 8.01 6.05 11.43
5/4/2023 12:30:00 PM 9.22 48.596 0.002 8.02 6.37 11.42
5/4/2023 12:45:00 PM 9.24 48.632 0.002 8.02 6.38 11.41
5/4/2023 1:00:00 PM 9.67 49.406 0.002 8.02 6.24 11.37
5/4/2023 1:15:00 PM 9.8 49.64 0.002 8.02 6.22 11.33
5/4/2023 1:30:00 PM 10.05 50.09 0.002 8.02 5.55 11.3
5/4/2023 1:45:00 PM 10.01 50.018 0.002 8.03 6.24 11.23
5/4/2023 2:00:00 PM 10.22 50.396 0.002 8.03 5.31 11.23
5/4/2023 2:15:00 PM 10.5 50.9 0.002 8.03 6.74 11.19
5/4/2023 2:30:00 PM 10.5 50.9 0.002 8.03 5.84 11.17
5/4/2023 2:45:00 PM 10.85 51.53 0.002 8.03 6.49 11.13
5/4/2023 3:00:00 PM 11.04 51.872 0.003 8.04 6.3 11.09
5/4/2023 3:15:00 PM 10.97 51.746 0.003 8.04 6.13 11.03
5/4/2023 3:30:00 PM 11.02 51.836 0.002 8.04 6.63 11.01
5/4/2023 3:45:00 PM 10.94 51.692 0.002 8.04 6.98 11.01
5/4/2023 4:00:00 PM 10.77 51.386 0.002 8.04 6.32 10.98
5/4/2023 4:15:00 PM 10.79 51.422 0.002 8.03 7.28 10.97
5/4/2023 4:30:00 PM 10.71 51.278 0.002 8.03 6.62 10.95
5/4/2023 4:45:00 PM 10.7 51.26 0.002 8.02 6.81 10.95
5/4/2023 5:00:00 PM 10.69 51.242 0.002 8.02 6.85 10.94
5/4/2023 5:15:00 PM 10.61 51.098 0.002 8.02 7.52 10.92
5/4/2023 5:30:00 PM 10.56 51.008 0.002 8.01 6.56 10.91
5/4/2023 5:45:00 PM 10.48 50.864 0.002 8 6.87 10.87
5/4/2023 6:00:00 PM 10.39 50.702 0.002 7.99 6.46 10.85
5/4/2023 6:15:00 PM 10.34 50.612 0.002 7.98 6.91 10.85
5/4/2023 6:30:00 PM 10.31 50.558 0.002 7.97 7.08 10.83
5/4/2023 6:45:00 PM 10.26 50.468 0.002 7.97 6.64 10.82
5/4/2023 7:00:00 PM 10.23 50.414 0.002 7.95 7.28 10.81
5/4/2023 7:15:00 PM 10.2 50.36 0.002 7.95 7.88 10.78
5/4/2023 7:30:00 PM 10.17 50.306 0.002 7.94 7.22 10.77
5/4/2023 7:45:00 PM 10.13 50.234 0.002 7.93 7.56 10.75
5/4/2023 8:00:00 PM 10.09 50.162 0.002 7.92 8.48 10.75
5/4/2023 8:15:00 PM 10.05 50.09 0.002 7.92 7.43 10.75
5/4/2023 8:30:00 PM 10.01 50.018 0.002 7.91 7.61 10.74
5/4/2023 8:45:00 PM 9.97 49.946 0.002 7.91 7.76 10.75
5/4/2023 9:00:00 PM 9.94 49.892 0.002 7.9 7.57 10.74
5/4/2023 9:15:00 PM 9.9 49.82 0.002 7.89 7.62 10.73
5/4/2023 9:30:00 PM 9.88 49.784 0.002 7.89 6.88 10.72
5/4/2023 9:45:00 PM 9.86 49.748 0.002 7.88 7.77 10.72
5/4/2023 10:00:00 PM 9.85 49.73 0.002 7.88 8.06 10.72
5/4/2023 10:15:00 PM 9.84 49.712 0.002 7.88 7.77 10.71
5/4/2023 10:30:00 PM 9.82 49.676 0.002 7.87 8.51 10.71
5/4/2023 10:45:00 PM 9.8 49.64 0.002 7.87 8.07 10.72
5/4/2023 11:00:00 PM 9.77 49.586 0.002 7.86 7.61 10.72
5/4/2023 11:15:00 PM 9.75 49.55 0.002 7.86 9.51 10.7
5/4/2023 11:30:00 PM 9.72 49.496 0.002 7.85 9.27 10.73
5/4/2023 11:45:00 PM 9.68 49.424 0.002 7.85 8.9 10.71
5/5/2023 12:00:00 AM 9.65 49.37 0.002 7.85 10.25 10.71
5/5/2023 12:15:00 AM 9.61 49.298 0.002 7.85 10.22 10.72
5/5/2023 12:30:00 AM 9.58 49.244 0.002 7.84 11.74 10.71
5/5/2023 12:45:00 AM 9.55 49.19 0.002 7.84 8.18 10.75
5/5/2023 1:00:00 AM 9.51 49.118 0.002 7.84 8.57 10.77
5/5/2023 1:15:00 AM 9.47 49.046 0.002 7.84 8.12 10.78
5/5/2023 1:30:00 AM 9.42 48.956 0.002 7.84 7.16 10.79
5/5/2023 1:45:00 AM 9.38 48.884 0.002 7.84 7.54 10.81
5/5/2023 2:00:00 AM 9.33 48.794 0.002 7.84 8.03 10.82
5/5/2023 2:15:00 AM 9.28 48.704 0.002 7.83 8.03 10.83
5/5/2023 2:30:00 AM 9.24 48.632 0.002 7.83 9.64 10.83
5/5/2023 2:45:00 AM 9.19 48.542 0.002 7.83 7.68 10.86
5/5/2023 3:00:00 AM 9.15 48.47 0.002 7.82 8.12 10.86
5/5/2023 3:15:00 AM 9.1 48.38 0.002 7.82 7.59 10.88
5/5/2023 3:30:00 AM 9.06 48.308 0.002 7.82 8.4 10.89
5/5/2023 3:45:00 AM 9.01 48.218 0.002 7.82 8.61 10.89
5/5/2023 4:00:00 AM 8.96 48.128 0.002 7.82 9.19 10.92
5/5/2023 4:15:00 AM 8.91 48.038 0.002 7.82 8.07 10.93
5/5/2023 4:30:00 AM 8.86 47.948 0.002 7.82 8.39 10.95
5/5/2023 4:45:00 AM 8.82 47.876 0.002 7.82 8.17 10.96
5/5/2023 5:00:00 AM 8.77 47.786 0.002 7.82 6.92 10.97
5/5/2023 5:15:00 AM 8.72 47.696 0.002 7.82 6.75 11
5/5/2023 5:30:00 AM 8.68 47.624 0.002 7.82 6.78 11.01
5/5/2023 5:45:00 AM 8.64 47.552 0.002 7.82 7.24 11.04
5/5/2023 6:00:00 AM 8.6 47.48 0.002 7.82 6.65 11.03
5/5/2023 6:15:00 AM 8.57 47.426 0.002 7.82 6.92 11.09
5/5/2023 6:30:00 AM 8.55 47.39 0.002 7.83 6.65 11.15
5/5/2023 6:45:00 AM 8.54 47.372 0.002 7.83 6.75 11.16
5/5/2023 7:00:00 AM 8.55 47.39 0.002 7.83 5.87 11.18
5/5/2023 7:15:00 AM 8.55 47.39 0.002 7.84 6.62 11.22
5/5/2023 7:30:00 AM 8.57 47.426 0.002 7.85 6.43 11.26
5/5/2023 7:45:00 AM 8.57 47.426 0.002 7.85 6.05 11.28
5/5/2023 8:00:00 AM 8.61 47.498 0.002 7.85 5.52 11.27
5/5/2023 8:15:00 AM 8.67 47.606 0.002 7.86 6.26 11.34
5/5/2023 8:30:00 AM 8.75 47.75 0.002 7.87 6.02 11.36
5/5/2023 8:45:00 AM 8.83 47.894 0.002 7.87 5.84 11.38
5/5/2023 9:00:00 AM 8.89 48.002 0.002 7.88 5.8 11.37
5/5/2023 9:15:00 AM 8.99 48.182 0.002 7.89 5.74 11.37
5/5/2023 9:30:00 AM 9.23 48.614 0.002 7.89 5.88 11.37
5/5/2023 9:45:00 AM 9.39 48.902 0.002 7.9 5.99 11.37
5/5/2023 10:00:00 AM 9.56 49.208 0.002 7.91 5.41 11.36
5/5/2023 10:15:00 AM 9.8 49.64 0.002 7.91 5.28 11.34
5/5/2023 10:30:00 AM 9.99 49.982 0.002 7.92 5.43 11.33
5/5/2023 10:45:00 AM 10.1 50.18 0.002 7.93 5.61 11.33
5/5/2023 11:00:00 AM 10.4 50.72 0.002 7.93 5.45 11.28
5/5/2023 11:15:00 AM 10.69 51.242 0.002 7.94 5.6 11.26
5/5/2023 11:30:00 AM 10.95 51.71 0.002 7.94 5.75 11.23
5/5/2023 11:45:00 AM 10.87 51.566 0.002 7.95 5.22 11.18
5/5/2023 12:00:00 PM 10.78 51.404 0.002 7.95 4.9 11.17
5/5/2023 12:15:00 PM 11 51.8 0.002 7.95 5.6 11.16
5/5/2023 12:30:00 PM 11.08 51.944 0.002 7.96 5.81 11.11
5/5/2023 12:45:00 PM 11.07 51.926 0.002 7.96 5.8 11.08
5/5/2023 1:00:00 PM 11.09 51.962 0.002 7.96 5.35 11.07
5/5/2023 1:15:00 PM 11.42 52.556 0.002 7.95 5.61 11
5/5/2023 1:30:00 PM 11.65 52.97 0.002 7.96 5.36 11
5/5/2023 1:45:00 PM 11.55 52.79 0.002 7.97 4.94 10.98
5/5/2023 2:00:00 PM 11.49 52.682 0.002 7.97 6.85 10.95
5/5/2023 2:15:00 PM 11.65 52.97 0.002 7.96 5.56 10.94
5/5/2023 2:30:00 PM 11.68 53.024 0.002 7.96 5.67 10.92
5/5/2023 2:45:00 PM 11.77 53.186 0.002 7.96 5.61 10.91
5/5/2023 3:00:00 PM 11.8 53.24 0.002 7.97 5.56 10.88
5/5/2023 3:15:00 PM 11.82 53.276 0.002 7.96 5.75 10.84
5/5/2023 3:30:00 PM 11.93 53.474 0.002 7.96 5.53 10.82
5/5/2023 3:45:00 PM 12.15 53.87 0.002 7.96 5.19 10.8
5/5/2023 4:00:00 PM 12.22 53.996 0.002 7.96 5.5 10.79
5/5/2023 4:15:00 PM 12.3 54.14 0.002 7.97 5.46 10.79
5/5/2023 4:30:00 PM 12.35 54.23 0.002 7.96 5.36 10.75
5/5/2023 4:45:00 PM 12.26 54.068 0.002 7.97 5.68 10.69
5/5/2023 5:00:00 PM 12.14 53.852 0.002 7.96 5.84 10.62
5/5/2023 5:15:00 PM 12.04 53.672 0.002 7.95 6.05 10.61
5/5/2023 5:30:00 PM 11.95 53.51 0.002 7.94 4.97 10.59
5/5/2023 5:45:00 PM 11.91 53.438 0.002 7.94 5.9 10.58
5/5/2023 6:00:00 PM 11.89 53.402 0.002 7.94 5.27 10.61
5/5/2023 6:15:00 PM 11.85 53.33 0.002 7.94 5.45 10.6
5/5/2023 6:30:00 PM 11.76 53.168 0.002 7.93 5.69 10.58
5/5/2023 6:45:00 PM 11.68 53.024 0.002 7.92 5.92 10.55
5/5/2023 7:00:00 PM 11.58 52.844 0.002 7.92 5.26 10.53
5/5/2023 7:15:00 PM 11.48 52.664 0.002 7.9 5.49 10.5
5/5/2023 7:30:00 PM 11.39 52.502 0.002 7.89 5.14 10.5
5/5/2023 7:45:00 PM 11.29 52.322 0.002 7.89 5.44 10.51
5/5/2023 8:00:00 PM 11.2 52.16 0.002 7.88 5.83 10.49
5/5/2023 8:15:00 PM 11.11 51.998 0.002 7.87 6.15 10.5
5/5/2023 8:30:00 PM 11.02 51.836 0.002 7.86 5.91 10.52
5/5/2023 8:45:00 PM 10.92 51.656 0.002 7.85 11.6 10.47
5/5/2023 9:00:00 PM 10.84 51.512 0.002 7.84 7.13 10.51
5/5/2023 9:15:00 PM 10.75 51.35 0.002 7.84 6.48 10.54
5/5/2023 9:30:00 PM 10.68 51.224 0.002 7.83 7 10.55
5/5/2023 9:45:00 PM 10.61 51.098 0.002 7.82 10.2 10.53
5/5/2023 10:00:00 PM 10.53 50.954 0.002 7.81 12.4 10.51
5/5/2023 10:15:00 PM 10.47 50.846 0.002 7.79 16.09 10.48
5/5/2023 10:30:00 PM 10.42 50.756 0.002 7.81 6.54 10.57
5/5/2023 10:45:00 PM 10.36 50.648 0.002 7.8 7.03 10.58
5/5/2023 11:00:00 PM 10.31 50.558 0.002 7.8 7.82 10.57
5/5/2023 11:15:00 PM 10.26 50.468 0.002 7.8 7.83 10.59
5/5/2023 11:30:00 PM 10.2 50.36 0.002 7.8 6.8 10.6
5/5/2023 11:45:00 PM 10.15 50.27 0.002 7.79 8.09 10.62
5/6/2023 12:00:00 AM 10.09 50.162 0.002 7.79 7.95 10.62
5/6/2023 12:15:00 AM 10.03 50.054 0.002 7.78 12.25 10.62
5/6/2023 12:30:00 AM 9.97 49.946 0.002 7.78 8.21 10.66
5/6/2023 12:45:00 AM 9.9 49.82 0.002 7.79 6.91 10.67
5/6/2023 1:00:00 AM 9.82 49.676 0.002 7.79 8.61 10.68
5/6/2023 1:15:00 AM 9.74 49.532 0.002 7.78 6.75 10.7
5/6/2023 1:30:00 AM 9.68 49.424 0.002 7.78 7.13 10.73
5/6/2023 1:45:00 AM 9.62 49.316 0.002 7.78 7 10.74
5/6/2023 2:00:00 AM 9.56 49.208 0.002 7.78 7.4 10.76
5/6/2023 2:15:00 AM 9.49 49.082 0.002 7.78 7.72 10.79
5/6/2023 2:30:00 AM 9.44 48.992 0.002 7.77 17.59 10.77
5/6/2023 2:45:00 AM 9.38 48.884 0.002 7.78 6.11 10.82
5/6/2023 3:00:00 AM 9.32 48.776 0.002 7.78 5.86 10.85
5/6/2023 3:15:00 AM 9.26 48.668 0.002 7.78 5.7 10.87
5/6/2023 3:30:00 AM 9.2 48.56 0.002 7.78 5.52 10.88
5/6/2023 3:45:00 AM 9.14 48.452 0.002 7.78 6.23 10.89
5/6/2023 4:00:00 AM 9.08 48.344 0.002 7.77 11.56 10.91
5/6/2023 4:15:00 AM 9.02 48.236 0.002 7.75 17.25 10.87
5/6/2023 4:30:00 AM 8.96 48.128 0.001 7.76 13.37 10.89
5/6/2023 4:45:00 AM 8.9 48.02 0.002 7.78 6.59 10.97
5/6/2023 5:00:00 AM 8.84 47.912 0.001 7.78 5.75 10.99
5/6/2023 5:15:00 AM 8.78 47.804 0.001 7.77 5.52 11
5/6/2023 5:30:00 AM 8.72 47.696 0.001 7.78 5.8 11.04
5/6/2023 5:45:00 AM 8.66 47.588 0.001 7.78 6.96 11.07
5/6/2023 6:00:00 AM 8.61 47.498 0.001 7.79 5.39 11.12
5/6/2023 6:15:00 AM 8.58 47.444 0.001 7.79 5.28 11.14
5/6/2023 6:30:00 AM 8.55 47.39 0.002 7.79 5.2 11.2
5/6/2023 6:45:00 AM 8.52 47.336 0.002 7.79 5.75 11.23
5/6/2023 7:00:00 AM 8.5 47.3 0.002 7.8 4.88 11.28
5/6/2023 7:15:00 AM 8.51 47.318 0.002 7.81 5.48 11.32
5/6/2023 7:30:00 AM 8.53 47.354 0.002 7.81 5.28 11.35
5/6/2023 7:45:00 AM 8.59 47.462 0.002 7.82 4.86 11.37
5/6/2023 8:00:00 AM 8.57 47.426 0.002 7.83 5.76 11.39
5/6/2023 8:15:00 AM 8.63 47.534 0.002 7.83 4.39 11.4
5/6/2023 8:30:00 AM 8.73 47.714 0.002 7.84 4.66 11.42
5/6/2023 8:45:00 AM 8.83 47.894 0.002 7.85 5.25 11.41
5/6/2023 9:00:00 AM 8.94 48.092 0.002 7.85 4.7 11.41
5/6/2023 9:15:00 AM 9.08 48.344 0.002 7.86 5.01 11.42
5/6/2023 9:30:00 AM 9.25 48.65 0.002 7.86 6.08 11.41
5/6/2023 9:45:00 AM 9.43 48.974 0.002 7.88 4.46 11.41
5/6/2023 10:00:00 AM 9.62 49.316 0.002 7.88 5.04 11.39
5/6/2023 10:15:00 AM 9.84 49.712 0.002 7.88 4.65 11.37
5/6/2023 10:30:00 AM 10.07 50.126 0.002 7.89 4.53 11.38
5/6/2023 10:45:00 AM 10.31 50.558 0.002 7.9 4.37 11.32
5/6/2023 11:00:00 AM 10.54 50.972 0.002 7.9 4.56 11.28
5/6/2023 11:15:00 AM 10.81 51.458 0.002 7.91 4.68 11.29
5/6/2023 11:30:00 AM 11 51.8 0.002 7.92 4.94 11.24
5/6/2023 11:45:00 AM 11.29 52.322 0.002 7.92 4.4 11.2
5/6/2023 12:00:00 PM 11.57 52.826 0.002 7.93 4.27 11.16
5/6/2023 12:15:00 PM 11.85 53.33 0.002 7.93 4.44 11.11
5/6/2023 12:30:00 PM 12.14 53.852 0.002 7.94 4.61 11.04
5/6/2023 12:45:00 PM 12.36 54.248 0.002 7.95 4.79 11.02
5/6/2023 1:00:00 PM 12.64 54.752 0.002 7.95 4.48 10.96
5/6/2023 1:15:00 PM 12.9 55.22 0.002 7.96 4.24 10.88
5/6/2023 1:30:00 PM 13.17 55.706 0.002 7.96 4.32 10.84
5/6/2023 1:45:00 PM 13.4 56.12 0.002 7.96 4.4 10.77
5/6/2023 2:00:00 PM 13.59 56.462 0.002 7.96 5.25 10.73
5/6/2023 2:15:00 PM 13.76 56.768 0.002 7.97 4.27 10.68
5/6/2023 2:30:00 PM 13.98 57.164 0.002 7.97 3.95 10.61
5/6/2023 2:45:00 PM 14.15 57.47 0.002 7.97 4.57 10.57
5/6/2023 3:00:00 PM 14.27 57.686 0.003 7.99 4.04 10.5
5/6/2023 3:15:00 PM 14.42 57.956 0.002 7.98 4.04 10.45
5/6/2023 3:30:00 PM 14.49 58.082 0.003 7.98 4.34 10.43
5/6/2023 3:45:00 PM 14.52 58.136 0.003 7.99 4.36 10.38
5/6/2023 4:00:00 PM 14.52 58.136 0.003 7.98 4.41 10.31
5/6/2023 4:15:00 PM 14.53 58.154 0.003 7.98 4.6 10.32
5/6/2023 4:30:00 PM 14.51 58.118 0.003 7.98 4.46 10.28
5/6/2023 4:45:00 PM 14.49 58.082 0.003 7.97 4.9 10.24
5/6/2023 5:00:00 PM 14.42 57.956 0.003 7.98 3.95 10.21
5/6/2023 5:15:00 PM 14.37 57.866 0.003 7.97 4.7 10.15
5/6/2023 5:30:00 PM 14.31 57.758 0.003 7.96 5.48 10.12
5/6/2023 5:45:00 PM 14.23 57.614 0.003 7.96 4.72 10.12
5/6/2023 6:00:00 PM 14.16 57.488 0.003 7.95 4.36 10.08
5/6/2023 6:15:00 PM 14.08 57.344 0.002 7.95 4.34 10.05
5/6/2023 6:30:00 PM 14.01 57.218 0.003 7.93 4.38 10.02
5/6/2023 6:45:00 PM 13.93 57.074 0.003 7.93 4.7 10
5/6/2023 7:00:00 PM 13.84 56.912 0.003 7.91 6.02 9.95
5/6/2023 7:15:00 PM 13.75 56.75 0.003 7.9 4.69 9.94
5/6/2023 7:30:00 PM 13.67 56.606 0.002 7.88 5.61 9.92
5/6/2023 7:45:00 PM 13.58 56.444 0.003 7.87 4.5 9.9
5/6/2023 8:00:00 PM 13.5 56.3 0.002 7.87 5.49 9.9
5/6/2023 8:15:00 PM 13.42 56.156 0.002 7.86 4.52 9.89
5/6/2023 8:30:00 PM 13.34 56.012 0.002 7.86 4.63 9.9
5/6/2023 8:45:00 PM 13.27 55.886 0.002 7.85 4.61 9.89
5/6/2023 9:00:00 PM 13.2 55.76 0.002 7.84 5.55 9.89
5/6/2023 9:15:00 PM 13.13 55.634 0.002 7.83 6.29 9.89
5/6/2023 9:30:00 PM 13.06 55.508 0.002 7.83 4.7 9.9
5/6/2023 9:45:00 PM 13 55.4 0.002 7.83 5.2 9.9
5/6/2023 10:00:00 PM 12.92 55.256 0.002 7.82 4.86 9.9
5/6/2023 10:15:00 PM 12.84 55.112 0.002 7.82 5.03 9.9
5/6/2023 10:30:00 PM 12.78 55.004 0.002 7.82 4.83 9.94
5/6/2023 10:45:00 PM 12.7 54.86 0.002 7.81 5.84 9.95
5/6/2023 11:00:00 PM 12.62 54.716 0.002 7.81 4.58 9.95
5/6/2023 11:15:00 PM 12.54 54.572 0.002 7.81 5.46 9.98
5/6/2023 11:30:00 PM 12.46 54.428 0.002 7.8 4.88 9.99
5/6/2023 11:45:00 PM 12.37 54.266 0.002 7.79 4.94 10
5/7/2023 12:00:00 AM 12.29 54.122 0.002 7.8 5.03 10.02
5/7/2023 12:15:00 AM 12.19 53.942 0.002 7.79 5.08 10.02
5/7/2023 12:30:00 AM 12.11 53.798 0.002 7.79 4.91 10.06
5/7/2023 12:45:00 AM 12.01 53.618 0.002 7.79 5.07 10.08
5/7/2023 1:00:00 AM 11.92 53.456 0.002 7.78 5 10.1
5/7/2023 1:15:00 AM 11.83 53.294 0.002 7.78 5.18 10.11
5/7/2023 1:30:00 AM 11.74 53.132 0.002 7.78 5.42 10.14
5/7/2023 1:45:00 AM 11.64 52.952 0.002 7.78 5.4 10.15
5/7/2023 2:00:00 AM 11.55 52.79 0.002 7.77 5.37 10.18
5/7/2023 2:15:00 AM 11.47 52.646 0.002 7.77 4.79 10.2
5/7/2023 2:30:00 AM 11.39 52.502 0.002 7.77 4.61 10.22
5/7/2023 2:45:00 AM 11.33 52.394 0.002 7.77 4.96 10.24
5/7/2023 3:00:00 AM 11.27 52.286 0.002 7.77 4.96 10.27
5/7/2023 3:15:00 AM 11.22 52.196 0.002 7.77 4.9 10.28
5/7/2023 3:30:00 AM 11.16 52.088 0.002 7.77 5.18 10.29
5/7/2023 3:45:00 AM 11.11 51.998 0.002 7.77 5.15 10.31
5/7/2023 4:00:00 AM 11.06 51.908 0.002 7.77 5.53 10.32
5/7/2023 4:15:00 AM 11 51.8 0.002 7.77 5.14 10.34
5/7/2023 4:30:00 AM 10.95 51.71 0.002 7.77 4.94 10.35
5/7/2023 4:45:00 AM 10.89 51.602 0.002 7.77 5.03 10.36
5/7/2023 5:00:00 AM 10.84 51.512 0.002 7.77 4.97 10.36
5/7/2023 5:15:00 AM 10.79 51.422 0.002 7.77 5.09 10.38
5/7/2023 5:30:00 AM 10.74 51.332 0.002 7.77 5.79 10.43
5/7/2023 5:45:00 AM 10.7 51.26 0.002 7.77 4.94 10.44
5/7/2023 6:00:00 AM 10.67 51.206 0.002 7.78 4.61 10.48
5/7/2023 6:15:00 AM 10.64 51.152 0.002 7.78 4.79 10.51
5/7/2023 6:30:00 AM 10.62 51.116 0.002 7.79 4.62 10.57
5/7/2023 6:45:00 AM 10.61 51.098 0.002 7.79 4.36 10.6
5/7/2023 7:00:00 AM 10.6 51.08 0.002 7.8 4.57 10.65
5/7/2023 7:15:00 AM 10.58 51.044 0.002 7.81 4.65 10.67
5/7/2023 7:30:00 AM 10.56 51.008 0.002 7.81 4.56 10.67
5/7/2023 7:45:00 AM 10.55 50.99 0.002 7.81 4.95 10.67
5/7/2023 8:00:00 AM 10.55 50.99 0.002 7.82 4.85 10.68
5/7/2023 8:15:00 AM 10.55 50.99 0.002 7.82 4.6 10.73
5/7/2023 8:30:00 AM 10.57 51.026 0.002 7.83 4.82 10.77
5/7/2023 8:45:00 AM 10.6 51.08 0.002 7.85 5.53 10.8
5/7/2023 9:00:00 AM 10.66 51.188 0.002 7.85 4.39 10.82
5/7/2023 9:15:00 AM 10.75 51.35 0.002 7.86 4.55 10.86
5/7/2023 9:30:00 AM 10.86 51.548 0.002 7.87 4.21 10.88
5/7/2023 9:45:00 AM 10.92 51.656 0.002 7.87 3.88 10.88
5/7/2023 10:00:00 AM 10.95 51.71 0.002 7.88 3.97 10.87
5/7/2023 10:15:00 AM 10.96 51.728 0.002 7.89 4.24 10.85
5/7/2023 10:30:00 AM 10.97 51.746 0.002 7.89 4.13 10.83
5/7/2023 10:45:00 AM 11.11 51.998 0.002 7.89 4.18 10.87
5/7/2023 11:00:00 AM 11.33 52.394 0.002 7.9 4.51 10.89
5/7/2023 11:15:00 AM 11.48 52.664 0.002 7.91 6.21 10.88
5/7/2023 11:30:00 AM 11.59 52.862 0.002 7.92 4.56 10.86
5/7/2023 11:45:00 AM 11.67 53.006 0.002 7.93 4.2 10.84
5/7/2023 12:00:00 PM 11.69 53.042 0.002 7.94 4.56 10.82
5/7/2023 12:15:00 PM 11.67 53.006 0.002 7.94 4.05 10.78
5/7/2023 12:30:00 PM 11.69 53.042 0.002 7.93 4.16 10.74
5/7/2023 12:45:00 PM 11.73 53.114 0.002 7.94 4.34 10.75
5/7/2023 1:00:00 PM 11.82 53.276 0.002 7.94 4.09 10.77
5/7/2023 1:15:00 PM 11.84 53.312 0.002 7.94 4.27 10.73
5/7/2023 1:30:00 PM 11.86 53.348 0.002 7.94 4.28 10.7
5/7/2023 1:45:00 PM 11.89 53.402 0.002 7.94 4.22 10.63
5/7/2023 2:00:00 PM 11.91 53.438 0.002 7.94 4.4 10.58
5/7/2023 2:15:00 PM 11.92 53.456 0.002 7.94 5.51 10.58
5/7/2023 2:30:00 PM 11.94 53.492 0.002 7.93 3.95 10.57
5/7/2023 2:45:00 PM 11.95 53.51 0.002 7.93 4.15 10.56
5/7/2023 3:00:00 PM 11.97 53.546 0.002 7.93 4.28 10.56
5/7/2023 3:15:00 PM 12.02 53.636 0.002 7.93 4.6 10.56
5/7/2023 3:30:00 PM 12.1 53.78 0.002 7.94 4.36 10.55
5/7/2023 3:45:00 PM 12.09 53.762 0.002 7.93 4.07 10.5
5/7/2023 4:00:00 PM 12.13 53.834 0.002 7.93 4.27 10.48
5/7/2023 4:15:00 PM 12.24 54.032 0.002 7.93 4.22 10.49
5/7/2023 4:30:00 PM 12.33 54.194 0.002 7.93 4.29 10.48
5/7/2023 4:45:00 PM 12.29 54.122 0.002 7.93 4.42 10.46
5/7/2023 5:00:00 PM 12.32 54.176 0.002 7.93 5.39 10.44
5/7/2023 5:15:00 PM 12.35 54.23 0.002 7.93 4.35 10.4
5/7/2023 5:30:00 PM 12.34 54.212 0.002 7.92 5.19 10.36
5/7/2023 5:45:00 PM 12.3 54.14 0.002 7.92 4.11 10.33
5/7/2023 6:00:00 PM 12.28 54.104 0.002 7.91 4.25 10.3
5/7/2023 6:15:00 PM 12.26 54.068 0.002 7.9 5.53 10.28
5/7/2023 6:30:00 PM 12.25 54.05 0.002 7.9 4.51 10.25
5/7/2023 6:45:00 PM 12.23 54.014 0.002 7.89 5.3 10.22
5/7/2023 7:00:00 PM 12.22 53.996 0.002 7.88 4.46 10.2
5/7/2023 7:15:00 PM 12.21 53.978 0.002 7.87 4.54 10.17
5/7/2023 7:30:00 PM 12.19 53.942 0.002 7.86 5.16 10.16
5/7/2023 7:45:00 PM 12.15 53.87 0.002 7.86 4.26 10.15
5/7/2023 8:00:00 PM 12.13 53.834 0.002 7.84 4.56 10.14
5/7/2023 8:15:00 PM 12.12 53.816 0.002 7.84 4.42 10.12
5/7/2023 8:30:00 PM 12.09 53.762 0.002 7.83 6.71 10.12
5/7/2023 8:45:00 PM 12.07 53.726 0.002 7.83 5.12 10.11
5/7/2023 9:00:00 PM 12.04 53.672 0.002 7.82 4.81 10.11
5/7/2023 9:15:00 PM 12.03 53.654 0.002 7.81 4.79 10.11
5/7/2023 9:30:00 PM 12.01 53.618 0.002 7.81 4.72 10.11
5/7/2023 9:45:00 PM 11.99 53.582 0.002 7.81 4.99 10.11
5/7/2023 10:00:00 PM 11.95 53.51 0.002 7.8 4.25 10.1
5/7/2023 10:15:00 PM 11.91 53.438 0.002 7.79 4.56 10.1
5/7/2023 10:30:00 PM 11.89 53.402 0.002 7.79 4.53 10.1
5/7/2023 10:45:00 PM 11.85 53.33 0.002 7.78 4.21 10.09
5/7/2023 11:00:00 PM 11.82 53.276 0.002 7.78 4.57 10.1
5/7/2023 11:15:00 PM 11.79 53.222 0.002 7.78 5.03 10.1
5/7/2023 11:30:00 PM 11.77 53.186 0.002 7.77 4.94 10.1
5/7/2023 11:45:00 PM 11.74 53.132 0.002 7.77 5.35 10.1
5/8/2023 12:00:00 AM 11.74 53.132 0.002 7.77 4.89 10.11
5/8/2023 12:15:00 AM 11.74 53.132 0.002 7.77 5.14 10.11
5/8/2023 12:30:00 AM 11.74 53.132 0.002 7.77 4.87 10.1
5/8/2023 12:45:00 AM 11.73 53.114 0.002 7.77 4.88 10.1
5/8/2023 1:00:00 AM 11.72 53.096 0.002 7.77 5.52 10.11
5/8/2023 1:15:00 AM 11.71 53.078 0.002 7.76 6.8 10.1
5/8/2023 1:30:00 AM 11.71 53.078 0.002 7.76 6.69 10.11
5/8/2023 1:45:00 AM 11.69 53.042 0.002 7.76 5.14 10.11
5/8/2023 2:00:00 AM 11.67 53.006 0.002 7.76 5.81 10.11
5/8/2023 2:15:00 AM 11.65 52.97 0.002 7.76 5.31 10.12
5/8/2023 2:30:00 AM 11.63 52.934 0.002 7.75 5.29 10.12
5/8/2023 2:45:00 AM 11.61 52.898 0.002 7.75 5.02 10.12
5/8/2023 3:00:00 AM 11.58 52.844 0.002 7.75 5.25 10.13
5/8/2023 3:15:00 AM 11.55 52.79 0.002 7.75 4.58 10.13
5/8/2023 3:30:00 AM 11.53 52.754 0.002 7.74 4.73 10.13
5/8/2023 3:45:00 AM 11.5 52.7 0.002 7.74 4.73 10.14
5/8/2023 4:00:00 AM 11.47 52.646 0.002 7.74 4.85 10.15
5/8/2023 4:15:00 AM 11.46 52.628 0.002 7.74 4.88 10.15
5/8/2023 4:30:00 AM 11.46 52.628 0.002 7.74 5.04 10.16
5/8/2023 4:45:00 AM 11.45 52.61 0.002 7.75 5.08 10.16
5/8/2023 5:00:00 AM 11.44 52.592 0.002 7.75 4.69 10.17
5/8/2023 5:15:00 AM 11.43 52.574 0.002 7.75 4.76 10.16
5/8/2023 5:30:00 AM 11.41 52.538 0.002 7.75 4.96 10.18
5/8/2023 5:45:00 AM 11.4 52.52 0.002 7.75 4.72 10.2
5/8/2023 6:00:00 AM 11.38 52.484 0.002 7.75 4.74 10.23
5/8/2023 6:15:00 AM 11.36 52.448 0.002 7.75 4.86 10.26
5/8/2023 6:30:00 AM 11.36 52.448 0.002 7.76 4.28 10.31
5/8/2023 6:45:00 AM 11.39 52.502 0.002 7.76 4.69 10.35
5/8/2023 7:00:00 AM 11.42 52.556 0.002 7.77 4.35 10.38
5/8/2023 7:15:00 AM 11.47 52.646 0.002 7.79 5 10.43
5/8/2023 7:30:00 AM 11.51 52.718 0.002 7.8 4.57 10.42
5/8/2023 7:45:00 AM 11.56 52.808 0.002 7.82 4.9 10.46
5/8/2023 8:00:00 AM 11.66 52.988 0.002 7.83 4.81 10.51
5/8/2023 8:15:00 AM 11.77 53.186 0.002 7.85 4.41 10.52
5/8/2023 8:30:00 AM 11.82 53.276 0.002 7.85 4.4 10.51
5/8/2023 8:45:00 AM 11.83 53.294 0.002 7.86 4.73 10.53
5/8/2023 9:00:00 AM 11.83 53.294 0.002 7.86 4.46 10.53
5/8/2023 9:15:00 AM 11.9 53.42 0.002 7.88 4.84 10.55
5/8/2023 9:30:00 AM 12.08 53.744 0.002 7.88 4.29 10.56
5/8/2023 9:45:00 AM 12.2 53.96 0.002 7.89 4.26 10.58
5/8/2023 10:00:00 AM 12.2 53.96 0.002 7.9 4.51 10.57
5/8/2023 10:15:00 AM 12.28 54.104 0.002 7.92 5.57 10.59
5/8/2023 10:30:00 AM 12.75 54.95 0.002 7.92 5.74 10.62
5/8/2023 10:45:00 AM 12.95 55.31 0.002 7.94 4.19 10.59
5/8/2023 11:00:00 AM 13.03 55.454 0.002 7.94 4.7 10.58
5/8/2023 11:15:00 AM 13.48 56.264 0.002 7.95 4.21 10.57
5/8/2023 11:30:00 AM 13.5 56.3 0.002 7.97 4.42 10.52
5/8/2023 11:45:00 AM 13.59 56.462 0.002 7.97 4.47 10.49
5/8/2023 12:00:00 PM 13.82 56.876 0.002 7.99 4.24 10.48
5/8/2023 12:15:00 PM 13.94 57.092 0.002 8 4.53 10.45
5/8/2023 12:30:00 PM 14.22 57.596 0.002 8 4.5 10.45
5/8/2023 12:45:00 PM 14.26 57.668 0.002 8 4.58 10.36
5/8/2023 1:00:00 PM 14.46 58.028 0.002 8.01 5.2 10.34
5/8/2023 1:15:00 PM 14.46 58.028 0.002 8.01 3.89 10.3
5/8/2023 1:30:00 PM 14.46 58.028 0.002 8.02 4.28 10.29
5/8/2023 1:45:00 PM 14.5 58.1 0.003 8.01 4.42 10.27
5/8/2023 2:00:00 PM 14.51 58.118 0.002 8.02 4.18 10.26
5/8/2023 2:15:00 PM 14.7 58.46 0.002 8.02 3.84 10.26
5/8/2023 2:30:00 PM 14.86 58.748 0.002 8.03 4.05 10.25
5/8/2023 2:45:00 PM 14.87 58.766 0.003 8.03 4.27 10.2
5/8/2023 3:00:00 PM 15.01 59.018 0.002 8.03 4.21 10.2
5/8/2023 3:15:00 PM 15.22 59.396 0.002 8.04 5.59 10.16
5/8/2023 3:30:00 PM 15.42 59.756 0.003 8.04 4.33 10.12
5/8/2023 3:45:00 PM 15.57 60.026 0.003 8.04 4.3 10.08
5/8/2023 4:00:00 PM 15.65 60.17 0.003 8.04 3.8 10.03
5/8/2023 4:15:00 PM 15.65 60.17 0.003 8.04 4.25 9.99
5/8/2023 4:30:00 PM 15.56 60.008 0.003 8.04 4.37 9.97
5/8/2023 4:45:00 PM 15.5 59.9 0.003 8.04 5.4 9.94
5/8/2023 5:00:00 PM 15.41 59.738 0.003 8.04 4.24 9.92
5/8/2023 5:15:00 PM 15.32 59.576 0.003 8.03 3.81 9.88
5/8/2023 5:30:00 PM 15.24 59.432 0.003 8.03 3.95 9.86
5/8/2023 5:45:00 PM 15.19 59.342 0.003 8.02 4.79 9.83
5/8/2023 6:00:00 PM 15.15 59.27 0.003 8.02 4.49 9.79
5/8/2023 6:15:00 PM 15.11 59.198 0.003 8 4.17 9.75
5/8/2023 6:30:00 PM 15.07 59.126 0.003 7.99 4.15 9.7
5/8/2023 6:45:00 PM 15.02 59.036 0.003 7.98 4.3 9.66
5/8/2023 7:00:00 PM 14.98 58.964 0.003 7.97 4.5 9.64
5/8/2023 7:15:00 PM 14.92 58.856 0.003 7.95 4 9.6
5/8/2023 7:30:00 PM 14.85 58.73 0.003 7.94 4.07 9.57
5/8/2023 7:45:00 PM 14.77 58.586 0.003 7.92 3.96 9.55
5/8/2023 8:00:00 PM 14.7 58.46 0.003 7.92 6.87 9.54
5/8/2023 8:15:00 PM 14.62 58.316 0.002 7.9 5.7 9.53
5/8/2023 8:30:00 PM 14.54 58.172 0.002 7.89 6.69 9.5
5/8/2023 8:45:00 PM 14.47 58.046 0.002 7.89 6.57 9.51
5/8/2023 9:00:00 PM 14.43 57.974 0.002 7.87 11.34 9.47
5/8/2023 9:15:00 PM 14.36 57.848 0.002 7.87 7.66 9.49
5/8/2023 9:30:00 PM 14.29 57.722 0.002 7.86 6.73 9.49
5/8/2023 9:45:00 PM 14.25 57.65 0.002 7.86 5.85 9.5
5/8/2023 10:00:00 PM 14.21 57.578 0.002 7.85 5.93 9.49
5/8/2023 10:15:00 PM 14.16 57.488 0.002 7.85 5.98 9.51
5/8/2023 10:30:00 PM 14.1 57.38 0.002 7.85 4.35 9.52
5/8/2023 10:45:00 PM 14.06 57.308 0.002 7.85 4.5 9.53
5/8/2023 11:00:00 PM 14.01 57.218 0.002 7.84 6.07 9.55
5/8/2023 11:15:00 PM 13.97 57.146 0.002 7.84 4.76 9.54
5/8/2023 11:30:00 PM 13.92 57.056 0.002 7.84 5.04 9.56
5/8/2023 11:45:00 PM 13.87 56.966 0.002 7.84 4.23 9.57
5/9/2023 12:00:00 AM 13.81 56.858 0.002 7.83 4.59 9.57
5/9/2023 12:15:00 AM 13.76 56.768 0.002 7.83 4.82 9.59
5/9/2023 12:30:00 AM 13.7 56.66 0.002 7.82 5.53 9.59
5/9/2023 12:45:00 AM 13.65 56.57 0.002 7.81 7.78 9.57
5/9/2023 1:00:00 AM 13.59 56.462 0.002 7.81 5.96 9.6
5/9/2023 1:15:00 AM 13.54 56.372 0.002 7.82 4.65 9.62
5/9/2023 1:30:00 AM 13.48 56.264 0.002 7.81 4.94 9.66
5/9/2023 1:45:00 AM 13.42 56.156 0.002 7.81 5.23 9.65
5/9/2023 2:00:00 AM 13.37 56.066 0.002 7.8 6.17 9.66
5/9/2023 2:15:00 AM 13.31 55.958 0.002 7.79 26.92 9.62
5/9/2023 2:30:00 AM 13.25 55.85 0.002 7.79 5.56 9.7
5/9/2023 2:45:00 AM 13.2 55.76 0.002 7.8 5.23 9.71
5/9/2023 3:00:00 AM 13.13 55.634 0.002 7.8 4.77 9.73
5/9/2023 3:15:00 AM 13.07 55.526 0.002 7.8 4.82 9.75
5/9/2023 3:30:00 AM 13.01 55.418 0.002 7.8 4.74 9.75
5/9/2023 3:45:00 AM 12.96 55.328 0.002 7.8 5.05 9.76
5/9/2023 4:00:00 AM 12.91 55.238 0.002 7.79 5.24 9.77
5/9/2023 4:15:00 AM 12.87 55.166 0.002 7.8 4.66 9.81
5/9/2023 4:30:00 AM 12.82 55.076 0.002 7.8 5.78 9.81
5/9/2023 4:45:00 AM 12.78 55.004 0.002 7.8 4.91 9.83
5/9/2023 5:00:00 AM 12.74 54.932 0.002 7.8 4.76 9.82
5/9/2023 5:15:00 AM 12.7 54.86 0.002 7.8 5.05 9.84
5/9/2023 5:30:00 AM 12.67 54.806 0.002 7.8 4.73 9.85
5/9/2023 5:45:00 AM 12.65 54.77 0.002 7.81 4.5 9.9
5/9/2023 6:00:00 AM 12.62 54.716 0.002 7.81 4.16 9.89
5/9/2023 6:15:00 AM 12.6 54.68 0.002 7.82 4.81 9.95
5/9/2023 6:30:00 AM 12.58 54.644 0.002 7.82 4.33 9.97
5/9/2023 6:45:00 AM 12.57 54.626 0.002 7.82 4.42 9.99
5/9/2023 7:00:00 AM 12.56 54.608 0.002 7.83 4.29 10.03
5/9/2023 7:15:00 AM 12.57 54.626 0.002 7.83 4.3 10.08
5/9/2023 7:30:00 AM 12.59 54.662 0.002 7.84 4.19 10.14
5/9/2023 7:45:00 AM 12.63 54.734 0.002 7.86 4.39 10.17
5/9/2023 8:00:00 AM 12.66 54.788 0.002 7.87 4.6 10.23
5/9/2023 8:15:00 AM 12.7 54.86 0.002 7.88 4.46 10.29
5/9/2023 8:30:00 AM 12.76 54.968 0.002 7.9 4.21 10.32
5/9/2023 8:45:00 AM 12.8 55.04 0.002 7.9 4.56 10.34
5/9/2023 9:00:00 AM 12.82 55.076 0.002 7.92 4.26 10.35
5/9/2023 9:15:00 AM 12.95 55.31 0.002 7.92 4.08 10.38
5/9/2023 9:30:00 AM 13.04 55.472 0.002 7.94 4.24 10.4
5/9/2023 9:45:00 AM 13.15 55.67 0.002 7.95 6.01 10.39
5/9/2023 10:00:00 AM 13.31 55.958 0.002 7.94 5.21 10.39
5/9/2023 10:15:00 AM 13.57 56.426 0.002 7.95 4.04 10.37
5/9/2023 10:30:00 AM 13.82 56.876 0.002 7.94 3.99 10.33
5/9/2023 10:45:00 AM 14.08 57.344 0.002 7.97 3.88 10.35
5/9/2023 11:00:00 AM 14.28 57.704 0.002 7.97 3.88 10.32
5/9/2023 11:15:00 AM 14.46 58.028 0.002 7.99 3.9 10.32
5/9/2023 11:30:00 AM 14.72 58.496 0.002 8 3.89 10.32
5/9/2023 11:45:00 AM 14.96 58.928 0.003 8 5.71 10.28
5/9/2023 12:00:00 PM 15.21 59.378 0.002 8.02 5.32 10.27
5/9/2023 12:15:00 PM 15.49 59.882 0.002 8.03 3.8 10.23
5/9/2023 12:30:00 PM 15.72 60.296 0.002 8.03 5.38 10.2
5/9/2023 12:45:00 PM 15.98 60.764 0.003 8.05 3.92 10.18
5/9/2023 1:00:00 PM 16.24 61.232 0.003 8.05 5.38 10.12
5/9/2023 1:15:00 PM 16.45 61.61 0.003 8.06 3.62 10.08
5/9/2023 1:30:00 PM 16.7 62.06 0.003 8.07 5.69 10.01
5/9/2023 1:45:00 PM 16.91 62.438 0.003 8.07 3.58 9.96
5/9/2023 2:00:00 PM 17.09 62.762 0.003 8.07 3.72 9.94
5/9/2023 2:15:00 PM 17.27 63.086 0.003 8.08 3.77 9.9
5/9/2023 2:30:00 PM 17.39 63.302 0.003 8.09 4.01 9.82
5/9/2023 2:45:00 PM 17.58 63.644 0.003 8.09 3.71 9.79
5/9/2023 3:00:00 PM 17.61 63.698 0.003 8.08 3.75 9.76
5/9/2023 3:15:00 PM 17.72 63.896 0.003 8.07 3.71 9.7
5/9/2023 3:30:00 PM 17.79 64.022 0.003 8.08 3.74 9.64
5/9/2023 3:45:00 PM 17.77 63.986 0.003 8.09 5.6 9.65
5/9/2023 4:00:00 PM 17.7 63.86 0.003 8.07 4.02 9.6
5/9/2023 4:15:00 PM 17.65 63.77 0.003 8.08 4.26 9.58
5/9/2023 4:30:00 PM 17.61 63.698 0.003 8.09 4.6 9.56
5/9/2023 4:45:00 PM 17.54 63.572 0.003 8.07 5.3 9.52
5/9/2023 5:00:00 PM 17.42 63.356 0.003 8.07 4.06 9.44
5/9/2023 5:15:00 PM 17.33 63.194 0.003 8.07 4.1 9.44
5/9/2023 5:30:00 PM 17.2 62.96 0.003 8.06 3.76 9.4
5/9/2023 5:45:00 PM 17.08 62.744 0.003 8.05 4.08 9.37
5/9/2023 6:00:00 PM 16.95 62.51 0.003 8.04 4.08 9.35
5/9/2023 6:15:00 PM 16.84 62.312 0.003 8.03 4.45 9.34
5/9/2023 6:30:00 PM 16.73 62.114 0.003 8.02 4.91 9.29
5/9/2023 6:45:00 PM 16.57 61.826 0.003 8.01 3.82 9.26
5/9/2023 7:00:00 PM 16.42 61.556 0.003 8 4.51 9.26
5/9/2023 7:15:00 PM 16.32 61.376 0.003 7.99 4.25 9.22
5/9/2023 7:30:00 PM 16.23 61.214 0.003 7.98 4.17 9.22
5/9/2023 7:45:00 PM 16.12 61.016 0.003 7.96 4.42 9.2
5/9/2023 8:00:00 PM 15.99 60.782 0.003 7.95 6.13 9.2
5/9/2023 8:15:00 PM 15.86 60.548 0.003 7.94 5.35 9.21
5/9/2023 8:30:00 PM 15.72 60.296 0.002 7.93 4.7 9.21
5/9/2023 8:45:00 PM 15.61 60.098 0.003 7.92 9.67 9.21
5/9/2023 9:00:00 PM 15.49 59.882 0.003 7.91 6.84 9.23
5/9/2023 9:15:00 PM 15.38 59.684 0.002 7.89 4.82 9.26
5/9/2023 9:30:00 PM 15.26 59.468 0.002 7.89 4.99 9.28
5/9/2023 9:45:00 PM 15.15 59.27 0.002 7.88 6.25 9.3
5/9/2023 10:00:00 PM 15.03 59.054 0.002 7.87 5.61 9.3
5/9/2023 10:15:00 PM 14.92 58.856 0.002 7.87 4.96 9.33
5/9/2023 10:30:00 PM 14.81 58.658 0.002 7.87 4.53 9.33
5/9/2023 10:45:00 PM 14.71 58.478 0.002 7.86 5.04 9.36
5/9/2023 11:00:00 PM 14.6 58.28 0.002 7.85 7.63 9.36
5/9/2023 11:15:00 PM 14.52 58.136 0.002 7.83 17.84 9.3
5/9/2023 11:30:00 PM 14.43 57.974 0.002 7.84 4.88 9.4
5/9/2023 11:45:00 PM 14.33 57.794 0.002 7.85 5.81 9.41
5/10/2023 12:00:00 AM 14.23 57.614 0.002 7.84 6.65 9.42
5/10/2023 12:15:00 AM 14.14 57.452 0.002 7.82 21.38 9.31
5/10/2023 12:30:00 AM 14.04 57.272 0.002 7.84 4.84 9.46
5/10/2023 12:45:00 AM 13.94 57.092 0.002 7.83 5.26 9.51
5/10/2023 1:00:00 AM 13.84 56.912 0.002 7.82 15.39 9.42
5/10/2023 1:15:00 AM 13.73 56.714 0.002 7.82 7.4 9.51
5/10/2023 1:30:00 AM 13.63 56.534 0.002 7.83 5.77 9.56
5/10/2023 1:45:00 AM 13.51 56.318 0.002 7.84 5.54 9.6
5/10/2023 2:00:00 AM 13.38 56.084 0.002 7.84 4.07 9.63
5/10/2023 2:15:00 AM 13.28 55.904 0.002 7.84 5.78 9.67
5/10/2023 2:30:00 AM 13.16 55.688 0.002 7.84 5.45 9.7
5/10/2023 2:45:00 AM 13.05 55.49 0.002 7.84 4.48 9.73
5/10/2023 3:00:00 AM 12.92 55.256 0.002 7.84 4.21 9.76
5/10/2023 3:15:00 AM 12.8 55.04 0.002 7.83 4.4 9.79
5/10/2023 3:30:00 AM 12.68 54.824 0.002 7.83 5.79 9.82
5/10/2023 3:45:00 AM 12.57 54.626 0.002 7.83 4.12 9.86
5/10/2023 4:00:00 AM 12.44 54.392 0.002 7.83 4.23 9.89
5/10/2023 4:15:00 AM 12.31 54.158 0.002 7.83 4.77 9.91
5/10/2023 4:30:00 AM 12.2 53.96 0.002 7.83 5.29 9.94
5/10/2023 4:45:00 AM 12.1 53.78 0.002 7.83 4.91 9.98
5/10/2023 5:00:00 AM 11.98 53.564 0.002 7.82 5.74 10
5/10/2023 5:15:00 AM 11.89 53.402 0.002 7.83 4.43 10.03
5/10/2023 5:30:00 AM 11.8 53.24 0.002 7.83 5.8 10.07
5/10/2023 5:45:00 AM 11.72 53.096 0.002 7.83 10.73 10.11
5/10/2023 6:00:00 AM 11.64 52.952 0.002 7.84 5.07 10.15
5/10/2023 6:15:00 AM 11.58 52.844 0.002 7.84 5.69 10.2
5/10/2023 6:30:00 AM 11.52 52.736 0.002 7.85 6.29 10.27
5/10/2023 6:45:00 AM 11.51 52.718 0.002 7.86 4.3 10.35
5/10/2023 7:00:00 AM 11.5 52.7 0.002 7.88 4.08 10.43
5/10/2023 7:15:00 AM 11.52 52.736 0.002 7.9 4.45 10.48
5/10/2023 7:30:00 AM 11.54 52.772 0.002 7.91 5.7 10.52
5/10/2023 7:45:00 AM 11.56 52.808 0.002 7.92 4.27 10.57
5/10/2023 8:00:00 AM 11.59 52.862 0.002 7.93 5.61 10.58
5/10/2023 8:15:00 AM 11.64 52.952 0.002 7.93 4.15 10.61
5/10/2023 8:30:00 AM 11.71 53.078 0.002 7.94 4.97 10.64
5/10/2023 8:45:00 AM 11.79 53.222 0.002 7.94 4.22 10.65
5/10/2023 9:00:00 AM 11.9 53.42 0.002 7.93 4.02 10.62
5/10/2023 9:15:00 AM 12.06 53.708 0.002 7.96 4.2 10.65
5/10/2023 9:30:00 AM 12.23 54.014 0.002 7.96 4.03 10.63
5/10/2023 9:45:00 AM 12.42 54.356 0.002 7.97 5.13 10.66
5/10/2023 10:00:00 AM 12.65 54.77 0.002 7.98 3.85 10.67
5/10/2023 10:15:00 AM 12.85 55.13 0.002 7.99 4.57 10.65
5/10/2023 10:30:00 AM 13.09 55.562 0.002 8 7.31 10.64
5/10/2023 10:45:00 AM 13.32 55.976 0.002 8.01 3.94 10.64
5/10/2023 11:00:00 AM 13.56 56.408 0.002 8.02 4.02 10.61
5/10/2023 11:15:00 AM 13.82 56.876 0.002 8.02 5.83 10.59
5/10/2023 11:30:00 AM 14.08 57.344 0.002 8.04 3.72 10.59
5/10/2023 11:45:00 AM 14.34 57.812 0.002 8.06 3.93 10.56
5/10/2023 12:00:00 PM 14.63 58.334 0.002 8.06 4.65 10.52
5/10/2023 12:15:00 PM 14.91 58.838 0.002 8.07 4.55 10.47
5/10/2023 12:30:00 PM 15.15 59.27 0.002 8.08 5.21 10.42
5/10/2023 12:45:00 PM 15.45 59.81 0.002 8.08 4.55 10.38
5/10/2023 1:00:00 PM 15.7 60.26 0.002 8.08 4.23 10.34
5/10/2023 1:15:00 PM 15.91 60.638 0.002 8.09 3.74 10.29
5/10/2023 1:30:00 PM 16.19 61.142 0.002 8.09 4.22 10.24
5/10/2023 1:45:00 PM 16.39 61.502 0.002 8.09 4.07 10.19
5/10/2023 2:00:00 PM 16.61 61.898 0.002 8.1 4.35 10.14
5/10/2023 2:15:00 PM 16.8 62.24 0.003 8.1 4.4 10.08
5/10/2023 2:30:00 PM 16.95 62.51 0.002 8.1 4.93 10.03
5/10/2023 2:45:00 PM 17.13 62.834 0.003 8.11 6.17 9.99
5/10/2023 3:00:00 PM 17.25 63.05 0.002 8.11 4.44 9.92
5/10/2023 3:15:00 PM 17.36 63.248 0.003 8.11 5.22 9.88
5/10/2023 3:30:00 PM 17.41 63.338 0.003 8.12 3.6 9.85
5/10/2023 3:45:00 PM 17.4 63.32 0.003 8.1 5.23 9.77
5/10/2023 4:00:00 PM 17.28 63.104 0.003 8.11 3.75 9.74
5/10/2023 4:15:00 PM 17.22 62.996 0.003 8.1 4.92 9.7
5/10/2023 4:30:00 PM 17.28 63.104 0.003 8.09 4.23 9.68
5/10/2023 4:45:00 PM 17.18 62.924 0.003 8.09 5.4 9.65
5/10/2023 5:00:00 PM 17.08 62.744 0.003 8.09 5.33 9.63
5/10/2023 5:15:00 PM 16.97 62.546 0.003 8.09 4.52 9.6
5/10/2023 5:30:00 PM 16.89 62.402 0.003 8.09 4.19 9.56
5/10/2023 5:45:00 PM 16.8 62.24 0.003 8.08 3.9 9.5
5/10/2023 6:00:00 PM 16.71 62.078 0.003 8.07 4.53 9.46
5/10/2023 6:15:00 PM 16.62 61.916 0.003 8.06 5.97 9.44
5/10/2023 6:30:00 PM 16.53 61.754 0.003 8.05 3.73 9.41
5/10/2023 6:45:00 PM 16.44 61.592 0.002 8.03 4.27 9.36
5/10/2023 7:00:00 PM 16.33 61.394 0.002 8.02 3.61 9.32
5/10/2023 7:15:00 PM 16.23 61.214 0.002 8 3.76 9.3
5/10/2023 7:30:00 PM 16.1 60.98 0.002 7.99 3.89 9.27
5/10/2023 7:45:00 PM 15.98 60.764 0.002 7.97 3.89 9.25
5/10/2023 8:00:00 PM 15.87 60.566 0.002 7.96 3.94 9.25
5/10/2023 8:15:00 PM 15.73 60.314 0.002 7.95 4.33 9.25
5/10/2023 8:30:00 PM 15.62 60.116 0.002 7.94 3.94 9.27
5/10/2023 8:45:00 PM 15.48 59.864 0.002 7.94 5.09 9.27
5/10/2023 9:00:00 PM 15.37 59.666 0.002 7.93 5.37 9.3
5/10/2023 9:15:00 PM 15.24 59.432 0.002 7.93 4.12 9.3
5/10/2023 9:30:00 PM 15.12 59.216 0.002 7.92 4.02 9.33
5/10/2023 9:45:00 PM 15 59 0.002 7.91 4.23 9.33
5/10/2023 10:00:00 PM 14.88 58.784 0.002 7.9 6.21 9.35
5/10/2023 10:15:00 PM 14.78 58.604 0.002 7.89 4 9.36
5/10/2023 10:30:00 PM 14.68 58.424 0.002 7.89 6.11 9.4
5/10/2023 10:45:00 PM 14.56 58.208 0.002 7.88 5.67 9.41
5/10/2023 11:00:00 PM 14.46 58.028 0.002 7.88 4.26 9.42
5/10/2023 11:15:00 PM 14.38 57.884 0.002 7.88 4.59 9.45
5/10/2023 11:30:00 PM 14.26 57.668 0.002 7.87 5.95 9.45
5/10/2023 11:45:00 PM 14.17 57.506 0.002 7.87 4.23 9.47
5/11/2023 12:00:00 AM 14.08 57.344 0.002 7.86 4.36 9.49
5/11/2023 12:15:00 AM 14 57.2 0.002 7.86 4.23 9.52
5/11/2023 12:30:00 AM 13.91 57.038 0.002 7.86 5.76 9.54
5/11/2023 12:45:00 AM 13.81 56.858 0.002 7.86 4.08 9.55
5/11/2023 1:00:00 AM 13.72 56.696 0.002 7.86 4.43 9.57
5/11/2023 1:15:00 AM 13.64 56.552 0.002 7.86 4.6 9.59
5/11/2023 1:30:00 AM 13.54 56.372 0.002 7.84 9.29 9.58
5/11/2023 1:45:00 AM 13.46 56.228 0.002 7.85 4.48 9.63
5/11/2023 2:00:00 AM 13.34 56.012 0.002 7.84 4.09 9.64
5/11/2023 2:15:00 AM 13.26 55.868 0.002 7.85 5.83 9.68
5/11/2023 2:30:00 AM 13.15 55.67 0.002 7.85 4.87 9.7
5/11/2023 2:45:00 AM 13.05 55.49 0.002 7.85 4.1 9.73
5/11/2023 3:00:00 AM 12.95 55.31 0.002 7.85 4.17 9.75
5/11/2023 3:15:00 AM 12.84 55.112 0.002 7.84 3.96 9.78
5/11/2023 3:30:00 AM 12.73 54.914 0.002 7.85 4.3 9.81
5/11/2023 3:45:00 AM 12.62 54.716 0.002 7.84 4.09 9.83
5/11/2023 4:00:00 AM 12.51 54.518 0.002 7.84 5.87 9.87
5/11/2023 4:15:00 AM 12.39 54.302 0.002 7.84 4.51 9.89
5/11/2023 4:30:00 AM 12.28 54.104 0.002 7.84 4.12 9.92
5/11/2023 4:45:00 AM 12.17 53.906 0.002 7.84 5.28 9.94
5/11/2023 5:00:00 AM 12.06 53.708 0.002 7.84 4.82 9.98
5/11/2023 5:15:00 AM 11.95 53.51 0.002 7.84 5.95 10
5/11/2023 5:30:00 AM 11.84 53.312 0.002 7.84 4.61 10.03
5/11/2023 5:45:00 AM 11.78 53.204 0.002 7.84 4.31 10.1
5/11/2023 6:00:00 AM 11.69 53.042 0.002 7.84 4.12 10.14
5/11/2023 6:15:00 AM 11.64 52.952 0.002 7.85 4.06 10.21
5/11/2023 6:30:00 AM 11.6 52.88 0.002 7.86 4.41 10.29
5/11/2023 6:45:00 AM 11.61 52.898 0.002 7.87 5.85 10.34
5/11/2023 7:00:00 AM 11.61 52.898 0.002 7.89 4.27 10.37
5/11/2023 7:15:00 AM 11.63 52.934 0.002 7.89 4.1 10.43
5/11/2023 7:30:00 AM 11.65 52.97 0.002 7.91 4.45 10.48
5/11/2023 7:45:00 AM 11.7 53.06 0.002 7.92 3.96 10.52
5/11/2023 8:00:00 AM 11.75 53.15 0.002 7.92 5.02 10.54
5/11/2023 8:15:00 AM 11.83 53.294 0.002 7.93 4.52 10.54
5/11/2023 8:30:00 AM 11.92 53.456 0.002 7.94 3.91 10.58
5/11/2023 8:45:00 AM 12.03 53.654 0.002 7.95 4.02 10.56
5/11/2023 9:00:00 AM 12.19 53.942 0.002 7.95 3.98 10.52
5/11/2023 9:15:00 AM 12.38 54.284 0.002 7.95 5.7 10.54
5/11/2023 9:30:00 AM 12.59 54.662 0.002 7.95 4.01 10.5
5/11/2023 9:45:00 AM 12.85 55.13 0.002 7.97 4.29 10.57
5/11/2023 10:00:00 AM 13.11 55.598 0.002 7.97 3.93 10.53
5/11/2023 10:15:00 AM 13.4 56.12 0.002 7.99 3.69 10.55
5/11/2023 10:30:00 AM 13.59 56.462 0.002 7.99 3.8 10.52
5/11/2023 10:45:00 AM 13.9 57.02 0.002 7.98 3.72 10.51
5/11/2023 11:00:00 AM 14.17 57.506 0.002 8.02 4.3 10.5
5/11/2023 11:15:00 AM 14.43 57.974 0.002 8.02 3.91 10.46
5/11/2023 11:30:00 AM 14.7 58.46 0.002 8.04 4.59 10.43
5/11/2023 11:45:00 AM 14.95 58.91 0.002 8.05 4.74 10.43
5/11/2023 12:00:00 PM 15.25 59.45 0.002 8.05 3.94 10.4
5/11/2023 12:15:00 PM 15.54 59.972 0.003 8.05 4.72 10.33
5/11/2023 12:30:00 PM 15.93 60.674 0.002 8.07 3.93 10.32
5/11/2023 12:45:00 PM 16.15 61.07 0.002 8.09 4.29 10.25
5/11/2023 1:00:00 PM 16.37 61.466 0.003 8.1 4.3 10.22
5/11/2023 1:15:00 PM 16.67 62.006 0.003 8.11 3.53 10.19
5/11/2023 1:30:00 PM 16.85 62.33 0.003 8.11 3.76 10.13
5/11/2023 1:45:00 PM 17.15 62.87 0.003 8.11 4.81 10.08
5/11/2023 2:00:00 PM 17.34 63.212 0.003 8.12 5.32 10
5/11/2023 2:15:00 PM 17.59 63.662 0.003 8.12 3.41 9.97
5/11/2023 2:30:00 PM 17.76 63.968 0.003 8.12 3.72 9.91
5/11/2023 2:45:00 PM 17.99 64.382 0.003 8.12 3.71 9.85
5/11/2023 3:00:00 PM 18.12 64.616 0.003 8.13 3.66 9.8
5/11/2023 3:15:00 PM 18.21 64.778 0.003 8.13 3.66 9.73
5/11/2023 3:30:00 PM 18.33 64.994 0.003 8.12 4.5 9.69
5/11/2023 3:45:00 PM 18.39 65.102 0.003 8.13 3.87 9.63
5/11/2023 4:00:00 PM 18.43 65.174 0.003 8.11 4.67 9.56
5/11/2023 4:15:00 PM 18.39 65.102 0.003 8.11 3.79 9.52
5/11/2023 4:30:00 PM 18.35 65.03 0.003 8.12 5.6 9.5
5/11/2023 4:45:00 PM 18.28 64.904 0.003 8.11 5.3 9.46
5/11/2023 5:00:00 PM 18.18 64.724 0.003 8.11 3.75 9.42
5/11/2023 5:15:00 PM 18.09 64.562 0.003 8.1 5.24 9.33
5/11/2023 5:30:00 PM 17.98 64.364 0.003 8.1 4.07 9.32
5/11/2023 5:45:00 PM 17.8 64.04 0.003 8.08 3.78 9.25
5/11/2023 6:00:00 PM 17.65 63.77 0.003 8.05 3.83 9.17
5/11/2023 6:15:00 PM 17.5 63.5 0.003 8.05 4.38 9.15
5/11/2023 6:30:00 PM 17.41 63.338 0.003 8.03 5.29 9.13
5/11/2023 6:45:00 PM 17.31 63.158 0.003 8.02 4.44 9.08
5/11/2023 7:00:00 PM 17.23 63.014 0.003 8 4.07 9.05
5/11/2023 7:15:00 PM 17.15 62.87 0.003 7.99 4.31 9.03
5/11/2023 7:30:00 PM 17.08 62.744 0.003 7.98 3.75 9.02
5/11/2023 7:45:00 PM 16.98 62.564 0.003 7.96 4.23 8.98
5/11/2023 8:00:00 PM 16.89 62.402 0.003 7.95 4.04 8.98
5/11/2023 8:15:00 PM 16.8 62.24 0.002 7.94 5.82 8.98
5/11/2023 8:30:00 PM 16.68 62.024 0.002 7.93 5.69 8.97
5/11/2023 8:45:00 PM 16.6 61.88 0.002 7.93 5.59 8.98
5/11/2023 9:00:00 PM 16.5 61.7 0.002 7.93 5.2 9
5/11/2023 9:15:00 PM 16.38 61.484 0.002 7.92 3.89 8.99
5/11/2023 9:30:00 PM 16.26 61.268 0.002 7.91 4.35 9.03
5/11/2023 9:45:00 PM 16.16 61.088 0.002 7.91 5.98 9.04
5/11/2023 10:00:00 PM 16.04 60.872 0.002 7.9 4.13 9.06
5/11/2023 10:15:00 PM 15.92 60.656 0.002 7.9 5.83 9.07
5/11/2023 10:30:00 PM 15.8 60.44 0.002 7.89 4.06 9.11
5/11/2023 10:45:00 PM 15.71 60.278 0.002 7.89 5.78 9.14
5/11/2023 11:00:00 PM 15.6 60.08 0.002 7.88 4.08 9.14
5/11/2023 11:15:00 PM 15.48 59.864 0.002 7.88 5.45 9.15
5/11/2023 11:30:00 PM 15.38 59.684 0.002 7.87 5.93 9.18
5/11/2023 11:45:00 PM 15.28 59.504 0.002 7.82 25.94 8.99
5/12/2023 12:00:00 AM 15.19 59.342 0.002 7.84 4.79 9.18
5/12/2023 12:15:00 AM 15.11 59.198 0.002 7.86 4.09 9.23
5/12/2023 12:30:00 AM 14.99 58.982 0.002 7.85 4.13 9.19
5/12/2023 12:45:00 AM 14.93 58.874 0.002 7.85 4.08 9.24
5/12/2023 1:00:00 AM 14.84 58.712 0.002 7.85 4.18 9.26
5/12/2023 1:15:00 AM 14.77 58.586 0.002 7.86 4.04 9.29
5/12/2023 1:30:00 AM 14.68 58.424 0.002 7.85 4.12 9.31
5/12/2023 1:45:00 AM 14.61 58.298 0.002 7.85 4.49 9.34
5/12/2023 2:00:00 AM 14.51 58.118 0.002 7.85 4.18 9.32
5/12/2023 2:15:00 AM 14.45 58.01 0.002 7.85 4.28 9.35
5/12/2023 2:30:00 AM 14.36 57.848 0.002 7.85 4.48 9.38
5/12/2023 2:45:00 AM 14.28 57.704 0.002 7.85 4.41 9.4
5/12/2023 3:00:00 AM 14.21 57.578 0.002 7.85 4.16 9.42
5/12/2023 3:15:00 AM 14.09 57.362 0.002 7.84 4.26 9.43
5/12/2023 3:30:00 AM 14.01 57.218 0.002 7.85 4.29 9.46
5/12/2023 3:45:00 AM 13.91 57.038 0.002 7.85 4.11 9.48
5/12/2023 4:00:00 AM 13.84 56.912 0.002 7.84 4.86 9.51
5/12/2023 4:15:00 AM 13.73 56.714 0.002 7.84 4.04 9.53
5/12/2023 4:30:00 AM 13.64 56.552 0.002 7.84 5.82 9.55
5/12/2023 4:45:00 AM 13.52 56.336 0.002 7.84 6.17 9.55
5/12/2023 5:00:00 AM 13.44 56.192 0.002 7.84 6.26 9.55
5/12/2023 5:15:00 AM 13.33 55.994 0.002 7.83 4.71 9.62
5/12/2023 5:30:00 AM 13.26 55.868 0.002 7.84 4.78 9.63
5/12/2023 5:45:00 AM 13.18 55.724 0.002 7.84 5.34 9.69
5/12/2023 6:00:00 AM 13.11 55.598 0.002 7.84 4.65 9.73
5/12/2023 6:15:00 AM 13.08 55.544 0.002 7.86 4.28 9.83
5/12/2023 6:30:00 AM 13.04 55.472 0.002 7.86 3.9 9.89
5/12/2023 6:45:00 AM 13.03 55.454 0.002 7.87 5.23 9.94
5/12/2023 7:00:00 AM 13.04 55.472 0.002 7.87 6.29 9.97
5/12/2023 7:15:00 AM 13.03 55.454 0.002 7.89 5.48 10.05
5/12/2023 7:30:00 AM 13.08 55.544 0.002 7.9 5.64 10.08
5/12/2023 7:45:00 AM 13.1 55.58 0.002 7.91 4.12 10.12
5/12/2023 8:00:00 AM 13.17 55.706 0.002 7.92 3.96 10.12
5/12/2023 8:15:00 AM 13.26 55.868 0.002 7.93 5.94 10.12
5/12/2023 8:30:00 AM 13.36 56.048 0.002 7.93 4.3 10.14
5/12/2023 8:45:00 AM 13.48 56.264 0.002 7.93 4.07 10.14
5/12/2023 9:00:00 AM 13.63 56.534 0.002 7.93 5.66 10.13
5/12/2023 9:15:00 AM 13.8 56.84 0.002 7.91 6.03 10.13
5/12/2023 9:30:00 AM 14.03 57.254 0.002 7.91 3.96 10.14
5/12/2023 9:45:00 AM 14.28 57.704 0.002 7.93 4.17 10.15
5/12/2023 10:00:00 AM 14.5 58.1 0.002 7.95 4.11 10.05
5/12/2023 10:15:00 AM 14.82 58.676 0.002 7.98 5.59 10.14
5/12/2023 10:30:00 AM 15.16 59.288 0.002 8 5.51 10.11
5/12/2023 10:45:00 AM 15.48 59.864 0.002 8 5.25 10.1
5/12/2023 11:00:00 AM 15.74 60.332 0.002 7.99 4.43 10.05
5/12/2023 11:15:00 AM 16.06 60.908 0.003 8.03 4.8 10.1
5/12/2023 11:30:00 AM 16.35 61.43 0.002 8.03 4.18 10.03
5/12/2023 11:45:00 AM 16.56 61.808 0.003 8.06 5.98 10.03
5/12/2023 12:00:00 PM 16.96 62.528 0.003 8.07 5.28 10.06
5/12/2023 12:15:00 PM 17.14 62.852 0.002 8.08 5.65 10.03
5/12/2023 12:30:00 PM 17.39 63.302 0.003 8.09 4.29 10.01
5/12/2023 12:45:00 PM 17.6 63.68 0.003 8.11 3.7 9.97
5/12/2023 1:00:00 PM 17.86 64.148 0.003 8.12 5.61 9.94
5/12/2023 1:15:00 PM 18.12 64.616 0.003 8.1 3.92 9.88
5/12/2023 1:30:00 PM 18.26 64.868 0.003 8.13 3.43 9.84
5/12/2023 1:45:00 PM 18.43 65.174 0.003 8.13 3.93 9.8
5/12/2023 2:00:00 PM 18.6 65.48 0.003 8.14 5.23 9.76
5/12/2023 2:15:00 PM 18.68 65.624 0.003 8.14 4.43 9.72
5/12/2023 2:30:00 PM 18.72 65.696 0.003 8.15 4.39 9.66
5/12/2023 2:45:00 PM 18.7 65.66 0.003 8.16 3.61 9.6
5/12/2023 3:00:00 PM 18.71 65.67799 0.003 8.16 3.48 9.53
5/12/2023 3:15:00 PM 18.79 65.82201 0.003 8.16 5.09 9.5
5/12/2023 3:30:00 PM 19 66.2 0.003 8.16 4.24 9.49
5/12/2023 3:45:00 PM 19.15 66.47 0.003 8.16 7.8 9.46
5/12/2023 4:00:00 PM 19.13 66.434 0.003 8.16 5.02 9.4
5/12/2023 4:15:00 PM 19.09 66.362 0.003 8.15 3.7 9.33
5/12/2023 4:30:00 PM 19.08 66.344 0.003 8.15 4.62 9.3
5/12/2023 4:45:00 PM 19.03 66.254 0.003 8.14 3.72 9.25
5/12/2023 5:00:00 PM 18.94 66.092 0.003 8.12 3.73 9.21
5/12/2023 5:15:00 PM 18.86 65.948 0.003 8.11 4.82 9.12
5/12/2023 5:30:00 PM 18.77 65.786 0.003 8.1 4.41 9.07
5/12/2023 5:45:00 PM 18.67 65.606 0.003 8.1 5.45 9.08
5/12/2023 6:00:00 PM 18.58 65.444 0.003 8.09 5.47 9.03
5/12/2023 6:15:00 PM 18.47 65.246 0.003 8.06 5.95 8.86
5/12/2023 6:30:00 PM 18.35 65.03 0.003 8.04 5.1 8.9
5/12/2023 6:45:00 PM 18.26 64.868 0.003 8.04 5.4 8.86
5/12/2023 7:00:00 PM 18.19 64.742 0.003 8.02 3.88 8.82
5/12/2023 7:15:00 PM 18.13 64.634 0.003 8 4.64 8.76
5/12/2023 7:30:00 PM 18.06 64.508 0.003 7.99 3.9 8.76
5/12/2023 7:45:00 PM 18 64.4 0.003 7.97 3.99 8.73
5/12/2023 8:00:00 PM 17.93 64.274 0.003 7.96 4.05 8.72
5/12/2023 8:15:00 PM 17.85 64.13 0.003 7.94 3.99 8.71
5/12/2023 8:30:00 PM 17.77 63.986 0.003 7.93 5.89 8.69
5/12/2023 8:45:00 PM 17.69 63.842 0.003 7.93 4.69 8.7
5/12/2023 9:00:00 PM 17.59 63.662 0.003 7.92 4.06 8.7
5/12/2023 9:15:00 PM 17.5 63.5 0.003 7.91 5.63 8.72
5/12/2023 9:30:00 PM 17.42 63.356 0.003 7.91 5.87 8.73
5/12/2023 9:45:00 PM 17.35 63.23 0.003 7.9 5.09 8.71
5/12/2023 10:00:00 PM 17.27 63.086 0.003 7.9 5.56 8.74
5/12/2023 10:15:00 PM 17.2 62.96 0.003 7.9 4.04 8.77
5/12/2023 10:30:00 PM 17.12 62.816 0.003 7.9 5.15 8.77
5/12/2023 10:45:00 PM 17.05 62.69 0.003 7.89 4.79 8.78
5/12/2023 11:00:00 PM 16.98 62.564 0.003 7.88 5.13 8.79
5/12/2023 11:15:00 PM 16.92 62.456 0.003 7.88 6.09 8.8
5/12/2023 11:30:00 PM 16.85 62.33 0.003 7.88 5.61 8.81
5/12/2023 11:45:00 PM 16.8 62.24 0.003 7.88 5.84 8.84
5/13/2023 12:00:00 AM 16.73 62.114 0.003 7.87 4.33 8.81
5/13/2023 12:15:00 AM 16.68 62.024 0.002 7.88 3.85 8.87
5/13/2023 12:30:00 AM 16.63 61.934 0.002 7.87 5.49 8.88
5/13/2023 12:45:00 AM 16.57 61.826 0.002 7.87 4.97 8.89
5/13/2023 1:00:00 AM 16.51 61.718 0.002 7.87 7.01 8.87
5/13/2023 1:15:00 AM 16.46 61.628 0.002 7.87 5.11 8.9
5/13/2023 1:30:00 AM 16.41 61.538 0.002 7.86 5.74 8.86
5/13/2023 1:45:00 AM 16.38 61.484 0.002 7.87 5 8.9
5/13/2023 2:00:00 AM 16.35 61.43 0.002 7.87 6.39 8.92
5/13/2023 2:15:00 AM 16.31 61.358 0.002 7.86 5.75 8.93
5/13/2023 2:30:00 AM 16.26 61.268 0.002 7.86 5.62 8.92
5/13/2023 2:45:00 AM 16.23 61.214 0.002 7.86 4.31 8.93
5/13/2023 3:00:00 AM 16.19 61.142 0.002 7.85 4.74 8.91
5/13/2023 3:15:00 AM 16.15 61.07 0.003 7.85 5.26 8.93
5/13/2023 3:30:00 AM 16.11 60.998 0.002 7.86 5.3 8.96
5/13/2023 3:45:00 AM 16.07 60.926 0.002 7.85 4.06 8.97
5/13/2023 4:00:00 AM 16.02 60.836 0.003 7.85 6.06 8.96
5/13/2023 4:15:00 AM 15.98 60.764 0.002 7.85 4.17 8.98
5/13/2023 4:30:00 AM 15.93 60.674 0.003 7.85 5.92 9
5/13/2023 4:45:00 AM 15.89 60.602 0.003 7.85 6.04 9.04
5/13/2023 5:00:00 AM 15.83 60.494 0.005 7.84 7.62 9.04
5/13/2023 5:15:00 AM 15.78 60.404 0.004 7.83 7.19 8.99
5/13/2023 5:30:00 AM 15.73 60.314 0.004 7.83 5.03 9.02
5/13/2023 5:45:00 AM 15.69 60.242 0.004 7.84 4.36 9.08
5/13/2023 6:00:00 AM 15.66 60.188 0.004 7.85 4.65 9.12
5/13/2023 6:15:00 AM 15.61 60.098 0.004 7.84 5.6 9.08
5/13/2023 6:30:00 AM 15.57 60.026 0.004 7.83 5.15 9.12
5/13/2023 6:45:00 AM 15.54 59.972 0.003 7.83 6.13 9.07
5/13/2023 7:00:00 AM 15.53 59.954 0.004 7.84 4.25 9.17
5/13/2023 7:15:00 AM 15.53 59.954 0.004 7.84 4.74 9.23
5/13/2023 7:30:00 AM 15.51 59.918 0.004 7.87 3.98 9.3
5/13/2023 7:45:00 AM 15.51 59.918 0.004 7.87 4.55 9.25
5/13/2023 8:00:00 AM 15.53 59.954 0.004 7.88 4.31 9.37
5/13/2023 8:15:00 AM 15.53 59.954 0.003 7.87 4.26 9.39
5/13/2023 8:30:00 AM 15.55 59.99 0.004 7.89 3.8 9.39
5/13/2023 8:45:00 AM 15.57 60.026 0.004 7.91 4.05 9.43
5/13/2023 9:00:00 AM 15.59 60.062 0.004 7.91 5.15 9.53
5/13/2023 9:15:00 AM 15.61 60.098 0.004 7.92 5.49 9.56
5/13/2023 9:30:00 AM 15.63 60.134 0.004 7.92 4.04 9.56
5/13/2023 9:45:00 AM 15.66 60.188 0.004 7.94 3.94 9.61
5/13/2023 10:00:00 AM 15.7 60.26 0.004 7.94 5.59 9.66
5/13/2023 10:15:00 AM 15.73 60.314 0.004 7.96 3.92 9.68
5/13/2023 10:30:00 AM 15.73 60.314 0.004 7.98 4.26 9.66
5/13/2023 10:45:00 AM 15.73 60.314 0.003 7.98 5.76 9.66
5/13/2023 11:00:00 AM 15.74 60.332 0.004 7.98 3.88 9.67
5/13/2023 11:15:00 AM 15.71 60.278 0.004 7.98 4.53 9.64
5/13/2023 11:30:00 AM 15.71 60.278 0.004 7.98 4.96 9.61
5/13/2023 11:45:00 AM 15.71 60.278 0.004 7.97 4.2 9.61
5/13/2023 12:00:00 PM 15.75 60.35 0.004 7.98 4 9.68
5/13/2023 12:15:00 PM 15.83 60.494 0.004 8 3.67 9.74
5/13/2023 12:30:00 PM 15.92 60.656 0.004 8.03 3.93 9.81
5/13/2023 12:45:00 PM 16 60.8 0.004 8.05 4.23 9.82
5/13/2023 1:00:00 PM 16.03 60.854 0.004 8.05 4.98 9.81
5/13/2023 1:15:00 PM 16.07 60.926 0.004 8.04 4.36 9.79
5/13/2023 1:30:00 PM 16.1 60.98 0.004 8.04 4.42 9.75
5/13/2023 1:45:00 PM 16.12 61.016 0.005 8.05 3.81 9.76
5/13/2023 2:00:00 PM 16.16 61.088 0.004 8.04 4.38 9.74
5/13/2023 2:15:00 PM 16.22 61.196 0.004 8.06 4.71 9.71
5/13/2023 2:30:00 PM 16.35 61.43 0.004 8.08 3.77 9.78
5/13/2023 2:45:00 PM 16.41 61.538 0.004 8.08 4.04 9.81
5/13/2023 3:00:00 PM 16.39 61.502 0.004 8.1 3.92 9.81
5/13/2023 3:15:00 PM 16.51 61.718 0.004 8.11 3.55 9.81
5/13/2023 3:30:00 PM 16.52 61.736 0.004 8.12 3.89 9.78
5/13/2023 3:45:00 PM 16.53 61.754 0.003 8.12 3.95 9.76
5/13/2023 4:00:00 PM 16.55 61.79 0.004 8.11 4.58 9.76
5/13/2023 4:15:00 PM 16.72 62.096 0.004 8.12 3.9 9.78
5/13/2023 4:30:00 PM 16.82 62.276 0.004 8.12 3.53 9.76
5/13/2023 4:45:00 PM 16.83 62.294 0.004 8.13 3.65 9.73
5/13/2023 5:00:00 PM 16.82 62.276 0.004 8.11 4.36 9.7
5/13/2023 5:15:00 PM 16.8 62.24 0.004 8.11 4.92 9.66
5/13/2023 5:30:00 PM 16.77 62.186 0.005 8.1 3.67 9.58
5/13/2023 5:45:00 PM 16.71 62.078 0.004 8.1 5.54 9.52
5/13/2023 6:00:00 PM 16.63 61.934 0.004 8.08 4.51 9.47
5/13/2023 6:15:00 PM 16.54 61.772 0.004 8.08 3.85 9.43
5/13/2023 6:30:00 PM 16.46 61.628 0.004 8.05 4.5 9.36
5/13/2023 6:45:00 PM 16.35 61.43 0.004 8.05 5.14 9.32
5/13/2023 7:00:00 PM 16.27 61.286 0.004 8.03 5.01 9.27
5/13/2023 7:15:00 PM 16.15 61.07 0.004 8.01 5.57 9.19
5/13/2023 7:30:00 PM 16.03 60.854 0.004 8 3.68 9.18
5/13/2023 7:45:00 PM 15.96 60.728 0.004 7.99 5.41 9.16
5/13/2023 8:00:00 PM 15.89 60.602 0.004 7.98 5.75 9.14
5/13/2023 8:15:00 PM 15.83 60.494 0.004 7.97 5.31 9.13
5/13/2023 8:30:00 PM 15.79 60.422 0.003 7.96 4.6 9.13
5/13/2023 8:45:00 PM 15.75 60.35 0.004 7.96 4.52 9.14
5/13/2023 9:00:00 PM 15.71 60.278 0.004 7.96 4.77 9.15
5/13/2023 9:15:00 PM 15.67 60.206 0.004 7.95 4.33 9.15
5/13/2023 9:30:00 PM 15.63 60.134 0.004 7.93 3.74 9.11
5/13/2023 9:45:00 PM 15.58 60.044 0.003 7.93 4.48 9.11
5/13/2023 10:00:00 PM 15.52 59.936 0.004 7.93 3.94 9.14
5/13/2023 10:15:00 PM 15.47 59.846 0.004 7.93 3.69 9.18
5/13/2023 10:30:00 PM 15.41 59.738 0.004 7.92 4.39 9.15
5/13/2023 10:45:00 PM 15.32 59.576 0.004 7.92 4.52 9.17
5/13/2023 11:00:00 PM 15.26 59.468 0.004 7.92 3.91 9.19
5/13/2023 11:15:00 PM 15.19 59.342 0.003 7.92 3.35 9.2
5/13/2023 11:30:00 PM 15.1 59.18 0.003 7.92 5.22 9.24
5/13/2023 11:45:00 PM 15.02 59.036 0.003 7.9 4.02 9.2
5/14/2023 12:00:00 AM 14.93 58.874 0.003 7.89 5.82 9.23
5/14/2023 12:15:00 AM 14.87 58.766 0.003 7.91 4.14 9.29
5/14/2023 12:30:00 AM 14.78 58.604 0.003 7.9 4.13 9.25
5/14/2023 12:45:00 AM 14.71 58.478 0.004 7.89 4.24 9.28
5/14/2023 1:00:00 AM 14.63 58.334 0.003 7.9 5.72 9.3
5/14/2023 1:15:00 AM 14.53 58.154 0.003 7.89 5.46 9.33
5/14/2023 1:30:00 AM 14.46 58.028 0.003 7.9 4.6 9.38
5/14/2023 1:45:00 AM 14.4 57.92 0.003 7.9 5.15 9.37
5/14/2023 2:00:00 AM 14.33 57.794 0.003 7.89 4.91 9.4
5/14/2023 2:15:00 AM 14.29 57.722 0.003 7.91 3.74 9.43
5/14/2023 2:30:00 AM 14.22 57.596 0.003 7.89 3.88 9.41
5/14/2023 2:45:00 AM 14.16 57.488 0.003 7.9 3.71 9.44
5/14/2023 3:00:00 AM 14.11 57.398 0.004 7.9 4.91 9.46
5/14/2023 3:15:00 AM 14.06 57.308 0.003 7.9 5.48 9.48
5/14/2023 3:30:00 AM 14.03 57.254 0.003 7.91 5.04 9.5
5/14/2023 3:45:00 AM 13.96 57.128 0.003 7.91 4.66 9.52
5/14/2023 4:00:00 AM 13.88 56.984 0.003 7.91 3.93 9.51
5/14/2023 4:15:00 AM 13.82 56.876 0.003 7.91 4.02 9.53
5/14/2023 4:30:00 AM 13.74 56.732 0.003 7.91 5.39 9.56
5/14/2023 4:45:00 AM 13.68 56.624 0.003 7.91 4.23 9.57
5/14/2023 5:00:00 AM 13.6 56.48 0.003 7.9 4.09 9.52
5/14/2023 5:15:00 AM 13.51 56.318 0.004 7.9 9.76 9.57
5/14/2023 5:30:00 AM 13.45 56.21 0.004 7.9 13.63 9.6
5/14/2023 5:45:00 AM 13.4 56.12 0.004 7.9 7.75 9.62
5/14/2023 6:00:00 AM 13.38 56.084 0.004 7.91 5.94 9.7
5/14/2023 6:15:00 AM 13.35 56.03 0.005 7.91 4.93 9.73
5/14/2023 6:30:00 AM 13.32 55.976 0.004 7.91 4.35 9.74
5/14/2023 6:45:00 AM 13.35 56.03 0.004 7.91 5.25 9.81
5/14/2023 7:00:00 AM 13.39 56.102 0.004 7.93 4.38 9.94
5/14/2023 7:15:00 AM 13.43 56.174 0.004 7.96 7.43 9.99
5/14/2023 7:30:00 AM 13.47 56.246 0.005 7.97 3.89 10.03
5/14/2023 7:45:00 AM 13.51 56.318 0.004 7.98 3.83 10.05
5/14/2023 8:00:00 AM 13.59 56.462 0.005 7.99 3.57 10.09
5/14/2023 8:15:00 AM 13.62 56.516 0.004 8 4.21 10.12
5/14/2023 8:30:00 AM 13.7 56.66 0.004 8 4.47 10.11
5/14/2023 8:45:00 AM 13.75 56.75 0.004 8.02 5.11 10.12
5/14/2023 9:00:00 AM 13.87 56.966 0.005 7.97 9.2 10.08
5/14/2023 9:15:00 AM 14.03 57.254 0.004 7.97 4.2 10.07
5/14/2023 9:30:00 AM 14.24 57.632 0.005 7.98 3.91 10.08
5/14/2023 9:45:00 AM 14.49 58.082 0.003 8.01 5.49 10.07
5/14/2023 10:00:00 AM 14.77 58.586 0.005 8.02 4.65 10.09
5/14/2023 10:15:00 AM 15 59 0.004 8.04 4.21 10.11
5/14/2023 10:30:00 AM 15.28 59.504 0.005 8.06 3.77 10.11
5/14/2023 10:45:00 AM 15.6 60.08 0.004 8.07 4.43 10.12
5/14/2023 11:00:00 AM 15.75 60.35 0.005 8.07 3.69 10.09
5/14/2023 11:15:00 AM 16.05 60.89 0.005 8.08 4.12 10.06
5/14/2023 11:30:00 AM 16.35 61.43 0.004 8.1 4.02 10.08
5/14/2023 11:45:00 AM 16.66 61.988 0.005 8.12 4.36 10.07
5/14/2023 12:00:00 PM 16.7 62.06 0.005 8.14 4.57 10.08
5/14/2023 12:15:00 PM 16.69 62.042 0.005 8.14 3.59 10.05
5/14/2023 12:30:00 PM 16.79 62.222 0.005 8.15 4.03 10.05
5/14/2023 12:45:00 PM 17.12 62.816 0.004 8.16 4.05 10.06
5/14/2023 1:00:00 PM 17.44 63.392 0.004 8.16 3.61 10
5/14/2023 1:15:00 PM 17.64 63.752 0.004 8.17 3.41 9.93
5/14/2023 1:30:00 PM 17.94 64.292 0.005 8.18 3.34 9.94
5/14/2023 1:45:00 PM 18.11 64.598 0.005 8.18 4.06 9.91
5/14/2023 2:00:00 PM 18.25 64.85 0.004 8.19 3.47 9.85
5/14/2023 2:15:00 PM 18.32 64.976 0.005 8.2 4.22 9.82
5/14/2023 2:30:00 PM 18.45 65.21 0.004 8.2 3.32 9.78
5/14/2023 2:45:00 PM 18.54 65.372 0.005 8.21 8.86 9.75
5/14/2023 3:00:00 PM 18.75 65.75 0.005 8.2 4.32 9.72
5/14/2023 3:15:00 PM 18.74 65.732 0.005 8.21 3.64 9.66
5/14/2023 3:30:00 PM 18.74 65.732 0.004 8.21 5.01 9.63
5/14/2023 3:45:00 PM 18.69 65.642 0.005 8.22 4.58 9.6
5/14/2023 4:00:00 PM 18.65 65.57 0.005 8.21 3.54 9.55
5/14/2023 4:15:00 PM 18.66 65.588 0.005 8.21 3.89 9.5
5/14/2023 4:30:00 PM 18.56 65.408 0.005 8.2 8.19 9.47
5/14/2023 4:45:00 PM 18.45 65.21 0.005 8.19 4.68 9.42
5/14/2023 5:00:00 PM 18.3 64.94 0.005 8.17 4.08 9.33
5/14/2023 5:15:00 PM 18.16 64.688 0.005 8.17 4.22 9.29
5/14/2023 5:30:00 PM 18.05 64.49 0.004 8.16 3.82 9.26
5/14/2023 5:45:00 PM 17.93 64.274 0.004 8.14 4.12 9.22
5/14/2023 6:00:00 PM 17.77 63.986 0.005 8.14 4.77 9.16
5/14/2023 6:15:00 PM 17.61 63.698 0.004 8.11 4.04 9.11
5/14/2023 6:30:00 PM 17.49 63.482 0.005 8.12 4.92 9.1
5/14/2023 6:45:00 PM 17.36 63.248 0.005 8.1 4.48 9.09
5/14/2023 7:00:00 PM 17.22 62.996 0.005 8.1 4.86 9.06
5/14/2023 7:15:00 PM 17.11 62.798 0.004 8.09 4.62 9.04
5/14/2023 7:30:00 PM 16.98 62.564 0.006 8.07 4.21 8.99
5/14/2023 7:45:00 PM 16.88 62.384 0.005 8.06 4.13 8.97
5/14/2023 8:00:00 PM 16.8 62.24 0.004 8.04 4.45 8.93
5/14/2023 8:15:00 PM 16.73 62.114 0.004 8.04 4 8.96
5/14/2023 8:30:00 PM 16.62 61.916 0.004 8.02 3.9 8.92
5/14/2023 8:45:00 PM 16.52 61.736 0.004 8.02 4.19 8.97
5/14/2023 9:00:00 PM 16.4 61.52 0.005 8 4.03 8.95
5/14/2023 9:15:00 PM 16.29 61.322 0.005 7.99 6.18 8.96
5/14/2023 9:30:00 PM 16.19 61.142 0.004 7.98 4.32 8.95
5/14/2023 9:45:00 PM 16.08 60.944 0.004 7.98 6.19 8.99
5/14/2023 10:00:00 PM 15.97 60.746 0.004 7.97 4.49 9.02
5/14/2023 10:15:00 PM 15.85 60.53 0.005 7.97 4.11 9.05
5/14/2023 10:30:00 PM 15.74 60.332 0.004 7.97 4.79 9.09
5/14/2023 10:45:00 PM 15.63 60.134 0.003 7.96 4.47 9.08
5/14/2023 11:00:00 PM 15.51 59.918 0.004 7.96 4.13 9.12
5/14/2023 11:15:00 PM 15.4 59.72 0.004 7.96 4.7 9.13
5/14/2023 11:30:00 PM 15.3 59.54 0.005 7.96 3.92 9.16
5/14/2023 11:45:00 PM 15.18 59.324 0.004 7.95 4.64 9.16
5/15/2023 12:00:00 AM 15.07 59.126 0.003 7.94 6.06 9.19
5/15/2023 12:15:00 AM 14.95 58.91 0.004 7.94 7.22 9.19
5/15/2023 12:30:00 AM 14.84 58.712 0.004 7.95 4 9.24
5/15/2023 12:45:00 AM 14.73 58.514 0.004 7.94 5.12 9.26
5/15/2023 1:00:00 AM 14.61 58.298 0.004 7.94 4.69 9.3
5/15/2023 1:15:00 AM 14.5 58.1 0.004 7.95 3.55 9.33
5/15/2023 1:30:00 AM 14.41 57.938 0.004 7.95 5.21 9.36
5/15/2023 1:45:00 AM 14.27 57.686 0.004 7.94 4.52 9.38
5/15/2023 2:00:00 AM 14.18 57.524 0.004 7.94 4.25 9.4
5/15/2023 2:15:00 AM 14.1 57.38 0.004 7.95 6.53 9.45
5/15/2023 2:30:00 AM 14.01 57.218 0.003 7.94 5.26 9.46
5/15/2023 2:45:00 AM 13.91 57.038 0.004 7.94 4.28 9.48
5/15/2023 3:00:00 AM 13.81 56.858 0.004 7.93 4.42 9.48
5/15/2023 3:15:00 AM 13.73 56.714 0.004 7.94 3.59 9.53
5/15/2023 3:30:00 AM 13.62 56.516 0.004 7.95 4.16 9.54
5/15/2023 3:45:00 AM 13.55 56.39 0.004 7.95 5.48 9.56
5/15/2023 4:00:00 AM 13.44 56.192 0.004 7.95 3.93 9.58
5/15/2023 4:15:00 AM 13.36 56.048 0.004 7.95 4.91 9.63
5/15/2023 4:30:00 AM 13.25 55.85 0.004 7.93 5.71 9.59
5/15/2023 4:45:00 AM 13.12 55.616 0.004 7.94 5.24 9.63
5/15/2023 5:00:00 AM 13.01 55.418 0.004 7.95 5.33 9.68
5/15/2023 5:15:00 AM 12.91 55.238 0.004 7.95 4.98 9.72
5/15/2023 5:30:00 AM 12.83 55.094 0.003 7.94 4.2 9.75
5/15/2023 5:45:00 AM 12.71 54.878 0.005 7.95 7.11 9.8
5/15/2023 6:00:00 AM 12.65 54.77 0.004 7.94 4.03 9.78
5/15/2023 6:15:00 AM 12.59 54.662 0.004 7.93 4.8 9.76
5/15/2023 6:30:00 AM 12.49 54.482 0.004 7.93 4.62 9.86
5/15/2023 6:45:00 AM 12.55 54.59 0.004 7.94 4.12 9.92
5/15/2023 7:00:00 AM 12.6 54.68 0.004 7.95 5.32 10.04
5/15/2023 7:15:00 AM 12.6 54.68 0.004 7.97 4.21 10.11
5/15/2023 7:30:00 AM 12.59 54.662 0.004 8 7.08 10.21
5/15/2023 7:45:00 AM 12.63 54.734 0.004 8.01 4.2 10.24
5/15/2023 8:00:00 AM 12.68 54.824 0.004 8.01 4.37 10.31
5/15/2023 8:15:00 AM 12.71 54.878 0.004 8.02 3.91 10.33
5/15/2023 8:30:00 AM 12.78 55.004 0.004 8.02 3.74 10.3
5/15/2023 8:45:00 AM 12.87 55.166 0.004 8.02 4.58 10.36
5/15/2023 9:00:00 AM 12.98 55.364 0.004 8.01 4.08 10.31
5/15/2023 9:15:00 AM 13.11 55.598 0.003 7.99 4.3 10.29
5/15/2023 9:30:00 AM 13.31 55.958 0.004 8.03 6.51 10.36
5/15/2023 9:45:00 AM 13.55 56.39 0.004 8.04 4.37 10.39
5/15/2023 10:00:00 AM 13.81 56.858 0.004 8.05 4.68 10.38
5/15/2023 10:15:00 AM 14.11 57.398 0.004 8.06 3.73 10.36
5/15/2023 10:30:00 AM 14.35 57.83 0.004 8.07 3.78 10.37
5/15/2023 10:45:00 AM 14.7 58.46 0.004 8.08 3.71 10.39
5/15/2023 11:00:00 AM 14.93 58.874 0.005 8.09 6.12 10.36
5/15/2023 11:15:00 AM 15.17 59.306 0.004 8.09 3.56 10.4
5/15/2023 11:30:00 AM 15.53 59.954 0.005 8.11 4.3 10.27
5/15/2023 11:45:00 AM 15.86 60.548 0.003 8.14 4.07 10.31
5/15/2023 12:00:00 PM 16.25 61.25 0.004 8.14 3.7 10.28
5/15/2023 12:15:00 PM 16.49 61.682 0.004 8.16 3.76 10.24
5/15/2023 12:30:00 PM 16.8 62.24 0.004 8.17 3.52 10.22
5/15/2023 12:45:00 PM 17.21 62.978 0.004 8.18 3.42 10.2
5/15/2023 1:00:00 PM 17.38 63.284 0.004 8.18 4.17 10.12
5/15/2023 1:15:00 PM 17.56 63.608 0.003 8.2 3.38 10.09
5/15/2023 1:30:00 PM 17.87 64.166 0.004 8.19 8.05 10.02
5/15/2023 1:45:00 PM 18.1 64.58 0.004 8.2 3.72 9.97
5/15/2023 2:00:00 PM 18.28 64.904 0.005 8.21 3.97 9.94
5/15/2023 2:15:00 PM 18.53 65.354 0.004 8.21 7.54 9.88
5/15/2023 2:30:00 PM 18.61 65.498 0.005 8.21 3.43 9.81
5/15/2023 2:45:00 PM 18.72 65.696 0.004 8.23 3.35 9.75
5/15/2023 3:00:00 PM 18.76 65.768 0.004 8.23 3.52 9.7
5/15/2023 3:15:00 PM 18.83 65.894 0.006 8.23 3.8 9.66
5/15/2023 3:30:00 PM 18.9 66.02 0.004 8.23 4.08 9.62
5/15/2023 3:45:00 PM 18.98 66.164 0.004 8.23 3.55 9.57
5/15/2023 4:00:00 PM 18.96 66.128 0.005 8.23 3.75 9.5
5/15/2023 4:15:00 PM 18.91 66.038 0.004 8.23 3.52 9.47
5/15/2023 4:30:00 PM 18.84 65.912 0.005 8.23 3.38 9.41
5/15/2023 4:45:00 PM 18.75 65.75 0.005 8.22 4.33 9.37
5/15/2023 5:00:00 PM 18.57 65.426 0.005 8.21 3.71 9.27
5/15/2023 5:15:00 PM 18.43 65.174 0.005 8.2 3.55 9.26
5/15/2023 5:30:00 PM 18.29 64.922 0.005 8.19 3.73 9.18
5/15/2023 5:45:00 PM 18.14 64.652 0.004 8.18 7.32 9.15
5/15/2023 6:00:00 PM 18.03 64.454 0.003 8.17 4.65 9.15
5/15/2023 6:15:00 PM 17.87 64.166 0.005 8.15 3.84 9.06
5/15/2023 6:30:00 PM 17.71 63.878 0.005 8.14 4.13 9.04
5/15/2023 6:45:00 PM 17.56 63.608 0.005 8.12 3.97 8.98
5/15/2023 7:00:00 PM 17.4 63.32 0.005 8.1 3.66 8.94
5/15/2023 7:15:00 PM 17.28 63.104 0.006 8.09 3.63 8.93
5/15/2023 7:30:00 PM 17.13 62.834 0.004 8.07 6.89 8.9
5/15/2023 7:45:00 PM 16.99 62.582 0.004 8.06 4.87 8.86
5/15/2023 8:00:00 PM 16.86 62.348 0.004 8.04 4.15 8.81
5/15/2023 8:15:00 PM 16.73 62.114 0.004 8.03 3.96 8.83
5/15/2023 8:30:00 PM 16.59 61.862 0.003 8.02 4.28 8.83
5/15/2023 8:45:00 PM 16.48 61.664 0.004 8.02 4.35 8.83
5/15/2023 9:00:00 PM 16.36 61.448 0.003 8.01 5.29 8.86
5/15/2023 9:15:00 PM 16.27 61.286 0.004 8 3.99 8.87
5/15/2023 9:30:00 PM 16.15 61.07 0.005 7.98 4.37 8.87
5/15/2023 9:45:00 PM 15.99 60.782 0.004 7.99 4.23 8.9
5/15/2023 10:00:00 PM 15.87 60.566 0.004 7.97 6.47 8.9
5/15/2023 10:15:00 PM 15.75 60.35 0.005 7.97 6.23 8.93
5/15/2023 10:30:00 PM 15.61 60.098 0.003 7.97 5.91 8.98
5/15/2023 10:45:00 PM 15.46 59.828 0.004 7.97 4.85 8.99
5/15/2023 11:00:00 PM 15.32 59.576 0.005 7.97 7.39 9.04
5/15/2023 11:15:00 PM 15.16 59.288 0.004 7.96 4.86 9.04
5/15/2023 11:30:00 PM 15.01 59.018 0.004 7.96 3.9 9.08
5/15/2023 11:45:00 PM 14.87 58.766 0.005 7.94 9.85 9.1
5/16/2023 12:00:00 AM 14.72 58.496 0.004 7.95 5.33 9.16
5/16/2023 12:15:00 AM 14.58 58.244 0.004 7.96 3.96 9.22
5/16/2023 12:30:00 AM 14.43 57.974 0.003 7.95 5.96 9.19
5/16/2023 12:45:00 AM 14.28 57.704 0.004 7.96 8.6 9.25
5/16/2023 1:00:00 AM 14.11 57.398 0.005 7.95 6.82 9.3
5/16/2023 1:15:00 AM 13.98 57.164 0.004 7.96 5.62 9.35
5/16/2023 1:30:00 AM 13.85 56.93 0.004 7.95 4.12 9.33
5/16/2023 1:45:00 AM 13.72 56.696 0.004 7.95 4.69 9.38
5/16/2023 2:00:00 AM 13.58 56.444 0.005 7.94 7.89 9.38
5/16/2023 2:15:00 AM 13.46 56.228 0.003 7.95 5.89 9.42
5/16/2023 2:30:00 AM 13.35 56.03 0.004 7.95 4.46 9.49
5/16/2023 2:45:00 AM 13.22 55.796 0.004 7.94 3.94 9.49
5/16/2023 3:00:00 AM 13.12 55.616 0.004 7.94 7.44 9.53
5/16/2023 3:15:00 AM 12.99 55.382 0.004 7.95 3.94 9.57
5/16/2023 3:30:00 AM 12.86 55.148 0.004 7.94 5.12 9.57
5/16/2023 3:45:00 AM 12.76 54.968 0.004 7.94 4.32 9.59
5/16/2023 4:00:00 AM 12.63 54.734 0.003 7.95 3.97 9.67
5/16/2023 4:15:00 AM 12.53 54.554 0.004 7.94 7.69 9.63
5/16/2023 4:30:00 AM 12.42 54.356 0.004 7.94 6.96 9.65
5/16/2023 4:45:00 AM 12.31 54.158 0.004 7.94 6.85 9.68
5/16/2023 5:00:00 AM 12.19 53.942 0.004 7.94 4.06 9.71
5/16/2023 5:15:00 AM 12.11 53.798 0.003 7.95 5.11 9.79
5/16/2023 5:30:00 AM 12.02 53.636 0.004 7.94 3.79 9.78
5/16/2023 5:45:00 AM 11.93 53.474 0.003 7.95 4.01 9.82
5/16/2023 6:00:00 AM 11.87 53.366 0.003 7.95 3.79 9.75
5/16/2023 6:15:00 AM 11.8 53.24 0.004 7.93 4.23 9.85
5/16/2023 6:30:00 AM 11.78 53.204 0.004 7.92 4.23 9.93
5/16/2023 6:45:00 AM 11.88 53.384 0.004 7.94 6.99 9.99
5/16/2023 7:00:00 AM 11.94 53.492 0.004 7.96 7.89 10.09
5/16/2023 7:15:00 AM 11.98 53.564 0.004 7.98 5.07 10.13
5/16/2023 7:30:00 AM 11.99 53.582 0.003 7.99 4.01 10.24
5/16/2023 7:45:00 AM 12.06 53.708 0.003 7.99 4.03 10.23
5/16/2023 8:00:00 AM 12.14 53.852 0.004 7.99 4.12 10.3
5/16/2023 8:15:00 AM 12.21 53.978 0.004 8.01 4.76 10.33
5/16/2023 8:30:00 AM 12.31 54.158 0.004 8.01 4.52 10.36
5/16/2023 8:45:00 AM 12.46 54.428 0.004 8.02 4.57 10.38
5/16/2023 9:00:00 AM 12.61 54.698 0.004 8.04 5.21 10.4
5/16/2023 9:15:00 AM 12.81 55.058 0.003 8.03 4.63 10.41
5/16/2023 9:30:00 AM 13 55.4 0.004 8.03 5.42 10.41
5/16/2023 9:45:00 AM 13.22 55.796 0.004 8.08 8.56 10.42
5/16/2023 10:00:00 AM 13.36 56.048 0.003 8.09 5.63 10.49
5/16/2023 10:15:00 AM 13.5 56.3 0.004 8.11 4.12 10.49
5/16/2023 10:30:00 AM 13.62 56.516 0.004 8.11 4.23 10.48
5/16/2023 10:45:00 AM 13.85 56.93 0.004 8.13 7.56 10.49
5/16/2023 11:00:00 AM 13.96 57.128 0.004 8.15 4.96 10.5
5/16/2023 11:15:00 AM 14.24 57.632 0.004 8.14 4.51 10.51
5/16/2023 11:30:00 AM 14.51 58.118 0.004 8.16 4.13 10.44
5/16/2023 11:45:00 AM 14.8 58.64 0.004 8.17 4.83 10.44
5/16/2023 12:00:00 PM 15.23 59.414 0.005 8.18 9.12 10.38
5/16/2023 12:15:00 PM 15.4 59.72 0.005 8.2 4.08 10.29
5/16/2023 12:30:00 PM 15.59 60.062 0.004 8.21 4.17 10.3
5/16/2023 12:45:00 PM 15.74 60.332 0.005 8.21 3.97 10.27
5/16/2023 1:00:00 PM 15.9 60.62 0.005 8.22 3.93 10.24
5/16/2023 1:15:00 PM 15.9 60.62 0.005 8.22 4.26 10.18
5/16/2023 1:30:00 PM 16.32 61.376 0.003 8.22 4.26 10.14
5/16/2023 1:45:00 PM 16.32 61.376 0.005 8.23 5.74 10.11
5/16/2023 2:00:00 PM 16.4 61.52 0.004 8.23 4.28 10.07
5/16/2023 2:15:00 PM 16.56 61.808 0.005 8.23 3.99 10.05
5/16/2023 2:30:00 PM 16.58 61.844 0.004 8.24 3.89 9.97
5/16/2023 2:45:00 PM 16.51 61.718 0.005 8.23 4.45 9.89
5/16/2023 3:00:00 PM 16.52 61.736 0.004 8.23 8.07 9.86
5/16/2023 3:15:00 PM 16.56 61.808 0.005 8.24 4.25 9.84
5/16/2023 3:30:00 PM 16.54 61.772 0.005 8.23 5.01 9.78
5/16/2023 3:45:00 PM 16.53 61.754 0.004 8.23 6.36 9.74
5/16/2023 4:00:00 PM 16.54 61.772 0.004 8.23 3.55 9.73
5/16/2023 4:15:00 PM 16.51 61.718 0.005 8.22 4.41 9.68
5/16/2023 4:30:00 PM 16.47 61.646 0.005 8.21 3.87 9.63
5/16/2023 4:45:00 PM 16.45 61.61 0.005 8.2 4.55 9.61
5/16/2023 5:00:00 PM 16.43 61.574 0.004 8.2 5.33 9.55
5/16/2023 5:15:00 PM 16.38 61.484 0.004 8.2 4.5 9.53
5/16/2023 5:30:00 PM 16.38 61.484 0.005 8.19 5.08 9.5
5/16/2023 5:45:00 PM 16.36 61.448 0.003 8.18 3.6 9.46
5/16/2023 6:00:00 PM 16.31 61.358 0.005 8.18 7.62 9.39
5/16/2023 6:15:00 PM 16.26 61.268 0.004 8.17 4.03 9.32
5/16/2023 6:30:00 PM 16.2 61.16 0.004 8.15 4.11 9.27
5/16/2023 6:45:00 PM 16.15 61.07 0.004 8.14 6.51 9.23
5/16/2023 7:00:00 PM 16.09 60.962 0.005 8.14 5.57 9.19
5/16/2023 7:15:00 PM 16.01 60.818 0.005 8.12 4.1 9.15
5/16/2023 7:30:00 PM 15.92 60.656 0.005 8.11 4.04 9.11
5/16/2023 7:45:00 PM 15.84 60.512 0.005 8.09 5.25 9.06
5/16/2023 8:00:00 PM 15.73 60.314 0.005 8.07 4.47 9.02
5/16/2023 8:15:00 PM 15.64 60.152 0.005 8.06 4.29 9
5/16/2023 8:30:00 PM 15.56 60.008 0.004 8.05 7.22 8.97
5/16/2023 8:45:00 PM 15.48 59.864 0.005 8.05 4.48 8.98
5/16/2023 9:00:00 PM 15.4 59.72 0.004 8.04 4.66 8.99
5/16/2023 9:15:00 PM 15.31 59.558 0.005 8.03 7.4 9
5/16/2023 9:30:00 PM 15.21 59.378 0.004 8.02 5.77 8.98
5/16/2023 9:45:00 PM 15.12 59.216 0.004 8.01 4.46 9
5/16/2023 10:00:00 PM 15.07 59.126 0.004 8.01 3.81 9.03
5/16/2023 10:15:00 PM 14.97 58.946 0.004 8 4.97 9.02
5/16/2023 10:30:00 PM 14.89 58.802 0.004 8 3.89 9.06
5/16/2023 10:45:00 PM 14.81 58.658 0.004 8 3.85 9.07
5/16/2023 11:00:00 PM 14.71 58.478 0.004 7.99 3.93 9.07
5/16/2023 11:15:00 PM 14.62 58.316 0.004 7.98 5.18 9.11
5/16/2023 11:30:00 PM 14.54 58.172 0.004 7.98 3.69 9.13
5/16/2023 11:45:00 PM 14.45 58.01 0.003 7.97 5.27 9.11
5/17/2023 12:00:00 AM 14.38 57.884 0.004 7.98 3.75 9.15
5/17/2023 12:15:00 AM 14.3 57.74 0.004 7.96 5.07 9.13
5/17/2023 12:30:00 AM 14.22 57.596 0.004 7.97 3.98 9.19
5/17/2023 12:45:00 AM 14.15 57.47 0.004 7.96 3.8 9.18
5/17/2023 1:00:00 AM 14.08 57.344 0.004 7.96 5.26 9.22
5/17/2023 1:15:00 AM 14 57.2 0.004 7.95 4.61 9.22
5/17/2023 1:30:00 AM 13.91 57.038 0.004 7.95 3.83 9.25
5/17/2023 1:45:00 AM 13.84 56.912 0.004 7.95 7.44 9.25
5/17/2023 2:00:00 AM 13.76 56.768 0.005 7.93 19.58 9.22
5/17/2023 2:15:00 AM 13.68 56.624 0.004 7.96 5.91 9.29
5/17/2023 2:30:00 AM 13.6 56.48 0.003 7.96 7.59 9.32
5/17/2023 2:45:00 AM 13.54 56.372 0.005 7.96 4.74 9.35
5/17/2023 3:00:00 AM 13.47 56.246 0.004 7.96 4.72 9.35
5/17/2023 3:15:00 AM 13.37 56.066 0.004 7.96 7.27 9.37
5/17/2023 3:30:00 AM 13.31 55.958 0.004 7.97 7.49 9.42
5/17/2023 3:45:00 AM 13.24 55.832 0.004 7.97 5.11 9.45
5/17/2023 4:00:00 AM 13.16 55.688 0.004 7.97 4.31 9.45
5/17/2023 4:15:00 AM 13.1 55.58 0.004 7.97 5.32 9.44
5/17/2023 4:30:00 AM 13.03 55.454 0.004 7.96 7.23 9.45
5/17/2023 4:45:00 AM 12.96 55.328 0.004 7.97 7.9 9.5
5/17/2023 5:00:00 AM 12.87 55.166 0.004 7.96 7.87 9.47
5/17/2023 5:15:00 AM 12.83 55.094 0.003 7.95 4.13 9.44
5/17/2023 5:30:00 AM 12.77 54.986 0.004 7.95 3.97 9.45
5/17/2023 5:45:00 AM 12.72 54.896 0.004 7.94 4.67 9.45
5/17/2023 6:00:00 AM 12.66 54.788 0.004 7.94 5 9.52
5/17/2023 6:15:00 AM 12.64 54.752 0.004 7.94 4.59 9.58
5/17/2023 6:30:00 AM 12.63 54.734 0.004 7.94 8.56 9.56
5/17/2023 6:45:00 AM 12.69 54.842 0.004 7.94 8.15 9.61
5/17/2023 7:00:00 AM 12.79 55.022 0.004 7.98 4.41 9.74
5/17/2023 7:15:00 AM 12.8 55.04 0.004 7.98 5.67 9.85
5/17/2023 7:30:00 AM 12.85 55.13 0.005 8 5.32 9.86
5/17/2023 7:45:00 AM 12.9 55.22 0.004 7.99 6.46 9.96
5/17/2023 8:00:00 AM 13.05 55.49 0.004 8.01 5.8 10.01
5/17/2023 8:15:00 AM 13.04 55.472 0.004 8.02 6.25 10.11
5/17/2023 8:30:00 AM 13.03 55.454 0.004 8.04 5.56 10.04
5/17/2023 8:45:00 AM 13.14 55.652 0.003 8.03 5.4 10.12
5/17/2023 9:00:00 AM 13.29 55.922 0.004 8.05 6.8 10.15
5/17/2023 9:15:00 AM 13.3 55.94 0.004 8.04 5.54 10.09
5/17/2023 9:30:00 AM 13.64 56.552 0.004 8.07 5.28 10.18
5/17/2023 9:45:00 AM 13.55 56.39 0.004 8.08 4.38 10.1
5/17/2023 10:00:00 AM 13.86 56.948 0.004 8.09 5.85 10.13
5/17/2023 10:15:00 AM 14.15 57.47 0.005 8.1 5.14 10.18
5/17/2023 10:30:00 AM 14.36 57.848 0.004 8.11 4.39 10.18
5/17/2023 10:45:00 AM 14.6 58.28 0.003 8.13 7.76 10.14
5/17/2023 11:00:00 AM 14.87 58.766 0.004 8.14 6.95 10.14
5/17/2023 11:15:00 AM 15.11 59.198 0.004 8.14 6.13 10.1
5/17/2023 11:30:00 AM 15.5 59.9 0.005 8.14 5.47 10.14
5/17/2023 11:45:00 AM 15.88 60.584 0.004 8.16 5.02 10.14
5/17/2023 12:00:00 PM 15.87 60.566 0.004 8.17 4.6 10.12
5/17/2023 12:15:00 PM 16.61 61.898 0.005 8.17 5.15 10.14
5/17/2023 12:30:00 PM 16.82 62.276 0.005 8.18 4.49 10.09
5/17/2023 12:45:00 PM 17.13 62.834 0.004 8.19 4.22 10.06
5/17/2023 1:00:00 PM 17.39 63.302 0.005 8.2 4.11 10.05
5/17/2023 1:15:00 PM 17.63 63.734 0.004 8.2 6.38 10.01
5/17/2023 1:30:00 PM 17.63 63.734 0.005 8.21 4.07 9.92
5/17/2023 1:45:00 PM 17.62 63.716 0.005 8.22 3.75 9.9
5/17/2023 2:00:00 PM 17.99 64.382 0.004 8.22 4.69 9.87
5/17/2023 2:15:00 PM 18.19 64.742 0.005 8.23 4.5 9.88
5/17/2023 2:30:00 PM 18.37 65.066 0.005 8.24 4.16 9.83
5/17/2023 2:45:00 PM 18.41 65.138 0.005 8.24 5.32 9.8
5/17/2023 3:00:00 PM 18.33 64.994 0.004 8.25 7.07 9.73
5/17/2023 3:15:00 PM 18.44 65.192 0.005 8.25 4.28 9.71
5/17/2023 3:30:00 PM 18.39 65.102 0.005 8.25 3.96 9.66
5/17/2023 3:45:00 PM 18.37 65.066 0.004 8.25 4.2 9.66
5/17/2023 4:00:00 PM 18.22 64.796 0.004 8.25 3.61 9.6
5/17/2023 4:15:00 PM 18.11 64.598 0.005 8.25 4.54 9.53
5/17/2023 4:30:00 PM 17.96 64.328 0.005 8.25 3.99 9.51
5/17/2023 4:45:00 PM 17.86 64.148 0.005 8.24 4.52 9.48
5/17/2023 5:00:00 PM 17.64 63.752 0.005 8.23 6.77 9.42
5/17/2023 5:15:00 PM 17.44 63.392 0.005 8.22 9.31 9.36
5/17/2023 5:30:00 PM 17.3 63.14 0.005 8.22 4.02 9.29
5/17/2023 5:45:00 PM 17.13 62.834 0.005 8.21 6.8 9.28
5/17/2023 6:00:00 PM 16.94 62.492 0.004 8.2 3.94 9.26
5/17/2023 6:15:00 PM 16.77 62.186 0.005 8.19 4.36 9.27
5/17/2023 6:30:00 PM 16.61 61.898 0.005 8.17 4.66 9.23
5/17/2023 6:45:00 PM 16.42 61.556 0.005 8.17 5.08 9.2
5/17/2023 7:00:00 PM 16.23 61.214 0.005 8.14 5.86 9.14
5/17/2023 7:15:00 PM 16.06 60.908 0.004 8.14 3.58 9.11
5/17/2023 7:30:00 PM 15.88 60.584 0.005 8.13 7.17 9.13
5/17/2023 7:45:00 PM 15.72 60.296 0.004 8.12 3.55 9.11
5/17/2023 8:00:00 PM 15.53 59.954 0.004 8.1 3.88 9.1
5/17/2023 8:15:00 PM 15.41 59.738 0.004 8.09 3.84 9.07
5/17/2023 8:30:00 PM 15.28 59.504 0.004 8.08 4.06 9.12
5/17/2023 8:45:00 PM 15.17 59.306 0.004 8.08 4.02 9.15
5/17/2023 9:00:00 PM 15.04 59.072 0.004 8.07 3.93 9.15
5/17/2023 9:15:00 PM 14.91 58.838 0.004 8.06 4.23 9.17
5/17/2023 9:30:00 PM 14.8 58.64 0.004 8.06 3.81 9.19
5/17/2023 9:45:00 PM 14.65 58.37 0.004 8.06 3.97 9.22
5/17/2023 10:00:00 PM 14.53 58.154 0.003 8.05 3.92 9.25
5/17/2023 10:15:00 PM 14.41 57.938 0.003 8.05 3.9 9.28
5/17/2023 10:30:00 PM 14.26 57.668 0.004 8.05 4.84 9.3
5/17/2023 10:45:00 PM 14.15 57.47 0.004 8.05 3.49 9.36
5/17/2023 11:00:00 PM 13.99 57.182 0.004 8.04 3.76 9.39
5/17/2023 11:15:00 PM 13.87 56.966 0.004 8.04 3.64 9.45
5/17/2023 11:30:00 PM 13.72 56.696 0.004 8.04 4.14 9.43
5/17/2023 11:45:00 PM 13.53 56.354 0.004 8.03 4.24 9.48
5/18/2023 12:00:00 AM 13.39 56.102 0.004 8.03 6.8 9.53
5/18/2023 12:15:00 AM 13.24 55.832 0.003 8.03 3.72 9.55
5/18/2023 12:30:00 AM 13.07 55.526 0.004 8.02 4.04 9.59
5/18/2023 12:45:00 AM 12.9 55.22 0.004 8.02 5.24 9.62
5/18/2023 1:00:00 AM 12.76 54.968 0.004 8.02 5.46 9.67
5/18/2023 1:15:00 AM 12.59 54.662 0.004 8.02 5.17 9.7
5/18/2023 1:30:00 AM 12.47 54.446 0.004 8.02 4.94 9.78
5/18/2023 1:45:00 AM 12.31 54.158 0.004 8.02 4.7 9.77
5/18/2023 2:00:00 AM 12.16 53.888 0.004 8.02 3.67 9.84
5/18/2023 2:15:00 AM 12.02 53.636 0.004 8.02 4.43 9.86
5/18/2023 2:30:00 AM 11.88 53.384 0.003 8.01 4.82 9.87
5/18/2023 2:45:00 AM 11.75 53.15 0.003 8.01 4.75 9.91
5/18/2023 3:00:00 AM 11.63 52.934 0.004 8.01 4.32 9.97
5/18/2023 3:15:00 AM 11.51 52.718 0.003 8.01 4.13 10
5/18/2023 3:30:00 AM 11.36 52.448 0.005 8.01 3.65 10.02
5/18/2023 3:45:00 AM 11.26 52.268 0.005 8.01 3.77 10.06
5/18/2023 4:00:00 AM 11.17 52.106 0.004 8.01 3.87 10.11
5/18/2023 4:15:00 AM 11.03 51.854 0.004 8.01 4.93 10.11
5/18/2023 4:30:00 AM 10.95 51.71 0.004 8.02 5.24 10.16
5/18/2023 4:45:00 AM 10.84 51.512 0.003 8.01 3.99 10.18
5/18/2023 5:00:00 AM 10.73 51.314 0.004 8 4.56 10.17
5/18/2023 5:15:00 AM 10.63 51.134 0.003 8 6.11 10.2
5/18/2023 5:30:00 AM 10.53 50.954 0.003 8 4.03 10.19
5/18/2023 5:45:00 AM 10.45 50.81 0.003 8 3.94 10.29
5/18/2023 6:00:00 AM 10.4 50.72 0.004 8.01 5.3 10.29
5/18/2023 6:15:00 AM 10.34 50.612 0.004 7.99 5.4 10.34
5/18/2023 6:30:00 AM 10.34 50.612 0.004 7.98 4.88 10.34
5/18/2023 6:45:00 AM 10.36 50.648 0.003 7.98 4.55 10.44
5/18/2023 7:00:00 AM 10.39 50.702 0.003 7.98 5.36 10.48
5/18/2023 7:15:00 AM 10.42 50.756 0.004 8 5.94 10.62
5/18/2023 7:30:00 AM 10.5 50.9 0.003 8 4.23 10.67
5/18/2023 7:45:00 AM 10.58 51.044 0.004 8.02 6.3 10.72
5/18/2023 8:00:00 AM 10.62 51.116 0.004 8.04 5.8 10.78
5/18/2023 8:15:00 AM 10.69 51.242 0.003 8.04 4.09 10.77
5/18/2023 8:30:00 AM 10.74 51.332 0.003 8.06 4.12 10.83
5/18/2023 8:45:00 AM 10.97 51.746 0.003 8.07 3.9 10.8
5/18/2023 9:00:00 AM 10.99 51.782 0.003 8.04 5.11 10.83
5/18/2023 9:15:00 AM 11.24 52.232 0.003 8.08 4.86 10.92
5/18/2023 9:30:00 AM 11.42 52.556 0.004 8.1 4.55 10.89
5/18/2023 9:45:00 AM 11.57 52.826 0.004 8.1 4.03 10.83
5/18/2023 10:00:00 AM 11.89 53.402 0.004 8.1 4.02 10.86
5/18/2023 10:15:00 AM 12.1 53.78 0.004 8.12 5.32 10.87
5/18/2023 10:30:00 AM 12.44 54.392 0.005 8.13 6.36 10.84
5/18/2023 10:45:00 AM 12.81 55.058 0.005 8.14 5.47 10.83
5/18/2023 11:00:00 AM 13.22 55.796 0.005 8.13 6.22 10.76
5/18/2023 11:15:00 AM 13.45 56.21 0.004 8.16 5.69 10.77
5/18/2023 11:30:00 AM 13.9 57.02 0.004 8.17 5.67 10.77
5/18/2023 11:45:00 AM 14.21 57.578 0.004 8.19 5.69 10.75
5/18/2023 12:00:00 PM 14.42 57.956 0.005 8.21 5.7 10.74
5/18/2023 12:15:00 PM 15.05 59.09 0.004 8.2 6 10.76
5/18/2023 12:30:00 PM 15.1 59.18 0.005 8.21 4.4 10.66
5/18/2023 12:45:00 PM 15.59 60.062 0.005 8.22 4.96 10.66
5/18/2023 1:00:00 PM 15.85 60.53 0.004 8.23 4.81 10.62
5/18/2023 1:15:00 PM 15.89 60.602 0.006 8.23 3.99 10.52
5/18/2023 1:30:00 PM 16.1 60.98 0.005 8.24 3.8 10.49
5/18/2023 1:45:00 PM 16.42 61.556 0.005 8.24 3.55 10.42
5/18/2023 2:00:00 PM 16.74 62.132 0.005 8.24 3.6 10.37
5/18/2023 2:15:00 PM 16.98 62.564 0.004 8.24 3.86 10.36
5/18/2023 2:30:00 PM 17.01 62.618 0.005 8.25 5.51 10.28
5/18/2023 2:45:00 PM 17.09 62.762 0.006 8.25 4.65 10.21
5/18/2023 3:00:00 PM 17.22 62.996 0.005 8.25 5.16 10.17
5/18/2023 3:15:00 PM 17.31 63.158 0.006 8.26 6.84 10.09
5/18/2023 3:30:00 PM 17.47 63.446 0.004 8.25 3.53 10.05
5/18/2023 3:45:00 PM 17.61 63.698 0.006 8.25 3.49 10
5/18/2023 4:00:00 PM 17.45 63.41 0.006 8.26 5.56 9.93
5/18/2023 4:15:00 PM 17.51 63.518 0.006 8.25 7.92 9.87
5/18/2023 4:30:00 PM 17.4 63.32 0.005 8.25 4.98 9.81
5/18/2023 4:45:00 PM 17.3 63.14 0.006 8.25 4.12 9.73
5/18/2023 5:00:00 PM 17.11 62.798 0.006 8.24 3.99 9.66
5/18/2023 5:15:00 PM 16.91 62.438 0.006 8.23 4.09 9.59
5/18/2023 5:30:00 PM 16.8 62.24 0.005 8.22 4.59 9.54
5/18/2023 5:45:00 PM 16.67 62.006 0.006 8.22 3.83 9.52
5/18/2023 6:00:00 PM 16.53 61.754 0.005 8.22 5.62 9.49
5/18/2023 6:15:00 PM 16.37 61.466 0.005 8.21 3.82 9.42
5/18/2023 6:30:00 PM 16.2 61.16 0.006 8.2 3.9 9.39
5/18/2023 6:45:00 PM 16.06 60.908 0.005 8.18 5.01 9.37
5/18/2023 7:00:00 PM 15.9 60.62 0.004 8.17 5.41 9.32

These are provisional data and have not been subject to a quality assurance process, but rather are the raw data reported by the instrument.
H: value is above sensor operating range
L: value is below sensor operating range
Offline: station is not reporting data
NC: parameter is not collected at site

Data Availability & Limitations

Uncertainty and potential for error can be associated with environmental monitoring data. Provisional data have not been subject to a quality assurance process, but rather are the raw data reported by the instrument. Data users are cautioned to consider carefully the provisional nature of the information before using it for decisions that concern personal or public safety or the conduct of business that involves substantial monetary or operational consequences.

Approved data are currently available by request by emailing: [email protected]. Approved data have been subject to a quality assurance process to correct for equipment or fouling drift. Data recorded during equipment malfunctions have been removed.

View Historical Stations that have been discontinued.